<?xml version="1.0" encoding="UTF-8" standalone="no" ?>
<gpx xmlns="http://www.topografix.com/GPX/1/1" xmlns:xsi="http://www.w3.org/2001/XMLSchema-instance" xsi:schemaLocation="http://www.topografix.com/GPX/1/1 http://www.topografix.com/GPX/1/1/gpx.xsd" version="1.1" creator="VisuGPX - https://www.visugpx.com">
  <metadata>
    <name>sejour-vtt-oronozia-j1-baigorri-aprs-midi</name>
    <desc><![CDATA[
sejour-vtt-oronozia-j1-baigorri-aprs-midi]]></desc>
  </metadata>
  <trk>
    <name><![CDATA[sejour-vtt-oronozia-j1-baigorri-aprs-midi]]></name>
    <desc><![CDATA[sejour-vtt-oronozia-j1-baigorri-aprs-midi]]></desc>
    <trkseg>
      <trkpt lat="43.17495" lon="-1.32998">
        <ele>235</ele>
        <time>2021-03-17T13:51:15.000Z</time>
      </trkpt>
      <trkpt lat="43.1748" lon="-1.33001">
        <ele>235</ele>
        <time>2021-03-17T13:51:16.000Z</time>
      </trkpt>
      <trkpt lat="43.17479" lon="-1.32988">
        <ele>235</ele>
        <time>2021-03-17T13:51:17.000Z</time>
      </trkpt>
      <trkpt lat="43.17452" lon="-1.32986">
        <ele>235</ele>
        <time>2021-03-17T13:51:18.000Z</time>
      </trkpt>
      <trkpt lat="43.17432" lon="-1.32983">
        <ele>235</ele>
        <time>2021-03-17T13:51:19.000Z</time>
      </trkpt>
      <trkpt lat="43.174" lon="-1.32976">
        <ele>254</ele>
        <time>2021-03-17T13:51:20.000Z</time>
      </trkpt>
      <trkpt lat="43.174" lon="-1.32977">
        <ele>254</ele>
        <time>2021-03-17T13:51:21.000Z</time>
      </trkpt>
      <trkpt lat="43.17394" lon="-1.32976">
        <ele>254</ele>
        <time>2021-03-17T13:51:22.000Z</time>
      </trkpt>
      <trkpt lat="43.17362" lon="-1.32975">
        <ele>254</ele>
        <time>2021-03-17T13:51:23.000Z</time>
      </trkpt>
      <trkpt lat="43.1735" lon="-1.32975">
        <ele>254</ele>
        <time>2021-03-17T13:51:24.000Z</time>
      </trkpt>
      <trkpt lat="43.17328" lon="-1.32973">
        <ele>262</ele>
        <time>2021-03-17T13:51:25.000Z</time>
      </trkpt>
      <trkpt lat="43.17317" lon="-1.32981">
        <ele>246</ele>
        <time>2021-03-17T13:51:26.000Z</time>
      </trkpt>
      <trkpt lat="43.17298" lon="-1.32982">
        <ele>246</ele>
        <time>2021-03-17T13:51:27.000Z</time>
      </trkpt>
      <trkpt lat="43.17268" lon="-1.32969">
        <ele>262</ele>
        <time>2021-03-17T13:51:28.000Z</time>
      </trkpt>
      <trkpt lat="43.17249" lon="-1.32964">
        <ele>282</ele>
        <time>2021-03-17T13:51:29.000Z</time>
      </trkpt>
      <trkpt lat="43.17234" lon="-1.32967">
        <ele>282</ele>
        <time>2021-03-17T13:51:30.000Z</time>
      </trkpt>
      <trkpt lat="43.17213" lon="-1.32978">
        <ele>282</ele>
        <time>2021-03-17T13:51:31.000Z</time>
      </trkpt>
      <trkpt lat="43.17194" lon="-1.32985">
        <ele>265</ele>
        <time>2021-03-17T13:51:32.000Z</time>
      </trkpt>
      <trkpt lat="43.17174" lon="-1.32986">
        <ele>289</ele>
        <time>2021-03-17T13:51:33.000Z</time>
      </trkpt>
      <trkpt lat="43.17164" lon="-1.32984">
        <ele>289</ele>
        <time>2021-03-17T13:51:34.000Z</time>
      </trkpt>
      <trkpt lat="43.17155" lon="-1.32978">
        <ele>304</ele>
        <time>2021-03-17T13:51:35.000Z</time>
      </trkpt>
      <trkpt lat="43.17147" lon="-1.32963">
        <ele>304</ele>
        <time>2021-03-17T13:51:36.000Z</time>
      </trkpt>
      <trkpt lat="43.17137" lon="-1.32957">
        <ele>304</ele>
        <time>2021-03-17T13:51:37.000Z</time>
      </trkpt>
      <trkpt lat="43.17124" lon="-1.32967">
        <ele>304</ele>
        <time>2021-03-17T13:51:38.000Z</time>
      </trkpt>
      <trkpt lat="43.17117" lon="-1.32979">
        <ele>304</ele>
        <time>2021-03-17T13:51:39.000Z</time>
      </trkpt>
      <trkpt lat="43.17107" lon="-1.33012">
        <ele>289</ele>
        <time>2021-03-17T13:51:40.000Z</time>
      </trkpt>
      <trkpt lat="43.17099" lon="-1.33026">
        <ele>289</ele>
        <time>2021-03-17T13:51:41.000Z</time>
      </trkpt>
      <trkpt lat="43.17057" lon="-1.33049">
        <ele>316</ele>
        <time>2021-03-17T13:51:42.000Z</time>
      </trkpt>
      <trkpt lat="43.1704" lon="-1.33058">
        <ele>316</ele>
        <time>2021-03-17T13:51:43.000Z</time>
      </trkpt>
      <trkpt lat="43.17032" lon="-1.33057">
        <ele>316</ele>
        <time>2021-03-17T13:51:44.000Z</time>
      </trkpt>
      <trkpt lat="43.17031" lon="-1.33049">
        <ele>316</ele>
        <time>2021-03-17T13:51:45.000Z</time>
      </trkpt>
      <trkpt lat="43.17036" lon="-1.33042">
        <ele>316</ele>
        <time>2021-03-17T13:51:46.000Z</time>
      </trkpt>
      <trkpt lat="43.17061" lon="-1.33019">
        <ele>316</ele>
        <time>2021-03-17T13:51:47.000Z</time>
      </trkpt>
      <trkpt lat="43.17075" lon="-1.33003">
        <ele>316</ele>
        <time>2021-03-17T13:51:48.000Z</time>
      </trkpt>
      <trkpt lat="43.17084" lon="-1.32964">
        <ele>325</ele>
        <time>2021-03-17T13:51:49.000Z</time>
      </trkpt>
      <trkpt lat="43.17091" lon="-1.32938">
        <ele>325</ele>
        <time>2021-03-17T13:51:50.000Z</time>
      </trkpt>
      <trkpt lat="43.17104" lon="-1.32917">
        <ele>304</ele>
        <time>2021-03-17T13:51:51.000Z</time>
      </trkpt>
      <trkpt lat="43.17115" lon="-1.32909">
        <ele>304</ele>
        <time>2021-03-17T13:51:52.000Z</time>
      </trkpt>
      <trkpt lat="43.1712" lon="-1.32903">
        <ele>304</ele>
        <time>2021-03-17T13:51:53.000Z</time>
      </trkpt>
      <trkpt lat="43.17122" lon="-1.32895">
        <ele>317</ele>
        <time>2021-03-17T13:51:54.000Z</time>
      </trkpt>
      <trkpt lat="43.17117" lon="-1.32888">
        <ele>317</ele>
        <time>2021-03-17T13:51:55.000Z</time>
      </trkpt>
      <trkpt lat="43.17114" lon="-1.32886">
        <ele>317</ele>
        <time>2021-03-17T13:51:56.000Z</time>
      </trkpt>
      <trkpt lat="43.17103" lon="-1.32881">
        <ele>317</ele>
        <time>2021-03-17T13:51:57.000Z</time>
      </trkpt>
      <trkpt lat="43.1708" lon="-1.32872">
        <ele>336</ele>
        <time>2021-03-17T13:51:58.000Z</time>
      </trkpt>
      <trkpt lat="43.17062" lon="-1.32857">
        <ele>336</ele>
        <time>2021-03-17T13:51:59.000Z</time>
      </trkpt>
      <trkpt lat="43.17044" lon="-1.32851">
        <ele>336</ele>
        <time>2021-03-17T13:52:00.000Z</time>
      </trkpt>
      <trkpt lat="43.17025" lon="-1.32843">
        <ele>336</ele>
        <time>2021-03-17T13:52:01.000Z</time>
      </trkpt>
      <trkpt lat="43.16992" lon="-1.32823">
        <ele>356</ele>
        <time>2021-03-17T13:52:02.000Z</time>
      </trkpt>
      <trkpt lat="43.16973" lon="-1.32805">
        <ele>344</ele>
        <time>2021-03-17T13:52:03.000Z</time>
      </trkpt>
      <trkpt lat="43.16966" lon="-1.328">
        <ele>344</ele>
        <time>2021-03-17T13:52:04.000Z</time>
      </trkpt>
      <trkpt lat="43.16958" lon="-1.32799">
        <ele>344</ele>
        <time>2021-03-17T13:52:05.000Z</time>
      </trkpt>
      <trkpt lat="43.16946" lon="-1.32809">
        <ele>344</ele>
        <time>2021-03-17T13:52:06.000Z</time>
      </trkpt>
      <trkpt lat="43.16937" lon="-1.32821">
        <ele>356</ele>
        <time>2021-03-17T13:52:07.000Z</time>
      </trkpt>
      <trkpt lat="43.1692" lon="-1.32865">
        <ele>361</ele>
        <time>2021-03-17T13:52:08.000Z</time>
      </trkpt>
      <trkpt lat="43.16913" lon="-1.32881">
        <ele>361</ele>
        <time>2021-03-17T13:52:09.000Z</time>
      </trkpt>
      <trkpt lat="43.16909" lon="-1.3289">
        <ele>361</ele>
        <time>2021-03-17T13:52:10.000Z</time>
      </trkpt>
      <trkpt lat="43.16909" lon="-1.32896">
        <ele>361</ele>
        <time>2021-03-17T13:52:11.000Z</time>
      </trkpt>
      <trkpt lat="43.16914" lon="-1.32897">
        <ele>361</ele>
        <time>2021-03-17T13:52:12.000Z</time>
      </trkpt>
      <trkpt lat="43.16919" lon="-1.32895">
        <ele>361</ele>
        <time>2021-03-17T13:52:13.000Z</time>
      </trkpt>
      <trkpt lat="43.16926" lon="-1.32887">
        <ele>361</ele>
        <time>2021-03-17T13:52:14.000Z</time>
      </trkpt>
      <trkpt lat="43.16939" lon="-1.32867">
        <ele>356</ele>
        <time>2021-03-17T13:52:15.000Z</time>
      </trkpt>
      <trkpt lat="43.16944" lon="-1.32863">
        <ele>356</ele>
        <time>2021-03-17T13:52:16.000Z</time>
      </trkpt>
      <trkpt lat="43.1695" lon="-1.32867">
        <ele>356</ele>
        <time>2021-03-17T13:52:17.000Z</time>
      </trkpt>
      <trkpt lat="43.16952" lon="-1.32872">
        <ele>356</ele>
        <time>2021-03-17T13:52:18.000Z</time>
      </trkpt>
      <trkpt lat="43.16951" lon="-1.32881">
        <ele>356</ele>
        <time>2021-03-17T13:52:19.000Z</time>
      </trkpt>
      <trkpt lat="43.16946" lon="-1.32893">
        <ele>356</ele>
        <time>2021-03-17T13:52:20.000Z</time>
      </trkpt>
      <trkpt lat="43.16938" lon="-1.32908">
        <ele>357</ele>
        <time>2021-03-17T13:52:21.000Z</time>
      </trkpt>
      <trkpt lat="43.1693" lon="-1.32918">
        <ele>357</ele>
        <time>2021-03-17T13:52:22.000Z</time>
      </trkpt>
      <trkpt lat="43.16916" lon="-1.32937">
        <ele>383</ele>
        <time>2021-03-17T13:52:23.000Z</time>
      </trkpt>
      <trkpt lat="43.16895" lon="-1.32977">
        <ele>383</ele>
        <time>2021-03-17T13:52:24.000Z</time>
      </trkpt>
      <trkpt lat="43.1689" lon="-1.32985">
        <ele>387</ele>
        <time>2021-03-17T13:52:25.000Z</time>
      </trkpt>
      <trkpt lat="43.16882" lon="-1.32993">
        <ele>387</ele>
        <time>2021-03-17T13:52:26.000Z</time>
      </trkpt>
      <trkpt lat="43.16867" lon="-1.33">
        <ele>387</ele>
        <time>2021-03-17T13:52:27.000Z</time>
      </trkpt>
      <trkpt lat="43.16854" lon="-1.33008">
        <ele>387</ele>
        <time>2021-03-17T13:52:28.000Z</time>
      </trkpt>
      <trkpt lat="43.16847" lon="-1.33016">
        <ele>387</ele>
        <time>2021-03-17T13:52:29.000Z</time>
      </trkpt>
      <trkpt lat="43.16838" lon="-1.33033">
        <ele>415</ele>
        <time>2021-03-17T13:52:30.000Z</time>
      </trkpt>
      <trkpt lat="43.16828" lon="-1.33058">
        <ele>415</ele>
        <time>2021-03-17T13:52:31.000Z</time>
      </trkpt>
      <trkpt lat="43.16816" lon="-1.33093">
        <ele>427</ele>
        <time>2021-03-17T13:52:32.000Z</time>
      </trkpt>
      <trkpt lat="43.16807" lon="-1.33134">
        <ele>427</ele>
        <time>2021-03-17T13:52:33.000Z</time>
      </trkpt>
      <trkpt lat="43.16807" lon="-1.33178">
        <ele>436</ele>
        <time>2021-03-17T13:52:34.000Z</time>
      </trkpt>
      <trkpt lat="43.16805" lon="-1.33231">
        <ele>439</ele>
        <time>2021-03-17T13:52:35.000Z</time>
      </trkpt>
      <trkpt lat="43.16801" lon="-1.33262">
        <ele>439</ele>
        <time>2021-03-17T13:52:36.000Z</time>
      </trkpt>
      <trkpt lat="43.16793" lon="-1.333">
        <ele>439</ele>
        <time>2021-03-17T13:52:37.000Z</time>
      </trkpt>
      <trkpt lat="43.16788" lon="-1.33321">
        <ele>437</ele>
        <time>2021-03-17T13:52:38.000Z</time>
      </trkpt>
      <trkpt lat="43.16781" lon="-1.3334">
        <ele>437</ele>
        <time>2021-03-17T13:52:39.000Z</time>
      </trkpt>
      <trkpt lat="43.16763" lon="-1.33376">
        <ele>437</ele>
        <time>2021-03-17T13:52:40.000Z</time>
      </trkpt>
      <trkpt lat="43.16745" lon="-1.33417">
        <ele>467</ele>
        <time>2021-03-17T13:52:41.000Z</time>
      </trkpt>
      <trkpt lat="43.16721" lon="-1.3347">
        <ele>467</ele>
        <time>2021-03-17T13:52:42.000Z</time>
      </trkpt>
      <trkpt lat="43.16708" lon="-1.33493">
        <ele>457</ele>
        <time>2021-03-17T13:52:43.000Z</time>
      </trkpt>
      <trkpt lat="43.16691" lon="-1.33518">
        <ele>457</ele>
        <time>2021-03-17T13:52:44.000Z</time>
      </trkpt>
      <trkpt lat="43.16646" lon="-1.33576">
        <ele>470</ele>
        <time>2021-03-17T13:52:45.000Z</time>
      </trkpt>
      <trkpt lat="43.16634" lon="-1.33589">
        <ele>470</ele>
        <time>2021-03-17T13:52:46.000Z</time>
      </trkpt>
      <trkpt lat="43.16588" lon="-1.33614">
        <ele>489</ele>
        <time>2021-03-17T13:52:47.000Z</time>
      </trkpt>
      <trkpt lat="43.1657" lon="-1.33621">
        <ele>489</ele>
        <time>2021-03-17T13:52:48.000Z</time>
      </trkpt>
      <trkpt lat="43.16537" lon="-1.3363">
        <ele>489</ele>
        <time>2021-03-17T13:52:49.000Z</time>
      </trkpt>
      <trkpt lat="43.16526" lon="-1.3363">
        <ele>489</ele>
        <time>2021-03-17T13:52:50.000Z</time>
      </trkpt>
      <trkpt lat="43.16516" lon="-1.33628">
        <ele>489</ele>
        <time>2021-03-17T13:52:51.000Z</time>
      </trkpt>
      <trkpt lat="43.16505" lon="-1.33628">
        <ele>500</ele>
        <time>2021-03-17T13:52:52.000Z</time>
      </trkpt>
      <trkpt lat="43.16483" lon="-1.33633">
        <ele>500</ele>
        <time>2021-03-17T13:52:53.000Z</time>
      </trkpt>
      <trkpt lat="43.16462" lon="-1.3364">
        <ele>500</ele>
        <time>2021-03-17T13:52:54.000Z</time>
      </trkpt>
      <trkpt lat="43.16419" lon="-1.33643">
        <ele>509</ele>
        <time>2021-03-17T13:52:55.000Z</time>
      </trkpt>
      <trkpt lat="43.16398" lon="-1.33647">
        <ele>509</ele>
        <time>2021-03-17T13:52:56.000Z</time>
      </trkpt>
      <trkpt lat="43.1639" lon="-1.33652">
        <ele>497</ele>
        <time>2021-03-17T13:52:57.000Z</time>
      </trkpt>
      <trkpt lat="43.16365" lon="-1.33668">
        <ele>497</ele>
        <time>2021-03-17T13:52:58.000Z</time>
      </trkpt>
      <trkpt lat="43.16352" lon="-1.33677">
        <ele>497</ele>
        <time>2021-03-17T13:52:59.000Z</time>
      </trkpt>
      <trkpt lat="43.16342" lon="-1.33682">
        <ele>524</ele>
        <time>2021-03-17T13:53:00.000Z</time>
      </trkpt>
      <trkpt lat="43.16324" lon="-1.33686">
        <ele>524</ele>
        <time>2021-03-17T13:53:01.000Z</time>
      </trkpt>
      <trkpt lat="43.1629" lon="-1.33693">
        <ele>524</ele>
        <time>2021-03-17T13:53:02.000Z</time>
      </trkpt>
      <trkpt lat="43.1628" lon="-1.33693">
        <ele>524</ele>
        <time>2021-03-17T13:53:03.000Z</time>
      </trkpt>
      <trkpt lat="43.16273" lon="-1.33692">
        <ele>524</ele>
        <time>2021-03-17T13:53:04.000Z</time>
      </trkpt>
      <trkpt lat="43.16261" lon="-1.33691">
        <ele>524</ele>
        <time>2021-03-17T13:53:05.000Z</time>
      </trkpt>
      <trkpt lat="43.16242" lon="-1.33691">
        <ele>546</ele>
        <time>2021-03-17T13:53:06.000Z</time>
      </trkpt>
      <trkpt lat="43.16205" lon="-1.33695">
        <ele>546</ele>
        <time>2021-03-17T13:53:07.000Z</time>
      </trkpt>
      <trkpt lat="43.16184" lon="-1.33696">
        <ele>546</ele>
        <time>2021-03-17T13:53:08.000Z</time>
      </trkpt>
      <trkpt lat="43.16176" lon="-1.33695">
        <ele>570</ele>
        <time>2021-03-17T13:53:09.000Z</time>
      </trkpt>
      <trkpt lat="43.16168" lon="-1.33691">
        <ele>570</ele>
        <time>2021-03-17T13:53:10.000Z</time>
      </trkpt>
      <trkpt lat="43.16152" lon="-1.33681">
        <ele>570</ele>
        <time>2021-03-17T13:53:11.000Z</time>
      </trkpt>
      <trkpt lat="43.16092" lon="-1.33642">
        <ele>587</ele>
        <time>2021-03-17T13:53:12.000Z</time>
      </trkpt>
      <trkpt lat="43.16093" lon="-1.33651">
        <ele>595</ele>
        <time>2021-03-17T13:53:13.000Z</time>
      </trkpt>
      <trkpt lat="43.16095" lon="-1.33658">
        <ele>570</ele>
        <time>2021-03-17T13:53:14.000Z</time>
      </trkpt>
      <trkpt lat="43.16106" lon="-1.33669">
        <ele>570</ele>
        <time>2021-03-17T13:53:15.000Z</time>
      </trkpt>
      <trkpt lat="43.16113" lon="-1.33678">
        <ele>570</ele>
        <time>2021-03-17T13:53:16.000Z</time>
      </trkpt>
      <trkpt lat="43.16119" lon="-1.33692">
        <ele>570</ele>
        <time>2021-03-17T13:53:17.000Z</time>
      </trkpt>
      <trkpt lat="43.16123" lon="-1.3371">
        <ele>570</ele>
        <time>2021-03-17T13:53:18.000Z</time>
      </trkpt>
      <trkpt lat="43.16124" lon="-1.33725">
        <ele>570</ele>
        <time>2021-03-17T13:53:19.000Z</time>
      </trkpt>
      <trkpt lat="43.16123" lon="-1.33756">
        <ele>570</ele>
        <time>2021-03-17T13:53:20.000Z</time>
      </trkpt>
      <trkpt lat="43.16119" lon="-1.33781">
        <ele>570</ele>
        <time>2021-03-17T13:53:21.000Z</time>
      </trkpt>
      <trkpt lat="43.16114" lon="-1.33802">
        <ele>570</ele>
        <time>2021-03-17T13:53:22.000Z</time>
      </trkpt>
      <trkpt lat="43.16108" lon="-1.33821">
        <ele>558</ele>
        <time>2021-03-17T13:53:23.000Z</time>
      </trkpt>
      <trkpt lat="43.16099" lon="-1.33839">
        <ele>558</ele>
        <time>2021-03-17T13:53:24.000Z</time>
      </trkpt>
      <trkpt lat="43.16088" lon="-1.33856">
        <ele>577</ele>
        <time>2021-03-17T13:53:25.000Z</time>
      </trkpt>
      <trkpt lat="43.16076" lon="-1.33869">
        <ele>577</ele>
        <time>2021-03-17T13:53:26.000Z</time>
      </trkpt>
      <trkpt lat="43.16037" lon="-1.33898">
        <ele>562</ele>
        <time>2021-03-17T13:53:27.000Z</time>
      </trkpt>
      <trkpt lat="43.1602" lon="-1.3391">
        <ele>562</ele>
        <time>2021-03-17T13:53:28.000Z</time>
      </trkpt>
      <trkpt lat="43.1601" lon="-1.33915">
        <ele>601</ele>
        <time>2021-03-17T13:53:29.000Z</time>
      </trkpt>
      <trkpt lat="43.16" lon="-1.33917">
        <ele>601</ele>
        <time>2021-03-17T13:53:30.000Z</time>
      </trkpt>
      <trkpt lat="43.15981" lon="-1.33912">
        <ele>601</ele>
        <time>2021-03-17T13:53:31.000Z</time>
      </trkpt>
      <trkpt lat="43.1596" lon="-1.33905">
        <ele>601</ele>
        <time>2021-03-17T13:53:32.000Z</time>
      </trkpt>
      <trkpt lat="43.15952" lon="-1.33906">
        <ele>601</ele>
        <time>2021-03-17T13:53:33.000Z</time>
      </trkpt>
      <trkpt lat="43.15946" lon="-1.3391">
        <ele>601</ele>
        <time>2021-03-17T13:53:34.000Z</time>
      </trkpt>
      <trkpt lat="43.1594" lon="-1.33919">
        <ele>601</ele>
        <time>2021-03-17T13:53:35.000Z</time>
      </trkpt>
      <trkpt lat="43.15936" lon="-1.33929">
        <ele>601</ele>
        <time>2021-03-17T13:53:36.000Z</time>
      </trkpt>
      <trkpt lat="43.1593" lon="-1.3395">
        <ele>601</ele>
        <time>2021-03-17T13:53:37.000Z</time>
      </trkpt>
      <trkpt lat="43.15929" lon="-1.33966">
        <ele>601</ele>
        <time>2021-03-17T13:53:38.000Z</time>
      </trkpt>
      <trkpt lat="43.1593" lon="-1.33981">
        <ele>601</ele>
        <time>2021-03-17T13:53:39.000Z</time>
      </trkpt>
      <trkpt lat="43.15933" lon="-1.33999">
        <ele>598</ele>
        <time>2021-03-17T13:53:40.000Z</time>
      </trkpt>
      <trkpt lat="43.15934" lon="-1.34014">
        <ele>598</ele>
        <time>2021-03-17T13:53:41.000Z</time>
      </trkpt>
      <trkpt lat="43.1593" lon="-1.34033">
        <ele>598</ele>
        <time>2021-03-17T13:53:42.000Z</time>
      </trkpt>
      <trkpt lat="43.15918" lon="-1.34067">
        <ele>628</ele>
        <time>2021-03-17T13:53:43.000Z</time>
      </trkpt>
      <trkpt lat="43.15903" lon="-1.34102">
        <ele>628</ele>
        <time>2021-03-17T13:53:44.000Z</time>
      </trkpt>
      <trkpt lat="43.15892" lon="-1.34128">
        <ele>628</ele>
        <time>2021-03-17T13:53:45.000Z</time>
      </trkpt>
      <trkpt lat="43.15863" lon="-1.34188">
        <ele>612</ele>
        <time>2021-03-17T13:53:46.000Z</time>
      </trkpt>
      <trkpt lat="43.15852" lon="-1.34206">
        <ele>612</ele>
        <time>2021-03-17T13:53:47.000Z</time>
      </trkpt>
      <trkpt lat="43.15837" lon="-1.34227">
        <ele>638</ele>
        <time>2021-03-17T13:53:48.000Z</time>
      </trkpt>
      <trkpt lat="43.1581" lon="-1.34255">
        <ele>611</ele>
        <time>2021-03-17T13:53:49.000Z</time>
      </trkpt>
      <trkpt lat="43.15792" lon="-1.34271">
        <ele>611</ele>
        <time>2021-03-17T13:53:50.000Z</time>
      </trkpt>
      <trkpt lat="43.15775" lon="-1.34279">
        <ele>611</ele>
        <time>2021-03-17T13:53:51.000Z</time>
      </trkpt>
      <trkpt lat="43.15735" lon="-1.3429">
        <ele>626</ele>
        <time>2021-03-17T13:53:52.000Z</time>
      </trkpt>
      <trkpt lat="43.15687" lon="-1.34297">
        <ele>626</ele>
        <time>2021-03-17T13:53:53.000Z</time>
      </trkpt>
      <trkpt lat="43.15665" lon="-1.34303">
        <ele>645</ele>
        <time>2021-03-17T13:53:54.000Z</time>
      </trkpt>
      <trkpt lat="43.15631" lon="-1.34317">
        <ele>614</ele>
        <time>2021-03-17T13:53:55.000Z</time>
      </trkpt>
      <trkpt lat="43.15588" lon="-1.34329">
        <ele>634</ele>
        <time>2021-03-17T13:53:56.000Z</time>
      </trkpt>
      <trkpt lat="43.15558" lon="-1.3434">
        <ele>634</ele>
        <time>2021-03-17T13:53:57.000Z</time>
      </trkpt>
      <trkpt lat="43.15526" lon="-1.34355">
        <ele>634</ele>
        <time>2021-03-17T13:53:58.000Z</time>
      </trkpt>
      <trkpt lat="43.15506" lon="-1.34363">
        <ele>638</ele>
        <time>2021-03-17T13:53:59.000Z</time>
      </trkpt>
      <trkpt lat="43.15493" lon="-1.34365">
        <ele>638</ele>
        <time>2021-03-17T13:54:00.000Z</time>
      </trkpt>
      <trkpt lat="43.15474" lon="-1.34366">
        <ele>638</ele>
        <time>2021-03-17T13:54:01.000Z</time>
      </trkpt>
      <trkpt lat="43.15458" lon="-1.34363">
        <ele>638</ele>
        <time>2021-03-17T13:54:02.000Z</time>
      </trkpt>
      <trkpt lat="43.15446" lon="-1.34358">
        <ele>638</ele>
        <time>2021-03-17T13:54:03.000Z</time>
      </trkpt>
      <trkpt lat="43.15431" lon="-1.34351">
        <ele>638</ele>
        <time>2021-03-17T13:54:04.000Z</time>
      </trkpt>
      <trkpt lat="43.15394" lon="-1.34329">
        <ele>618</ele>
        <time>2021-03-17T13:54:05.000Z</time>
      </trkpt>
      <trkpt lat="43.15367" lon="-1.34312">
        <ele>652</ele>
        <time>2021-03-17T13:54:06.000Z</time>
      </trkpt>
      <trkpt lat="43.15338" lon="-1.34289">
        <ele>636</ele>
        <time>2021-03-17T13:54:07.000Z</time>
      </trkpt>
      <trkpt lat="43.15299" lon="-1.34258">
        <ele>636</ele>
        <time>2021-03-17T13:54:08.000Z</time>
      </trkpt>
      <trkpt lat="43.15267" lon="-1.34231">
        <ele>636</ele>
        <time>2021-03-17T13:54:09.000Z</time>
      </trkpt>
      <trkpt lat="43.15245" lon="-1.3421">
        <ele>646</ele>
        <time>2021-03-17T13:54:10.000Z</time>
      </trkpt>
      <trkpt lat="43.15225" lon="-1.34186">
        <ele>646</ele>
        <time>2021-03-17T13:54:11.000Z</time>
      </trkpt>
      <trkpt lat="43.15208" lon="-1.34162">
        <ele>646</ele>
        <time>2021-03-17T13:54:12.000Z</time>
      </trkpt>
      <trkpt lat="43.15195" lon="-1.34145">
        <ele>678</ele>
        <time>2021-03-17T13:54:13.000Z</time>
      </trkpt>
      <trkpt lat="43.15171" lon="-1.34108">
        <ele>683</ele>
        <time>2021-03-17T13:54:14.000Z</time>
      </trkpt>
      <trkpt lat="43.15163" lon="-1.34092">
        <ele>683</ele>
        <time>2021-03-17T13:54:15.000Z</time>
      </trkpt>
      <trkpt lat="43.15135" lon="-1.34013">
        <ele>696</ele>
        <time>2021-03-17T13:54:16.000Z</time>
      </trkpt>
      <trkpt lat="43.15131" lon="-1.34005">
        <ele>696</ele>
        <time>2021-03-17T13:54:17.000Z</time>
      </trkpt>
      <trkpt lat="43.15127" lon="-1.34">
        <ele>696</ele>
        <time>2021-03-17T13:54:18.000Z</time>
      </trkpt>
      <trkpt lat="43.15114" lon="-1.33997">
        <ele>696</ele>
        <time>2021-03-17T13:54:19.000Z</time>
      </trkpt>
      <trkpt lat="43.15097" lon="-1.34">
        <ele>696</ele>
        <time>2021-03-17T13:54:20.000Z</time>
      </trkpt>
      <trkpt lat="43.15082" lon="-1.3401">
        <ele>727</ele>
        <time>2021-03-17T13:54:21.000Z</time>
      </trkpt>
      <trkpt lat="43.15068" lon="-1.34028">
        <ele>727</ele>
        <time>2021-03-17T13:54:22.000Z</time>
      </trkpt>
      <trkpt lat="43.15052" lon="-1.34056">
        <ele>727</ele>
        <time>2021-03-17T13:54:23.000Z</time>
      </trkpt>
      <trkpt lat="43.15034" lon="-1.34086">
        <ele>713</ele>
        <time>2021-03-17T13:54:24.000Z</time>
      </trkpt>
      <trkpt lat="43.15026" lon="-1.34103">
        <ele>713</ele>
        <time>2021-03-17T13:54:25.000Z</time>
      </trkpt>
      <trkpt lat="43.15022" lon="-1.34123">
        <ele>713</ele>
        <time>2021-03-17T13:54:26.000Z</time>
      </trkpt>
      <trkpt lat="43.15017" lon="-1.34142">
        <ele>713</ele>
        <time>2021-03-17T13:54:27.000Z</time>
      </trkpt>
      <trkpt lat="43.15013" lon="-1.34152">
        <ele>700</ele>
        <time>2021-03-17T13:54:28.000Z</time>
      </trkpt>
      <trkpt lat="43.15008" lon="-1.34156">
        <ele>679</ele>
        <time>2021-03-17T13:54:29.000Z</time>
      </trkpt>
      <trkpt lat="43.15002" lon="-1.34157">
        <ele>679</ele>
        <time>2021-03-17T13:54:30.000Z</time>
      </trkpt>
      <trkpt lat="43.14991" lon="-1.34152">
        <ele>679</ele>
        <time>2021-03-17T13:54:31.000Z</time>
      </trkpt>
      <trkpt lat="43.14974" lon="-1.34141">
        <ele>696</ele>
        <time>2021-03-17T13:54:32.000Z</time>
      </trkpt>
      <trkpt lat="43.14962" lon="-1.34131">
        <ele>696</ele>
        <time>2021-03-17T13:54:33.000Z</time>
      </trkpt>
      <trkpt lat="43.14943" lon="-1.34109">
        <ele>696</ele>
        <time>2021-03-17T13:54:34.000Z</time>
      </trkpt>
      <trkpt lat="43.14929" lon="-1.3409">
        <ele>696</ele>
        <time>2021-03-17T13:54:35.000Z</time>
      </trkpt>
      <trkpt lat="43.14922" lon="-1.34077">
        <ele>657</ele>
        <time>2021-03-17T13:54:36.000Z</time>
      </trkpt>
      <trkpt lat="43.14904" lon="-1.34036">
        <ele>672</ele>
        <time>2021-03-17T13:54:37.000Z</time>
      </trkpt>
      <trkpt lat="43.1488" lon="-1.33985">
        <ele>672</ele>
        <time>2021-03-17T13:54:38.000Z</time>
      </trkpt>
      <trkpt lat="43.14875" lon="-1.33976">
        <ele>697</ele>
        <time>2021-03-17T13:54:39.000Z</time>
      </trkpt>
      <trkpt lat="43.1487" lon="-1.33967">
        <ele>697</ele>
        <time>2021-03-17T13:54:40.000Z</time>
      </trkpt>
      <trkpt lat="43.14868" lon="-1.33961">
        <ele>697</ele>
        <time>2021-03-17T13:54:41.000Z</time>
      </trkpt>
      <trkpt lat="43.14858" lon="-1.3395">
        <ele>697</ele>
        <time>2021-03-17T13:54:42.000Z</time>
      </trkpt>
      <trkpt lat="43.14843" lon="-1.33928">
        <ele>662</ele>
        <time>2021-03-17T13:54:43.000Z</time>
      </trkpt>
      <trkpt lat="43.14832" lon="-1.33913">
        <ele>662</ele>
        <time>2021-03-17T13:54:44.000Z</time>
      </trkpt>
      <trkpt lat="43.14806" lon="-1.33885">
        <ele>694</ele>
        <time>2021-03-17T13:54:45.000Z</time>
      </trkpt>
      <trkpt lat="43.14774" lon="-1.33847">
        <ele>694</ele>
        <time>2021-03-17T13:54:46.000Z</time>
      </trkpt>
      <trkpt lat="43.14708" lon="-1.33771">
        <ele>700</ele>
        <time>2021-03-17T13:54:47.000Z</time>
      </trkpt>
      <trkpt lat="43.14672" lon="-1.33723">
        <ele>698</ele>
        <time>2021-03-17T13:54:48.000Z</time>
      </trkpt>
      <trkpt lat="43.14646" lon="-1.33694">
        <ele>698</ele>
        <time>2021-03-17T13:54:49.000Z</time>
      </trkpt>
      <trkpt lat="43.14582" lon="-1.33628">
        <ele>711</ele>
        <time>2021-03-17T13:54:50.000Z</time>
      </trkpt>
      <trkpt lat="43.14523" lon="-1.33572">
        <ele>711</ele>
        <time>2021-03-17T13:54:51.000Z</time>
      </trkpt>
      <trkpt lat="43.1451" lon="-1.33558">
        <ele>728</ele>
        <time>2021-03-17T13:54:52.000Z</time>
      </trkpt>
      <trkpt lat="43.14499" lon="-1.33547">
        <ele>728</ele>
        <time>2021-03-17T13:54:53.000Z</time>
      </trkpt>
      <trkpt lat="43.14495" lon="-1.33543">
        <ele>728</ele>
        <time>2021-03-17T13:54:54.000Z</time>
      </trkpt>
      <trkpt lat="43.14487" lon="-1.33536">
        <ele>728</ele>
        <time>2021-03-17T13:54:55.000Z</time>
      </trkpt>
      <trkpt lat="43.14469" lon="-1.33521">
        <ele>728</ele>
        <time>2021-03-17T13:54:56.000Z</time>
      </trkpt>
      <trkpt lat="43.14438" lon="-1.33512">
        <ele>728</ele>
        <time>2021-03-17T13:54:57.000Z</time>
      </trkpt>
      <trkpt lat="43.14413" lon="-1.33502">
        <ele>754</ele>
        <time>2021-03-17T13:54:58.000Z</time>
      </trkpt>
      <trkpt lat="43.14405" lon="-1.33499">
        <ele>754</ele>
        <time>2021-03-17T13:54:59.000Z</time>
      </trkpt>
      <trkpt lat="43.14385" lon="-1.33501">
        <ele>754</ele>
        <time>2021-03-17T13:55:00.000Z</time>
      </trkpt>
      <trkpt lat="43.1437" lon="-1.33499">
        <ele>754</ele>
        <time>2021-03-17T13:55:01.000Z</time>
      </trkpt>
      <trkpt lat="43.14349" lon="-1.33491">
        <ele>754</ele>
        <time>2021-03-17T13:55:02.000Z</time>
      </trkpt>
      <trkpt lat="43.14341" lon="-1.33486">
        <ele>789</ele>
        <time>2021-03-17T13:55:03.000Z</time>
      </trkpt>
      <trkpt lat="43.14339" lon="-1.3348">
        <ele>775</ele>
        <time>2021-03-17T13:55:04.000Z</time>
      </trkpt>
      <trkpt lat="43.14336" lon="-1.33471">
        <ele>775</ele>
        <time>2021-03-17T13:55:05.000Z</time>
      </trkpt>
      <trkpt lat="43.14336" lon="-1.33462">
        <ele>775</ele>
        <time>2021-03-17T13:55:06.000Z</time>
      </trkpt>
      <trkpt lat="43.14342" lon="-1.33443">
        <ele>775</ele>
        <time>2021-03-17T13:55:07.000Z</time>
      </trkpt>
      <trkpt lat="43.14347" lon="-1.33425">
        <ele>743</ele>
        <time>2021-03-17T13:55:08.000Z</time>
      </trkpt>
      <trkpt lat="43.14352" lon="-1.33393">
        <ele>733</ele>
        <time>2021-03-17T13:55:09.000Z</time>
      </trkpt>
      <trkpt lat="43.14357" lon="-1.33366">
        <ele>733</ele>
        <time>2021-03-17T13:55:10.000Z</time>
      </trkpt>
      <trkpt lat="43.14362" lon="-1.33343">
        <ele>733</ele>
        <time>2021-03-17T13:55:11.000Z</time>
      </trkpt>
      <trkpt lat="43.14374" lon="-1.33308">
        <ele>734</ele>
        <time>2021-03-17T13:55:12.000Z</time>
      </trkpt>
      <trkpt lat="43.14376" lon="-1.33295">
        <ele>734</ele>
        <time>2021-03-17T13:55:13.000Z</time>
      </trkpt>
      <trkpt lat="43.14373" lon="-1.33279">
        <ele>734</ele>
        <time>2021-03-17T13:55:14.000Z</time>
      </trkpt>
      <trkpt lat="43.1435" lon="-1.33246">
        <ele>734</ele>
        <time>2021-03-17T13:55:15.000Z</time>
      </trkpt>
      <trkpt lat="43.14345" lon="-1.33233">
        <ele>734</ele>
        <time>2021-03-17T13:55:16.000Z</time>
      </trkpt>
      <trkpt lat="43.14343" lon="-1.33225">
        <ele>769</ele>
        <time>2021-03-17T13:55:17.000Z</time>
      </trkpt>
      <trkpt lat="43.14344" lon="-1.33167">
        <ele>769</ele>
        <time>2021-03-17T13:55:18.000Z</time>
      </trkpt>
      <trkpt lat="43.14343" lon="-1.33138">
        <ele>759</ele>
        <time>2021-03-17T13:55:19.000Z</time>
      </trkpt>
      <trkpt lat="43.14343" lon="-1.33104">
        <ele>759</ele>
        <time>2021-03-17T13:55:20.000Z</time>
      </trkpt>
      <trkpt lat="43.14341" lon="-1.33089">
        <ele>759</ele>
        <time>2021-03-17T13:55:21.000Z</time>
      </trkpt>
      <trkpt lat="43.14335" lon="-1.33078">
        <ele>759</ele>
        <time>2021-03-17T13:55:22.000Z</time>
      </trkpt>
      <trkpt lat="43.14329" lon="-1.33073">
        <ele>759</ele>
        <time>2021-03-17T13:55:23.000Z</time>
      </trkpt>
      <trkpt lat="43.1432" lon="-1.3307">
        <ele>759</ele>
        <time>2021-03-17T13:55:24.000Z</time>
      </trkpt>
      <trkpt lat="43.143" lon="-1.33067">
        <ele>759</ele>
        <time>2021-03-17T13:55:25.000Z</time>
      </trkpt>
      <trkpt lat="43.14278" lon="-1.33067">
        <ele>759</ele>
        <time>2021-03-17T13:55:26.000Z</time>
      </trkpt>
      <trkpt lat="43.14269" lon="-1.33065">
        <ele>759</ele>
        <time>2021-03-17T13:55:27.000Z</time>
      </trkpt>
      <trkpt lat="43.14262" lon="-1.3306">
        <ele>738</ele>
        <time>2021-03-17T13:55:28.000Z</time>
      </trkpt>
      <trkpt lat="43.14222" lon="-1.33031">
        <ele>766</ele>
        <time>2021-03-17T13:55:29.000Z</time>
      </trkpt>
      <trkpt lat="43.14203" lon="-1.3302">
        <ele>766</ele>
        <time>2021-03-17T13:55:30.000Z</time>
      </trkpt>
      <trkpt lat="43.14193" lon="-1.33016">
        <ele>766</ele>
        <time>2021-03-17T13:55:31.000Z</time>
      </trkpt>
      <trkpt lat="43.14186" lon="-1.3301">
        <ele>766</ele>
        <time>2021-03-17T13:55:32.000Z</time>
      </trkpt>
      <trkpt lat="43.14168" lon="-1.32992">
        <ele>792</ele>
        <time>2021-03-17T13:55:33.000Z</time>
      </trkpt>
      <trkpt lat="43.14158" lon="-1.32985">
        <ele>792</ele>
        <time>2021-03-17T13:55:34.000Z</time>
      </trkpt>
      <trkpt lat="43.14135" lon="-1.32976">
        <ele>754</ele>
        <time>2021-03-17T13:55:35.000Z</time>
      </trkpt>
      <trkpt lat="43.14117" lon="-1.3297">
        <ele>754</ele>
        <time>2021-03-17T13:55:36.000Z</time>
      </trkpt>
      <trkpt lat="43.14094" lon="-1.32958">
        <ele>790</ele>
        <time>2021-03-17T13:55:37.000Z</time>
      </trkpt>
      <trkpt lat="43.14083" lon="-1.32957">
        <ele>790</ele>
        <time>2021-03-17T13:55:38.000Z</time>
      </trkpt>
      <trkpt lat="43.14074" lon="-1.32954">
        <ele>790</ele>
        <time>2021-03-17T13:55:39.000Z</time>
      </trkpt>
      <trkpt lat="43.14063" lon="-1.32936">
        <ele>790</ele>
        <time>2021-03-17T13:55:40.000Z</time>
      </trkpt>
      <trkpt lat="43.14061" lon="-1.32918">
        <ele>790</ele>
        <time>2021-03-17T13:55:41.000Z</time>
      </trkpt>
      <trkpt lat="43.14081" lon="-1.32819">
        <ele>771</ele>
        <time>2021-03-17T13:55:42.000Z</time>
      </trkpt>
      <trkpt lat="43.14086" lon="-1.32798">
        <ele>754</ele>
        <time>2021-03-17T13:55:43.000Z</time>
      </trkpt>
      <trkpt lat="43.14097" lon="-1.32729">
        <ele>718</ele>
        <time>2021-03-17T13:55:44.000Z</time>
      </trkpt>
      <trkpt lat="43.14098" lon="-1.32718">
        <ele>718</ele>
        <time>2021-03-17T13:55:45.000Z</time>
      </trkpt>
      <trkpt lat="43.14097" lon="-1.3271">
        <ele>718</ele>
        <time>2021-03-17T13:55:46.000Z</time>
      </trkpt>
      <trkpt lat="43.14094" lon="-1.32696">
        <ele>734</ele>
        <time>2021-03-17T13:55:47.000Z</time>
      </trkpt>
      <trkpt lat="43.14086" lon="-1.32685">
        <ele>734</ele>
        <time>2021-03-17T13:55:48.000Z</time>
      </trkpt>
      <trkpt lat="43.14076" lon="-1.32678">
        <ele>734</ele>
        <time>2021-03-17T13:55:49.000Z</time>
      </trkpt>
      <trkpt lat="43.14069" lon="-1.32676">
        <ele>734</ele>
        <time>2021-03-17T13:55:50.000Z</time>
      </trkpt>
      <trkpt lat="43.14061" lon="-1.32677">
        <ele>734</ele>
        <time>2021-03-17T13:55:51.000Z</time>
      </trkpt>
      <trkpt lat="43.14029" lon="-1.32688">
        <ele>734</ele>
        <time>2021-03-17T13:55:52.000Z</time>
      </trkpt>
      <trkpt lat="43.13983" lon="-1.32694">
        <ele>740</ele>
        <time>2021-03-17T13:55:53.000Z</time>
      </trkpt>
      <trkpt lat="43.13956" lon="-1.32705">
        <ele>740</ele>
        <time>2021-03-17T13:55:54.000Z</time>
      </trkpt>
      <trkpt lat="43.1394" lon="-1.3271">
        <ele>740</ele>
        <time>2021-03-17T13:55:55.000Z</time>
      </trkpt>
      <trkpt lat="43.13923" lon="-1.32712">
        <ele>760</ele>
        <time>2021-03-17T13:55:56.000Z</time>
      </trkpt>
      <trkpt lat="43.13914" lon="-1.32712">
        <ele>760</ele>
        <time>2021-03-17T13:55:57.000Z</time>
      </trkpt>
      <trkpt lat="43.13907" lon="-1.32708">
        <ele>760</ele>
        <time>2021-03-17T13:55:58.000Z</time>
      </trkpt>
      <trkpt lat="43.13895" lon="-1.32683">
        <ele>760</ele>
        <time>2021-03-17T13:55:59.000Z</time>
      </trkpt>
      <trkpt lat="43.13889" lon="-1.32669">
        <ele>760</ele>
        <time>2021-03-17T13:56:00.000Z</time>
      </trkpt>
      <trkpt lat="43.13889" lon="-1.32656">
        <ele>760</ele>
        <time>2021-03-17T13:56:01.000Z</time>
      </trkpt>
      <trkpt lat="43.1389" lon="-1.32645">
        <ele>749</ele>
        <time>2021-03-17T13:56:02.000Z</time>
      </trkpt>
      <trkpt lat="43.13888" lon="-1.32635">
        <ele>749</ele>
        <time>2021-03-17T13:56:03.000Z</time>
      </trkpt>
      <trkpt lat="43.1388" lon="-1.32624">
        <ele>749</ele>
        <time>2021-03-17T13:56:04.000Z</time>
      </trkpt>
      <trkpt lat="43.13867" lon="-1.32607">
        <ele>749</ele>
        <time>2021-03-17T13:56:05.000Z</time>
      </trkpt>
      <trkpt lat="43.13849" lon="-1.32576">
        <ele>749</ele>
        <time>2021-03-17T13:56:06.000Z</time>
      </trkpt>
      <trkpt lat="43.1384" lon="-1.32564">
        <ele>744</ele>
        <time>2021-03-17T13:56:07.000Z</time>
      </trkpt>
      <trkpt lat="43.13828" lon="-1.32552">
        <ele>720</ele>
        <time>2021-03-17T13:56:08.000Z</time>
      </trkpt>
      <trkpt lat="43.13815" lon="-1.3254">
        <ele>720</ele>
        <time>2021-03-17T13:56:09.000Z</time>
      </trkpt>
      <trkpt lat="43.13806" lon="-1.32535">
        <ele>720</ele>
        <time>2021-03-17T13:56:10.000Z</time>
      </trkpt>
      <trkpt lat="43.13796" lon="-1.32536">
        <ele>720</ele>
        <time>2021-03-17T13:56:11.000Z</time>
      </trkpt>
      <trkpt lat="43.13788" lon="-1.32539">
        <ele>720</ele>
        <time>2021-03-17T13:56:12.000Z</time>
      </trkpt>
      <trkpt lat="43.13781" lon="-1.32547">
        <ele>720</ele>
        <time>2021-03-17T13:56:13.000Z</time>
      </trkpt>
      <trkpt lat="43.13774" lon="-1.32558">
        <ele>720</ele>
        <time>2021-03-17T13:56:14.000Z</time>
      </trkpt>
      <trkpt lat="43.13761" lon="-1.32584">
        <ele>744</ele>
        <time>2021-03-17T13:56:15.000Z</time>
      </trkpt>
      <trkpt lat="43.13756" lon="-1.32592">
        <ele>720</ele>
        <time>2021-03-17T13:56:16.000Z</time>
      </trkpt>
      <trkpt lat="43.1375" lon="-1.32601">
        <ele>720</ele>
        <time>2021-03-17T13:56:17.000Z</time>
      </trkpt>
      <trkpt lat="43.13731" lon="-1.32623">
        <ele>720</ele>
        <time>2021-03-17T13:56:18.000Z</time>
      </trkpt>
      <trkpt lat="43.13721" lon="-1.3264">
        <ele>720</ele>
        <time>2021-03-17T13:56:19.000Z</time>
      </trkpt>
      <trkpt lat="43.13714" lon="-1.32633">
        <ele>720</ele>
        <time>2021-03-17T13:56:20.000Z</time>
      </trkpt>
      <trkpt lat="43.13721" lon="-1.3264">
        <ele>720</ele>
        <time>2021-03-17T13:56:21.000Z</time>
      </trkpt>
      <trkpt lat="43.13716" lon="-1.32649">
        <ele>747</ele>
        <time>2021-03-17T13:56:22.000Z</time>
      </trkpt>
      <trkpt lat="43.13697" lon="-1.32687">
        <ele>747</ele>
        <time>2021-03-17T13:56:23.000Z</time>
      </trkpt>
      <trkpt lat="43.13693" lon="-1.32702">
        <ele>747</ele>
        <time>2021-03-17T13:56:24.000Z</time>
      </trkpt>
      <trkpt lat="43.13693" lon="-1.32719">
        <ele>747</ele>
        <time>2021-03-17T13:56:25.000Z</time>
      </trkpt>
      <trkpt lat="43.13689" lon="-1.32728">
        <ele>747</ele>
        <time>2021-03-17T13:56:26.000Z</time>
      </trkpt>
      <trkpt lat="43.13684" lon="-1.3273">
        <ele>747</ele>
        <time>2021-03-17T13:56:27.000Z</time>
      </trkpt>
      <trkpt lat="43.13658" lon="-1.32727">
        <ele>749</ele>
        <time>2021-03-17T13:56:28.000Z</time>
      </trkpt>
      <trkpt lat="43.13646" lon="-1.32731">
        <ele>782</ele>
        <time>2021-03-17T13:56:29.000Z</time>
      </trkpt>
      <trkpt lat="43.13623" lon="-1.32745">
        <ele>782</ele>
        <time>2021-03-17T13:56:30.000Z</time>
      </trkpt>
      <trkpt lat="43.13615" lon="-1.32748">
        <ele>782</ele>
        <time>2021-03-17T13:56:31.000Z</time>
      </trkpt>
      <trkpt lat="43.13602" lon="-1.32751">
        <ele>782</ele>
        <time>2021-03-17T13:56:32.000Z</time>
      </trkpt>
      <trkpt lat="43.13594" lon="-1.32752">
        <ele>794</ele>
        <time>2021-03-17T13:56:33.000Z</time>
      </trkpt>
      <trkpt lat="43.13584" lon="-1.3275">
        <ele>794</ele>
        <time>2021-03-17T13:56:34.000Z</time>
      </trkpt>
      <trkpt lat="43.13573" lon="-1.32745">
        <ele>794</ele>
        <time>2021-03-17T13:56:35.000Z</time>
      </trkpt>
      <trkpt lat="43.13567" lon="-1.3274">
        <ele>794</ele>
        <time>2021-03-17T13:56:36.000Z</time>
      </trkpt>
      <trkpt lat="43.13561" lon="-1.32733">
        <ele>794</ele>
        <time>2021-03-17T13:56:37.000Z</time>
      </trkpt>
      <trkpt lat="43.13558" lon="-1.32724">
        <ele>779</ele>
        <time>2021-03-17T13:56:38.000Z</time>
      </trkpt>
      <trkpt lat="43.13554" lon="-1.32702">
        <ele>779</ele>
        <time>2021-03-17T13:56:39.000Z</time>
      </trkpt>
      <trkpt lat="43.13552" lon="-1.32679">
        <ele>779</ele>
        <time>2021-03-17T13:56:40.000Z</time>
      </trkpt>
      <trkpt lat="43.13549" lon="-1.3263">
        <ele>767</ele>
        <time>2021-03-17T13:56:41.000Z</time>
      </trkpt>
      <trkpt lat="43.13544" lon="-1.32593">
        <ele>767</ele>
        <time>2021-03-17T13:56:42.000Z</time>
      </trkpt>
      <trkpt lat="43.13542" lon="-1.3257">
        <ele>767</ele>
        <time>2021-03-17T13:56:43.000Z</time>
      </trkpt>
      <trkpt lat="43.13542" lon="-1.32563">
        <ele>771</ele>
        <time>2021-03-17T13:56:44.000Z</time>
      </trkpt>
      <trkpt lat="43.13543" lon="-1.32528">
        <ele>771</ele>
        <time>2021-03-17T13:56:45.000Z</time>
      </trkpt>
      <trkpt lat="43.13542" lon="-1.32493">
        <ele>771</ele>
        <time>2021-03-17T13:56:46.000Z</time>
      </trkpt>
      <trkpt lat="43.1354" lon="-1.32456">
        <ele>774</ele>
        <time>2021-03-17T13:56:47.000Z</time>
      </trkpt>
      <trkpt lat="43.13536" lon="-1.32432">
        <ele>774</ele>
        <time>2021-03-17T13:56:48.000Z</time>
      </trkpt>
      <trkpt lat="43.1353" lon="-1.32412">
        <ele>774</ele>
        <time>2021-03-17T13:56:49.000Z</time>
      </trkpt>
      <trkpt lat="43.13525" lon="-1.32405">
        <ele>774</ele>
        <time>2021-03-17T13:56:50.000Z</time>
      </trkpt>
      <trkpt lat="43.1352" lon="-1.32397">
        <ele>774</ele>
        <time>2021-03-17T13:56:51.000Z</time>
      </trkpt>
      <trkpt lat="43.13507" lon="-1.32387">
        <ele>807</ele>
        <time>2021-03-17T13:56:52.000Z</time>
      </trkpt>
      <trkpt lat="43.13494" lon="-1.32376">
        <ele>807</ele>
        <time>2021-03-17T13:56:53.000Z</time>
      </trkpt>
      <trkpt lat="43.13487" lon="-1.32366">
        <ele>807</ele>
        <time>2021-03-17T13:56:54.000Z</time>
      </trkpt>
      <trkpt lat="43.1348" lon="-1.32348">
        <ele>807</ele>
        <time>2021-03-17T13:56:55.000Z</time>
      </trkpt>
      <trkpt lat="43.13465" lon="-1.32317">
        <ele>807</ele>
        <time>2021-03-17T13:56:56.000Z</time>
      </trkpt>
      <trkpt lat="43.13461" lon="-1.32301">
        <ele>794</ele>
        <time>2021-03-17T13:56:57.000Z</time>
      </trkpt>
      <trkpt lat="43.13458" lon="-1.32269">
        <ele>794</ele>
        <time>2021-03-17T13:56:58.000Z</time>
      </trkpt>
      <trkpt lat="43.13452" lon="-1.32243">
        <ele>794</ele>
        <time>2021-03-17T13:56:59.000Z</time>
      </trkpt>
      <trkpt lat="43.13448" lon="-1.32233">
        <ele>794</ele>
        <time>2021-03-17T13:57:00.000Z</time>
      </trkpt>
      <trkpt lat="43.13442" lon="-1.32227">
        <ele>783</ele>
        <time>2021-03-17T13:57:01.000Z</time>
      </trkpt>
      <trkpt lat="43.13434" lon="-1.3222">
        <ele>783</ele>
        <time>2021-03-17T13:57:02.000Z</time>
      </trkpt>
      <trkpt lat="43.13428" lon="-1.32212">
        <ele>783</ele>
        <time>2021-03-17T13:57:03.000Z</time>
      </trkpt>
      <trkpt lat="43.13427" lon="-1.32209">
        <ele>783</ele>
        <time>2021-03-17T13:57:04.000Z</time>
      </trkpt>
      <trkpt lat="43.13426" lon="-1.32202">
        <ele>827</ele>
        <time>2021-03-17T13:57:05.000Z</time>
      </trkpt>
      <trkpt lat="43.13423" lon="-1.32187">
        <ele>827</ele>
        <time>2021-03-17T13:57:06.000Z</time>
      </trkpt>
      <trkpt lat="43.13424" lon="-1.32165">
        <ele>827</ele>
        <time>2021-03-17T13:57:07.000Z</time>
      </trkpt>
      <trkpt lat="43.13427" lon="-1.32106">
        <ele>821</ele>
        <time>2021-03-17T13:57:08.000Z</time>
      </trkpt>
      <trkpt lat="43.13431" lon="-1.32074">
        <ele>780</ele>
        <time>2021-03-17T13:57:09.000Z</time>
      </trkpt>
      <trkpt lat="43.13445" lon="-1.32021">
        <ele>780</ele>
        <time>2021-03-17T13:57:10.000Z</time>
      </trkpt>
      <trkpt lat="43.13448" lon="-1.31998">
        <ele>780</ele>
        <time>2021-03-17T13:57:11.000Z</time>
      </trkpt>
      <trkpt lat="43.13448" lon="-1.31975">
        <ele>787</ele>
        <time>2021-03-17T13:57:12.000Z</time>
      </trkpt>
      <trkpt lat="43.13441" lon="-1.31933">
        <ele>787</ele>
        <time>2021-03-17T13:57:13.000Z</time>
      </trkpt>
      <trkpt lat="43.1344" lon="-1.31914">
        <ele>787</ele>
        <time>2021-03-17T13:57:14.000Z</time>
      </trkpt>
      <trkpt lat="43.13436" lon="-1.3189">
        <ele>795</ele>
        <time>2021-03-17T13:57:15.000Z</time>
      </trkpt>
      <trkpt lat="43.13426" lon="-1.31843">
        <ele>836</ele>
        <time>2021-03-17T13:57:16.000Z</time>
      </trkpt>
      <trkpt lat="43.13406" lon="-1.31772">
        <ele>837</ele>
        <time>2021-03-17T13:57:17.000Z</time>
      </trkpt>
      <trkpt lat="43.13405" lon="-1.31756">
        <ele>837</ele>
        <time>2021-03-17T13:57:18.000Z</time>
      </trkpt>
      <trkpt lat="43.13409" lon="-1.31745">
        <ele>837</ele>
        <time>2021-03-17T13:57:19.000Z</time>
      </trkpt>
      <trkpt lat="43.13421" lon="-1.3173">
        <ele>838</ele>
        <time>2021-03-17T13:57:20.000Z</time>
      </trkpt>
      <trkpt lat="43.13428" lon="-1.31717">
        <ele>796</ele>
        <time>2021-03-17T13:57:21.000Z</time>
      </trkpt>
      <trkpt lat="43.13435" lon="-1.31698">
        <ele>796</ele>
        <time>2021-03-17T13:57:22.000Z</time>
      </trkpt>
      <trkpt lat="43.13442" lon="-1.31674">
        <ele>796</ele>
        <time>2021-03-17T13:57:23.000Z</time>
      </trkpt>
      <trkpt lat="43.13447" lon="-1.31653">
        <ele>796</ele>
        <time>2021-03-17T13:57:24.000Z</time>
      </trkpt>
      <trkpt lat="43.13459" lon="-1.31596">
        <ele>812</ele>
        <time>2021-03-17T13:57:25.000Z</time>
      </trkpt>
      <trkpt lat="43.13463" lon="-1.31579">
        <ele>812</ele>
        <time>2021-03-17T13:57:26.000Z</time>
      </trkpt>
      <trkpt lat="43.1347" lon="-1.31561">
        <ele>824</ele>
        <time>2021-03-17T13:57:27.000Z</time>
      </trkpt>
      <trkpt lat="43.13489" lon="-1.31524">
        <ele>824</ele>
        <time>2021-03-17T13:57:28.000Z</time>
      </trkpt>
      <trkpt lat="43.13519" lon="-1.3148">
        <ele>819</ele>
        <time>2021-03-17T13:57:29.000Z</time>
      </trkpt>
      <trkpt lat="43.13545" lon="-1.3145">
        <ele>819</ele>
        <time>2021-03-17T13:57:30.000Z</time>
      </trkpt>
      <trkpt lat="43.13559" lon="-1.31437">
        <ele>819</ele>
        <time>2021-03-17T13:57:31.000Z</time>
      </trkpt>
      <trkpt lat="43.13572" lon="-1.31427">
        <ele>819</ele>
        <time>2021-03-17T13:57:32.000Z</time>
      </trkpt>
      <trkpt lat="43.13588" lon="-1.3142">
        <ele>819</ele>
        <time>2021-03-17T13:57:33.000Z</time>
      </trkpt>
      <trkpt lat="43.13607" lon="-1.31414">
        <ele>807</ele>
        <time>2021-03-17T13:57:34.000Z</time>
      </trkpt>
      <trkpt lat="43.13614" lon="-1.31411">
        <ele>807</ele>
        <time>2021-03-17T13:57:35.000Z</time>
      </trkpt>
      <trkpt lat="43.13615" lon="-1.31406">
        <ele>807</ele>
        <time>2021-03-17T13:57:36.000Z</time>
      </trkpt>
      <trkpt lat="43.13613" lon="-1.31401">
        <ele>807</ele>
        <time>2021-03-17T13:57:37.000Z</time>
      </trkpt>
      <trkpt lat="43.13586" lon="-1.31406">
        <ele>819</ele>
        <time>2021-03-17T13:57:38.000Z</time>
      </trkpt>
      <trkpt lat="43.13554" lon="-1.31404">
        <ele>819</ele>
        <time>2021-03-17T13:57:39.000Z</time>
      </trkpt>
      <trkpt lat="43.13538" lon="-1.31406">
        <ele>819</ele>
        <time>2021-03-17T13:57:40.000Z</time>
      </trkpt>
      <trkpt lat="43.13522" lon="-1.31411">
        <ele>819</ele>
        <time>2021-03-17T13:57:41.000Z</time>
      </trkpt>
      <trkpt lat="43.13496" lon="-1.31423">
        <ele>840</ele>
        <time>2021-03-17T13:57:42.000Z</time>
      </trkpt>
      <trkpt lat="43.1348" lon="-1.31432">
        <ele>840</ele>
        <time>2021-03-17T13:57:43.000Z</time>
      </trkpt>
      <trkpt lat="43.1345" lon="-1.3145">
        <ele>840</ele>
        <time>2021-03-17T13:57:44.000Z</time>
      </trkpt>
      <trkpt lat="43.13419" lon="-1.3147">
        <ele>861</ele>
        <time>2021-03-17T13:57:45.000Z</time>
      </trkpt>
      <trkpt lat="43.13394" lon="-1.31489">
        <ele>851</ele>
        <time>2021-03-17T13:57:46.000Z</time>
      </trkpt>
      <trkpt lat="43.13355" lon="-1.31525">
        <ele>851</ele>
        <time>2021-03-17T13:57:47.000Z</time>
      </trkpt>
      <trkpt lat="43.13334" lon="-1.31541">
        <ele>860</ele>
        <time>2021-03-17T13:57:48.000Z</time>
      </trkpt>
      <trkpt lat="43.13294" lon="-1.31566">
        <ele>870</ele>
        <time>2021-03-17T13:57:49.000Z</time>
      </trkpt>
      <trkpt lat="43.13287" lon="-1.31569">
        <ele>870</ele>
        <time>2021-03-17T13:57:50.000Z</time>
      </trkpt>
      <trkpt lat="43.13286" lon="-1.31556">
        <ele>860</ele>
        <time>2021-03-17T13:57:51.000Z</time>
      </trkpt>
      <trkpt lat="43.13288" lon="-1.31539">
        <ele>860</ele>
        <time>2021-03-17T13:57:52.000Z</time>
      </trkpt>
      <trkpt lat="43.13293" lon="-1.31527">
        <ele>860</ele>
        <time>2021-03-17T13:57:53.000Z</time>
      </trkpt>
      <trkpt lat="43.13301" lon="-1.31515">
        <ele>860</ele>
        <time>2021-03-17T13:57:54.000Z</time>
      </trkpt>
      <trkpt lat="43.13318" lon="-1.31495">
        <ele>860</ele>
        <time>2021-03-17T13:57:55.000Z</time>
      </trkpt>
      <trkpt lat="43.1333" lon="-1.31477">
        <ele>852</ele>
        <time>2021-03-17T13:57:56.000Z</time>
      </trkpt>
      <trkpt lat="43.1334" lon="-1.31456">
        <ele>852</ele>
        <time>2021-03-17T13:57:57.000Z</time>
      </trkpt>
      <trkpt lat="43.13355" lon="-1.31417">
        <ele>861</ele>
        <time>2021-03-17T13:57:58.000Z</time>
      </trkpt>
      <trkpt lat="43.13369" lon="-1.31391">
        <ele>870</ele>
        <time>2021-03-17T13:57:59.000Z</time>
      </trkpt>
      <trkpt lat="43.13385" lon="-1.3137">
        <ele>870</ele>
        <time>2021-03-17T13:58:00.000Z</time>
      </trkpt>
      <trkpt lat="43.13406" lon="-1.31347">
        <ele>870</ele>
        <time>2021-03-17T13:58:01.000Z</time>
      </trkpt>
      <trkpt lat="43.13421" lon="-1.31328">
        <ele>870</ele>
        <time>2021-03-17T13:58:02.000Z</time>
      </trkpt>
      <trkpt lat="43.13437" lon="-1.313">
        <ele>873</ele>
        <time>2021-03-17T13:58:03.000Z</time>
      </trkpt>
      <trkpt lat="43.13448" lon="-1.31278">
        <ele>873</ele>
        <time>2021-03-17T13:58:04.000Z</time>
      </trkpt>
      <trkpt lat="43.13464" lon="-1.3122">
        <ele>875</ele>
        <time>2021-03-17T13:58:05.000Z</time>
      </trkpt>
      <trkpt lat="43.13479" lon="-1.31167">
        <ele>875</ele>
        <time>2021-03-17T13:58:06.000Z</time>
      </trkpt>
      <trkpt lat="43.13487" lon="-1.31142">
        <ele>863</ele>
        <time>2021-03-17T13:58:07.000Z</time>
      </trkpt>
      <trkpt lat="43.135" lon="-1.3112">
        <ele>863</ele>
        <time>2021-03-17T13:58:08.000Z</time>
      </trkpt>
      <trkpt lat="43.13541" lon="-1.31059">
        <ele>878</ele>
        <time>2021-03-17T13:58:09.000Z</time>
      </trkpt>
      <trkpt lat="43.1356" lon="-1.31033">
        <ele>878</ele>
        <time>2021-03-17T13:58:10.000Z</time>
      </trkpt>
      <trkpt lat="43.13588" lon="-1.31006">
        <ele>878</ele>
        <time>2021-03-17T13:58:11.000Z</time>
      </trkpt>
      <trkpt lat="43.13599" lon="-1.30997">
        <ele>904</ele>
        <time>2021-03-17T13:58:12.000Z</time>
      </trkpt>
      <trkpt lat="43.13617" lon="-1.30989">
        <ele>904</ele>
        <time>2021-03-17T13:58:13.000Z</time>
      </trkpt>
      <trkpt lat="43.13644" lon="-1.30979">
        <ele>890</ele>
        <time>2021-03-17T13:58:14.000Z</time>
      </trkpt>
      <trkpt lat="43.13666" lon="-1.3097">
        <ele>890</ele>
        <time>2021-03-17T13:58:15.000Z</time>
      </trkpt>
      <trkpt lat="43.1368" lon="-1.30958">
        <ele>911</ele>
        <time>2021-03-17T13:58:16.000Z</time>
      </trkpt>
      <trkpt lat="43.1369" lon="-1.30946">
        <ele>911</ele>
        <time>2021-03-17T13:58:17.000Z</time>
      </trkpt>
      <trkpt lat="43.13704" lon="-1.3093">
        <ele>911</ele>
        <time>2021-03-17T13:58:18.000Z</time>
      </trkpt>
      <trkpt lat="43.13751" lon="-1.30867">
        <ele>884</ele>
        <time>2021-03-17T13:58:19.000Z</time>
      </trkpt>
      <trkpt lat="43.13767" lon="-1.30849">
        <ele>917</ele>
        <time>2021-03-17T13:58:20.000Z</time>
      </trkpt>
      <trkpt lat="43.13782" lon="-1.30836">
        <ele>917</ele>
        <time>2021-03-17T13:58:21.000Z</time>
      </trkpt>
      <trkpt lat="43.13802" lon="-1.30826">
        <ele>917</ele>
        <time>2021-03-17T13:58:22.000Z</time>
      </trkpt>
      <trkpt lat="43.13815" lon="-1.30816">
        <ele>917</ele>
        <time>2021-03-17T13:58:23.000Z</time>
      </trkpt>
      <trkpt lat="43.13824" lon="-1.30806">
        <ele>884</ele>
        <time>2021-03-17T13:58:24.000Z</time>
      </trkpt>
      <trkpt lat="43.13829" lon="-1.30796">
        <ele>884</ele>
        <time>2021-03-17T13:58:25.000Z</time>
      </trkpt>
      <trkpt lat="43.13833" lon="-1.30781">
        <ele>884</ele>
        <time>2021-03-17T13:58:26.000Z</time>
      </trkpt>
      <trkpt lat="43.13838" lon="-1.30758">
        <ele>884</ele>
        <time>2021-03-17T13:58:27.000Z</time>
      </trkpt>
      <trkpt lat="43.13844" lon="-1.3074">
        <ele>920</ele>
        <time>2021-03-17T13:58:28.000Z</time>
      </trkpt>
      <trkpt lat="43.13852" lon="-1.30721">
        <ele>898</ele>
        <time>2021-03-17T13:58:29.000Z</time>
      </trkpt>
      <trkpt lat="43.13859" lon="-1.30711">
        <ele>898</ele>
        <time>2021-03-17T13:58:30.000Z</time>
      </trkpt>
      <trkpt lat="43.13866" lon="-1.30706">
        <ele>898</ele>
        <time>2021-03-17T13:58:31.000Z</time>
      </trkpt>
      <trkpt lat="43.1388" lon="-1.30697">
        <ele>898</ele>
        <time>2021-03-17T13:58:32.000Z</time>
      </trkpt>
      <trkpt lat="43.13896" lon="-1.30687">
        <ele>898</ele>
        <time>2021-03-17T13:58:33.000Z</time>
      </trkpt>
      <trkpt lat="43.13918" lon="-1.30672">
        <ele>898</ele>
        <time>2021-03-17T13:58:34.000Z</time>
      </trkpt>
      <trkpt lat="43.13923" lon="-1.30668">
        <ele>898</ele>
        <time>2021-03-17T13:58:35.000Z</time>
      </trkpt>
      <trkpt lat="43.13929" lon="-1.30668">
        <ele>931</ele>
        <time>2021-03-17T13:58:36.000Z</time>
      </trkpt>
      <trkpt lat="43.13937" lon="-1.30672">
        <ele>931</ele>
        <time>2021-03-17T13:58:37.000Z</time>
      </trkpt>
      <trkpt lat="43.13945" lon="-1.30673">
        <ele>931</ele>
        <time>2021-03-17T13:58:38.000Z</time>
      </trkpt>
      <trkpt lat="43.1395" lon="-1.30671">
        <ele>931</ele>
        <time>2021-03-17T13:58:39.000Z</time>
      </trkpt>
      <trkpt lat="43.13954" lon="-1.30666">
        <ele>931</ele>
        <time>2021-03-17T13:58:40.000Z</time>
      </trkpt>
      <trkpt lat="43.1396" lon="-1.30654">
        <ele>931</ele>
        <time>2021-03-17T13:58:41.000Z</time>
      </trkpt>
      <trkpt lat="43.1397" lon="-1.30627">
        <ele>901</ele>
        <time>2021-03-17T13:58:42.000Z</time>
      </trkpt>
      <trkpt lat="43.13978" lon="-1.30595">
        <ele>901</ele>
        <time>2021-03-17T13:58:43.000Z</time>
      </trkpt>
      <trkpt lat="43.13994" lon="-1.30541">
        <ele>867</ele>
        <time>2021-03-17T13:58:44.000Z</time>
      </trkpt>
      <trkpt lat="43.14" lon="-1.30515">
        <ele>867</ele>
        <time>2021-03-17T13:58:45.000Z</time>
      </trkpt>
      <trkpt lat="43.14001" lon="-1.30496">
        <ele>867</ele>
        <time>2021-03-17T13:58:46.000Z</time>
      </trkpt>
      <trkpt lat="43.14001" lon="-1.3046">
        <ele>840</ele>
        <time>2021-03-17T13:58:47.000Z</time>
      </trkpt>
      <trkpt lat="43.13999" lon="-1.30406">
        <ele>840</ele>
        <time>2021-03-17T13:58:48.000Z</time>
      </trkpt>
      <trkpt lat="43.13999" lon="-1.30304">
        <ele>822</ele>
        <time>2021-03-17T13:58:49.000Z</time>
      </trkpt>
      <trkpt lat="43.13998" lon="-1.30259">
        <ele>822</ele>
        <time>2021-03-17T13:58:50.000Z</time>
      </trkpt>
      <trkpt lat="43.13997" lon="-1.30218">
        <ele>815</ele>
        <time>2021-03-17T13:58:51.000Z</time>
      </trkpt>
      <trkpt lat="43.14001" lon="-1.30211">
        <ele>815</ele>
        <time>2021-03-17T13:58:52.000Z</time>
      </trkpt>
      <trkpt lat="43.14004" lon="-1.30189">
        <ele>815</ele>
        <time>2021-03-17T13:58:53.000Z</time>
      </trkpt>
      <trkpt lat="43.1401" lon="-1.30169">
        <ele>815</ele>
        <time>2021-03-17T13:58:54.000Z</time>
      </trkpt>
      <trkpt lat="43.14017" lon="-1.30149">
        <ele>865</ele>
        <time>2021-03-17T13:58:55.000Z</time>
      </trkpt>
      <trkpt lat="43.14035" lon="-1.30108">
        <ele>855</ele>
        <time>2021-03-17T13:58:56.000Z</time>
      </trkpt>
      <trkpt lat="43.14044" lon="-1.30089">
        <ele>855</ele>
        <time>2021-03-17T13:58:57.000Z</time>
      </trkpt>
      <trkpt lat="43.14062" lon="-1.30058">
        <ele>845</ele>
        <time>2021-03-17T13:58:58.000Z</time>
      </trkpt>
      <trkpt lat="43.14085" lon="-1.30023">
        <ele>845</ele>
        <time>2021-03-17T13:58:59.000Z</time>
      </trkpt>
      <trkpt lat="43.14094" lon="-1.30015">
        <ele>845</ele>
        <time>2021-03-17T13:59:00.000Z</time>
      </trkpt>
      <trkpt lat="43.14093" lon="-1.30008">
        <ele>845</ele>
        <time>2021-03-17T13:59:01.000Z</time>
      </trkpt>
      <trkpt lat="43.14095" lon="-1.29991">
        <ele>879</ele>
        <time>2021-03-17T13:59:02.000Z</time>
      </trkpt>
      <trkpt lat="43.14098" lon="-1.29981">
        <ele>879</ele>
        <time>2021-03-17T13:59:03.000Z</time>
      </trkpt>
      <trkpt lat="43.14102" lon="-1.29969">
        <ele>871</ele>
        <time>2021-03-17T13:59:04.000Z</time>
      </trkpt>
      <trkpt lat="43.14104" lon="-1.29958">
        <ele>871</ele>
        <time>2021-03-17T13:59:05.000Z</time>
      </trkpt>
      <trkpt lat="43.14103" lon="-1.29953">
        <ele>871</ele>
        <time>2021-03-17T13:59:06.000Z</time>
      </trkpt>
      <trkpt lat="43.14102" lon="-1.29948">
        <ele>871</ele>
        <time>2021-03-17T13:59:07.000Z</time>
      </trkpt>
      <trkpt lat="43.141" lon="-1.29936">
        <ele>871</ele>
        <time>2021-03-17T13:59:08.000Z</time>
      </trkpt>
      <trkpt lat="43.141" lon="-1.29923">
        <ele>871</ele>
        <time>2021-03-17T13:59:09.000Z</time>
      </trkpt>
      <trkpt lat="43.141" lon="-1.29911">
        <ele>871</ele>
        <time>2021-03-17T13:59:10.000Z</time>
      </trkpt>
      <trkpt lat="43.141" lon="-1.29886">
        <ele>869</ele>
        <time>2021-03-17T13:59:11.000Z</time>
      </trkpt>
      <trkpt lat="43.14106" lon="-1.29851">
        <ele>869</ele>
        <time>2021-03-17T13:59:12.000Z</time>
      </trkpt>
      <trkpt lat="43.14104" lon="-1.29836">
        <ele>869</ele>
        <time>2021-03-17T13:59:13.000Z</time>
      </trkpt>
      <trkpt lat="43.14107" lon="-1.298">
        <ele>866</ele>
        <time>2021-03-17T13:59:14.000Z</time>
      </trkpt>
      <trkpt lat="43.14106" lon="-1.29788">
        <ele>866</ele>
        <time>2021-03-17T13:59:15.000Z</time>
      </trkpt>
      <trkpt lat="43.14103" lon="-1.29773">
        <ele>866</ele>
        <time>2021-03-17T13:59:16.000Z</time>
      </trkpt>
      <trkpt lat="43.14095" lon="-1.29746">
        <ele>866</ele>
        <time>2021-03-17T13:59:17.000Z</time>
      </trkpt>
      <trkpt lat="43.1409" lon="-1.29738">
        <ele>840</ele>
        <time>2021-03-17T13:59:18.000Z</time>
      </trkpt>
      <trkpt lat="43.14085" lon="-1.29723">
        <ele>836</ele>
        <time>2021-03-17T13:59:19.000Z</time>
      </trkpt>
      <trkpt lat="43.14078" lon="-1.29684">
        <ele>836</ele>
        <time>2021-03-17T13:59:20.000Z</time>
      </trkpt>
      <trkpt lat="43.14074" lon="-1.29667">
        <ele>836</ele>
        <time>2021-03-17T13:59:21.000Z</time>
      </trkpt>
      <trkpt lat="43.14073" lon="-1.29644">
        <ele>825</ele>
        <time>2021-03-17T13:59:22.000Z</time>
      </trkpt>
      <trkpt lat="43.14074" lon="-1.29624">
        <ele>825</ele>
        <time>2021-03-17T13:59:23.000Z</time>
      </trkpt>
      <trkpt lat="43.14069" lon="-1.29605">
        <ele>825</ele>
        <time>2021-03-17T13:59:24.000Z</time>
      </trkpt>
      <trkpt lat="43.14073" lon="-1.29579">
        <ele>825</ele>
        <time>2021-03-17T13:59:25.000Z</time>
      </trkpt>
      <trkpt lat="43.14068" lon="-1.29554">
        <ele>810</ele>
        <time>2021-03-17T13:59:26.000Z</time>
      </trkpt>
      <trkpt lat="43.1406" lon="-1.29516">
        <ele>810</ele>
        <time>2021-03-17T13:59:27.000Z</time>
      </trkpt>
      <trkpt lat="43.14056" lon="-1.29502">
        <ele>810</ele>
        <time>2021-03-17T13:59:28.000Z</time>
      </trkpt>
      <trkpt lat="43.1405" lon="-1.2946">
        <ele>801</ele>
        <time>2021-03-17T13:59:29.000Z</time>
      </trkpt>
      <trkpt lat="43.14044" lon="-1.29398">
        <ele>801</ele>
        <time>2021-03-17T13:59:30.000Z</time>
      </trkpt>
      <trkpt lat="43.14045" lon="-1.2936">
        <ele>785</ele>
        <time>2021-03-17T13:59:31.000Z</time>
      </trkpt>
      <trkpt lat="43.14064" lon="-1.29273">
        <ele>771</ele>
        <time>2021-03-17T13:59:32.000Z</time>
      </trkpt>
      <trkpt lat="43.14064" lon="-1.29267">
        <ele>771</ele>
        <time>2021-03-17T13:59:33.000Z</time>
      </trkpt>
      <trkpt lat="43.14075" lon="-1.2926">
        <ele>771</ele>
        <time>2021-03-17T13:59:34.000Z</time>
      </trkpt>
      <trkpt lat="43.14099" lon="-1.29225">
        <ele>760</ele>
        <time>2021-03-17T13:59:35.000Z</time>
      </trkpt>
      <trkpt lat="43.14102" lon="-1.29215">
        <ele>760</ele>
        <time>2021-03-17T13:59:36.000Z</time>
      </trkpt>
      <trkpt lat="43.14118" lon="-1.29193">
        <ele>760</ele>
        <time>2021-03-17T13:59:37.000Z</time>
      </trkpt>
      <trkpt lat="43.14127" lon="-1.29184">
        <ele>760</ele>
        <time>2021-03-17T13:59:38.000Z</time>
      </trkpt>
      <trkpt lat="43.14122" lon="-1.29168">
        <ele>760</ele>
        <time>2021-03-17T13:59:39.000Z</time>
      </trkpt>
      <trkpt lat="43.14112" lon="-1.29155">
        <ele>760</ele>
        <time>2021-03-17T13:59:40.000Z</time>
      </trkpt>
      <trkpt lat="43.14097" lon="-1.29138">
        <ele>749</ele>
        <time>2021-03-17T13:59:41.000Z</time>
      </trkpt>
      <trkpt lat="43.14088" lon="-1.2913">
        <ele>744</ele>
        <time>2021-03-17T13:59:42.000Z</time>
      </trkpt>
      <trkpt lat="43.14072" lon="-1.29119">
        <ele>744</ele>
        <time>2021-03-17T13:59:43.000Z</time>
      </trkpt>
      <trkpt lat="43.14067" lon="-1.29118">
        <ele>744</ele>
        <time>2021-03-17T13:59:44.000Z</time>
      </trkpt>
      <trkpt lat="43.14058" lon="-1.29116">
        <ele>744</ele>
        <time>2021-03-17T13:59:45.000Z</time>
      </trkpt>
      <trkpt lat="43.14042" lon="-1.29114">
        <ele>744</ele>
        <time>2021-03-17T13:59:46.000Z</time>
      </trkpt>
      <trkpt lat="43.14027" lon="-1.29115">
        <ele>744</ele>
        <time>2021-03-17T13:59:47.000Z</time>
      </trkpt>
      <trkpt lat="43.14014" lon="-1.29118">
        <ele>744</ele>
        <time>2021-03-17T13:59:48.000Z</time>
      </trkpt>
      <trkpt lat="43.13997" lon="-1.29125">
        <ele>722</ele>
        <time>2021-03-17T13:59:49.000Z</time>
      </trkpt>
      <trkpt lat="43.13981" lon="-1.29133">
        <ele>722</ele>
        <time>2021-03-17T13:59:50.000Z</time>
      </trkpt>
      <trkpt lat="43.13967" lon="-1.29143">
        <ele>722</ele>
        <time>2021-03-17T13:59:51.000Z</time>
      </trkpt>
      <trkpt lat="43.1395" lon="-1.29159">
        <ele>739</ele>
        <time>2021-03-17T13:59:52.000Z</time>
      </trkpt>
      <trkpt lat="43.13934" lon="-1.29176">
        <ele>739</ele>
        <time>2021-03-17T13:59:53.000Z</time>
      </trkpt>
      <trkpt lat="43.1393" lon="-1.29181">
        <ele>739</ele>
        <time>2021-03-17T13:59:54.000Z</time>
      </trkpt>
      <trkpt lat="43.13926" lon="-1.29183">
        <ele>706</ele>
        <time>2021-03-17T13:59:55.000Z</time>
      </trkpt>
      <trkpt lat="43.13925" lon="-1.29179">
        <ele>706</ele>
        <time>2021-03-17T13:59:56.000Z</time>
      </trkpt>
      <trkpt lat="43.13927" lon="-1.29171">
        <ele>706</ele>
        <time>2021-03-17T13:59:57.000Z</time>
      </trkpt>
      <trkpt lat="43.13938" lon="-1.29148">
        <ele>739</ele>
        <time>2021-03-17T13:59:58.000Z</time>
      </trkpt>
      <trkpt lat="43.13941" lon="-1.2913">
        <ele>722</ele>
        <time>2021-03-17T13:59:59.000Z</time>
      </trkpt>
      <trkpt lat="43.13944" lon="-1.29109">
        <ele>722</ele>
        <time>2021-03-17T14:00:00.000Z</time>
      </trkpt>
      <trkpt lat="43.13948" lon="-1.29093">
        <ele>722</ele>
        <time>2021-03-17T14:00:01.000Z</time>
      </trkpt>
      <trkpt lat="43.1396" lon="-1.29062">
        <ele>709</ele>
        <time>2021-03-17T14:00:02.000Z</time>
      </trkpt>
      <trkpt lat="43.13971" lon="-1.2903">
        <ele>709</ele>
        <time>2021-03-17T14:00:03.000Z</time>
      </trkpt>
      <trkpt lat="43.13975" lon="-1.29021">
        <ele>709</ele>
        <time>2021-03-17T14:00:04.000Z</time>
      </trkpt>
      <trkpt lat="43.13983" lon="-1.2901">
        <ele>709</ele>
        <time>2021-03-17T14:00:05.000Z</time>
      </trkpt>
      <trkpt lat="43.13994" lon="-1.29001">
        <ele>709</ele>
        <time>2021-03-17T14:00:06.000Z</time>
      </trkpt>
      <trkpt lat="43.14002" lon="-1.28996">
        <ele>709</ele>
        <time>2021-03-17T14:00:07.000Z</time>
      </trkpt>
      <trkpt lat="43.1402" lon="-1.2899">
        <ele>726</ele>
        <time>2021-03-17T14:00:08.000Z</time>
      </trkpt>
      <trkpt lat="43.14022" lon="-1.28987">
        <ele>726</ele>
        <time>2021-03-17T14:00:09.000Z</time>
      </trkpt>
      <trkpt lat="43.14021" lon="-1.28982">
        <ele>726</ele>
        <time>2021-03-17T14:00:10.000Z</time>
      </trkpt>
      <trkpt lat="43.14018" lon="-1.28979">
        <ele>706</ele>
        <time>2021-03-17T14:00:11.000Z</time>
      </trkpt>
      <trkpt lat="43.14004" lon="-1.2898">
        <ele>699</ele>
        <time>2021-03-17T14:00:12.000Z</time>
      </trkpt>
      <trkpt lat="43.13991" lon="-1.28974">
        <ele>699</ele>
        <time>2021-03-17T14:00:13.000Z</time>
      </trkpt>
      <trkpt lat="43.13977" lon="-1.28964">
        <ele>699</ele>
        <time>2021-03-17T14:00:14.000Z</time>
      </trkpt>
      <trkpt lat="43.13965" lon="-1.28953">
        <ele>699</ele>
        <time>2021-03-17T14:00:15.000Z</time>
      </trkpt>
      <trkpt lat="43.13942" lon="-1.28873">
        <ele>693</ele>
        <time>2021-03-17T14:00:16.000Z</time>
      </trkpt>
      <trkpt lat="43.13953" lon="-1.28746">
        <ele>681</ele>
        <time>2021-03-17T14:00:17.000Z</time>
      </trkpt>
      <trkpt lat="43.14015" lon="-1.28581">
        <ele>647</ele>
        <time>2021-03-17T14:00:18.000Z</time>
      </trkpt>
      <trkpt lat="43.1408" lon="-1.28536">
        <ele>638</ele>
        <time>2021-03-17T14:00:19.000Z</time>
      </trkpt>
      <trkpt lat="43.14094" lon="-1.28441">
        <ele>622</ele>
        <time>2021-03-17T14:00:20.000Z</time>
      </trkpt>
      <trkpt lat="43.1407" lon="-1.28392">
        <ele>597</ele>
        <time>2021-03-17T14:00:21.000Z</time>
      </trkpt>
      <trkpt lat="43.13998" lon="-1.28326">
        <ele>573</ele>
        <time>2021-03-17T14:00:22.000Z</time>
      </trkpt>
      <trkpt lat="43.14066" lon="-1.28203">
        <ele>547</ele>
        <time>2021-03-17T14:00:23.000Z</time>
      </trkpt>
      <trkpt lat="43.14067" lon="-1.28098">
        <ele>523</ele>
        <time>2021-03-17T14:00:24.000Z</time>
      </trkpt>
      <trkpt lat="43.14006" lon="-1.28081">
        <ele>502</ele>
        <time>2021-03-17T14:00:25.000Z</time>
      </trkpt>
      <trkpt lat="43.13947" lon="-1.28147">
        <ele>528</ele>
        <time>2021-03-17T14:00:26.000Z</time>
      </trkpt>
      <trkpt lat="43.13948" lon="-1.2815">
        <ele>528</ele>
        <time>2021-03-17T14:00:27.000Z</time>
      </trkpt>
      <trkpt lat="43.13935" lon="-1.28165">
        <ele>528</ele>
        <time>2021-03-17T14:00:28.000Z</time>
      </trkpt>
      <trkpt lat="43.13928" lon="-1.28179">
        <ele>528</ele>
        <time>2021-03-17T14:00:29.000Z</time>
      </trkpt>
      <trkpt lat="43.13918" lon="-1.28195">
        <ele>513</ele>
        <time>2021-03-17T14:00:30.000Z</time>
      </trkpt>
      <trkpt lat="43.13911" lon="-1.28197">
        <ele>513</ele>
        <time>2021-03-17T14:00:31.000Z</time>
      </trkpt>
      <trkpt lat="43.13905" lon="-1.28193">
        <ele>513</ele>
        <time>2021-03-17T14:00:32.000Z</time>
      </trkpt>
      <trkpt lat="43.13896" lon="-1.28178">
        <ele>513</ele>
        <time>2021-03-17T14:00:33.000Z</time>
      </trkpt>
      <trkpt lat="43.13891" lon="-1.28174">
        <ele>513</ele>
        <time>2021-03-17T14:00:34.000Z</time>
      </trkpt>
      <trkpt lat="43.13868" lon="-1.28171">
        <ele>513</ele>
        <time>2021-03-17T14:00:35.000Z</time>
      </trkpt>
      <trkpt lat="43.13863" lon="-1.28168">
        <ele>513</ele>
        <time>2021-03-17T14:00:36.000Z</time>
      </trkpt>
      <trkpt lat="43.1386" lon="-1.28165">
        <ele>513</ele>
        <time>2021-03-17T14:00:37.000Z</time>
      </trkpt>
      <trkpt lat="43.13846" lon="-1.28148">
        <ele>513</ele>
        <time>2021-03-17T14:00:38.000Z</time>
      </trkpt>
      <trkpt lat="43.13835" lon="-1.2814">
        <ele>497</ele>
        <time>2021-03-17T14:00:39.000Z</time>
      </trkpt>
      <trkpt lat="43.13816" lon="-1.2814">
        <ele>497</ele>
        <time>2021-03-17T14:00:40.000Z</time>
      </trkpt>
      <trkpt lat="43.13802" lon="-1.2814">
        <ele>497</ele>
        <time>2021-03-17T14:00:41.000Z</time>
      </trkpt>
      <trkpt lat="43.13794" lon="-1.28135">
        <ele>497</ele>
        <time>2021-03-17T14:00:42.000Z</time>
      </trkpt>
      <trkpt lat="43.1378" lon="-1.28122">
        <ele>497</ele>
        <time>2021-03-17T14:00:43.000Z</time>
      </trkpt>
      <trkpt lat="43.1377" lon="-1.28108">
        <ele>497</ele>
        <time>2021-03-17T14:00:44.000Z</time>
      </trkpt>
      <trkpt lat="43.13761" lon="-1.28095">
        <ele>491</ele>
        <time>2021-03-17T14:00:45.000Z</time>
      </trkpt>
      <trkpt lat="43.13756" lon="-1.28071">
        <ele>491</ele>
        <time>2021-03-17T14:00:46.000Z</time>
      </trkpt>
      <trkpt lat="43.13829" lon="-1.281">
        <ele>497</ele>
        <time>2021-03-17T14:00:47.000Z</time>
      </trkpt>
      <trkpt lat="43.13921" lon="-1.2804">
        <ele>480</ele>
        <time>2021-03-17T14:00:48.000Z</time>
      </trkpt>
      <trkpt lat="43.13994" lon="-1.28012">
        <ele>485</ele>
        <time>2021-03-17T14:00:49.000Z</time>
      </trkpt>
      <trkpt lat="43.14059" lon="-1.27951">
        <ele>479</ele>
        <time>2021-03-17T14:00:50.000Z</time>
      </trkpt>
      <trkpt lat="43.14236" lon="-1.28013">
        <ele>483</ele>
        <time>2021-03-17T14:00:51.000Z</time>
      </trkpt>
      <trkpt lat="43.14405" lon="-1.28055">
        <ele>424</ele>
        <time>2021-03-17T14:00:52.000Z</time>
      </trkpt>
      <trkpt lat="43.14408" lon="-1.28052">
        <ele>424</ele>
        <time>2021-03-17T14:00:53.000Z</time>
      </trkpt>
      <trkpt lat="43.14394" lon="-1.28026">
        <ele>424</ele>
        <time>2021-03-17T14:00:54.000Z</time>
      </trkpt>
      <trkpt lat="43.14378" lon="-1.27988">
        <ele>424</ele>
        <time>2021-03-17T14:00:55.000Z</time>
      </trkpt>
      <trkpt lat="43.14367" lon="-1.27974">
        <ele>410</ele>
        <time>2021-03-17T14:00:56.000Z</time>
      </trkpt>
      <trkpt lat="43.14359" lon="-1.27968">
        <ele>410</ele>
        <time>2021-03-17T14:00:57.000Z</time>
      </trkpt>
      <trkpt lat="43.14337" lon="-1.27958">
        <ele>429</ele>
        <time>2021-03-17T14:00:58.000Z</time>
      </trkpt>
      <trkpt lat="43.14318" lon="-1.27949">
        <ele>429</ele>
        <time>2021-03-17T14:00:59.000Z</time>
      </trkpt>
      <trkpt lat="43.14298" lon="-1.27936">
        <ele>429</ele>
        <time>2021-03-17T14:01:00.000Z</time>
      </trkpt>
      <trkpt lat="43.14293" lon="-1.27928">
        <ele>429</ele>
        <time>2021-03-17T14:01:01.000Z</time>
      </trkpt>
      <trkpt lat="43.14291" lon="-1.27894">
        <ele>415</ele>
        <time>2021-03-17T14:01:02.000Z</time>
      </trkpt>
      <trkpt lat="43.14291" lon="-1.27872">
        <ele>415</ele>
        <time>2021-03-17T14:01:03.000Z</time>
      </trkpt>
      <trkpt lat="43.14286" lon="-1.2785">
        <ele>415</ele>
        <time>2021-03-17T14:01:04.000Z</time>
      </trkpt>
      <trkpt lat="43.1427" lon="-1.27825">
        <ele>415</ele>
        <time>2021-03-17T14:01:05.000Z</time>
      </trkpt>
      <trkpt lat="43.14258" lon="-1.27808">
        <ele>405</ele>
        <time>2021-03-17T14:01:06.000Z</time>
      </trkpt>
      <trkpt lat="43.14246" lon="-1.27799">
        <ele>405</ele>
        <time>2021-03-17T14:01:07.000Z</time>
      </trkpt>
      <trkpt lat="43.1425" lon="-1.27793">
        <ele>405</ele>
        <time>2021-03-17T14:01:08.000Z</time>
      </trkpt>
      <trkpt lat="43.14266" lon="-1.27796">
        <ele>397</ele>
        <time>2021-03-17T14:01:09.000Z</time>
      </trkpt>
      <trkpt lat="43.14285" lon="-1.278">
        <ele>397</ele>
        <time>2021-03-17T14:01:10.000Z</time>
      </trkpt>
      <trkpt lat="43.143" lon="-1.27804">
        <ele>397</ele>
        <time>2021-03-17T14:01:11.000Z</time>
      </trkpt>
      <trkpt lat="43.14322" lon="-1.2781">
        <ele>397</ele>
        <time>2021-03-17T14:01:12.000Z</time>
      </trkpt>
      <trkpt lat="43.14354" lon="-1.27816">
        <ele>394</ele>
        <time>2021-03-17T14:01:13.000Z</time>
      </trkpt>
      <trkpt lat="43.1438" lon="-1.27821">
        <ele>394</ele>
        <time>2021-03-17T14:01:14.000Z</time>
      </trkpt>
      <trkpt lat="43.14395" lon="-1.27829">
        <ele>394</ele>
        <time>2021-03-17T14:01:15.000Z</time>
      </trkpt>
      <trkpt lat="43.14405" lon="-1.27836">
        <ele>394</ele>
        <time>2021-03-17T14:01:16.000Z</time>
      </trkpt>
      <trkpt lat="43.1441" lon="-1.27845">
        <ele>394</ele>
        <time>2021-03-17T14:01:17.000Z</time>
      </trkpt>
      <trkpt lat="43.14423" lon="-1.27871">
        <ele>394</ele>
        <time>2021-03-17T14:01:18.000Z</time>
      </trkpt>
      <trkpt lat="43.14428" lon="-1.27877">
        <ele>373</ele>
        <time>2021-03-17T14:01:19.000Z</time>
      </trkpt>
      <trkpt lat="43.14436" lon="-1.27883">
        <ele>373</ele>
        <time>2021-03-17T14:01:20.000Z</time>
      </trkpt>
      <trkpt lat="43.14459" lon="-1.2789">
        <ele>373</ele>
        <time>2021-03-17T14:01:21.000Z</time>
      </trkpt>
      <trkpt lat="43.1447" lon="-1.27895">
        <ele>373</ele>
        <time>2021-03-17T14:01:22.000Z</time>
      </trkpt>
      <trkpt lat="43.14485" lon="-1.27907">
        <ele>389</ele>
        <time>2021-03-17T14:01:23.000Z</time>
      </trkpt>
      <trkpt lat="43.14492" lon="-1.27918">
        <ele>389</ele>
        <time>2021-03-17T14:01:24.000Z</time>
      </trkpt>
      <trkpt lat="43.145" lon="-1.27929">
        <ele>389</ele>
        <time>2021-03-17T14:01:25.000Z</time>
      </trkpt>
      <trkpt lat="43.1451" lon="-1.27952">
        <ele>389</ele>
        <time>2021-03-17T14:01:26.000Z</time>
      </trkpt>
      <trkpt lat="43.14518" lon="-1.2796">
        <ele>368</ele>
        <time>2021-03-17T14:01:27.000Z</time>
      </trkpt>
      <trkpt lat="43.14529" lon="-1.27966">
        <ele>368</ele>
        <time>2021-03-17T14:01:28.000Z</time>
      </trkpt>
      <trkpt lat="43.14542" lon="-1.27963">
        <ele>368</ele>
        <time>2021-03-17T14:01:29.000Z</time>
      </trkpt>
      <trkpt lat="43.14565" lon="-1.27955">
        <ele>368</ele>
        <time>2021-03-17T14:01:30.000Z</time>
      </trkpt>
      <trkpt lat="43.14577" lon="-1.27951">
        <ele>368</ele>
        <time>2021-03-17T14:01:31.000Z</time>
      </trkpt>
      <trkpt lat="43.14607" lon="-1.27945">
        <ele>348</ele>
        <time>2021-03-17T14:01:32.000Z</time>
      </trkpt>
      <trkpt lat="43.1462" lon="-1.27949">
        <ele>348</ele>
        <time>2021-03-17T14:01:33.000Z</time>
      </trkpt>
      <trkpt lat="43.14634" lon="-1.27955">
        <ele>348</ele>
        <time>2021-03-17T14:01:34.000Z</time>
      </trkpt>
      <trkpt lat="43.14644" lon="-1.27962">
        <ele>348</ele>
        <time>2021-03-17T14:01:35.000Z</time>
      </trkpt>
      <trkpt lat="43.14649" lon="-1.2798">
        <ele>348</ele>
        <time>2021-03-17T14:01:36.000Z</time>
      </trkpt>
      <trkpt lat="43.14656" lon="-1.28008">
        <ele>352</ele>
        <time>2021-03-17T14:01:37.000Z</time>
      </trkpt>
      <trkpt lat="43.14663" lon="-1.2803">
        <ele>352</ele>
        <time>2021-03-17T14:01:38.000Z</time>
      </trkpt>
      <trkpt lat="43.14669" lon="-1.2804">
        <ele>352</ele>
        <time>2021-03-17T14:01:39.000Z</time>
      </trkpt>
      <trkpt lat="43.14677" lon="-1.28044">
        <ele>352</ele>
        <time>2021-03-17T14:01:40.000Z</time>
      </trkpt>
      <trkpt lat="43.14684" lon="-1.28044">
        <ele>325</ele>
        <time>2021-03-17T14:01:41.000Z</time>
      </trkpt>
      <trkpt lat="43.14691" lon="-1.28043">
        <ele>325</ele>
        <time>2021-03-17T14:01:42.000Z</time>
      </trkpt>
      <trkpt lat="43.14698" lon="-1.28041">
        <ele>325</ele>
        <time>2021-03-17T14:01:43.000Z</time>
      </trkpt>
      <trkpt lat="43.14715" lon="-1.28022">
        <ele>325</ele>
        <time>2021-03-17T14:01:44.000Z</time>
      </trkpt>
      <trkpt lat="43.14723" lon="-1.28014">
        <ele>325</ele>
        <time>2021-03-17T14:01:45.000Z</time>
      </trkpt>
      <trkpt lat="43.14735" lon="-1.28006">
        <ele>325</ele>
        <time>2021-03-17T14:01:46.000Z</time>
      </trkpt>
      <trkpt lat="43.14743" lon="-1.28002">
        <ele>325</ele>
        <time>2021-03-17T14:01:47.000Z</time>
      </trkpt>
      <trkpt lat="43.14756" lon="-1.27999">
        <ele>325</ele>
        <time>2021-03-17T14:01:48.000Z</time>
      </trkpt>
      <trkpt lat="43.14771" lon="-1.27991">
        <ele>319</ele>
        <time>2021-03-17T14:01:49.000Z</time>
      </trkpt>
      <trkpt lat="43.14784" lon="-1.27977">
        <ele>312</ele>
        <time>2021-03-17T14:01:50.000Z</time>
      </trkpt>
      <trkpt lat="43.14799" lon="-1.27944">
        <ele>312</ele>
        <time>2021-03-17T14:01:51.000Z</time>
      </trkpt>
      <trkpt lat="43.14805" lon="-1.27929">
        <ele>312</ele>
        <time>2021-03-17T14:01:52.000Z</time>
      </trkpt>
      <trkpt lat="43.14809" lon="-1.27919">
        <ele>312</ele>
        <time>2021-03-17T14:01:53.000Z</time>
      </trkpt>
      <trkpt lat="43.14809" lon="-1.27912">
        <ele>312</ele>
        <time>2021-03-17T14:01:54.000Z</time>
      </trkpt>
      <trkpt lat="43.14812" lon="-1.27896">
        <ele>305</ele>
        <time>2021-03-17T14:01:55.000Z</time>
      </trkpt>
      <trkpt lat="43.14816" lon="-1.27883">
        <ele>305</ele>
        <time>2021-03-17T14:01:56.000Z</time>
      </trkpt>
      <trkpt lat="43.14821" lon="-1.27872">
        <ele>305</ele>
        <time>2021-03-17T14:01:57.000Z</time>
      </trkpt>
      <trkpt lat="43.14846" lon="-1.27827">
        <ele>311</ele>
        <time>2021-03-17T14:01:58.000Z</time>
      </trkpt>
      <trkpt lat="43.14849" lon="-1.2782">
        <ele>311</ele>
        <time>2021-03-17T14:01:59.000Z</time>
      </trkpt>
      <trkpt lat="43.1486" lon="-1.2779">
        <ele>301</ele>
        <time>2021-03-17T14:02:00.000Z</time>
      </trkpt>
      <trkpt lat="43.14867" lon="-1.27773">
        <ele>301</ele>
        <time>2021-03-17T14:02:01.000Z</time>
      </trkpt>
      <trkpt lat="43.14912" lon="-1.27676">
        <ele>292</ele>
        <time>2021-03-17T14:02:02.000Z</time>
      </trkpt>
      <trkpt lat="43.14918" lon="-1.27666">
        <ele>292</ele>
        <time>2021-03-17T14:02:03.000Z</time>
      </trkpt>
      <trkpt lat="43.14923" lon="-1.2766">
        <ele>292</ele>
        <time>2021-03-17T14:02:04.000Z</time>
      </trkpt>
      <trkpt lat="43.14953" lon="-1.2763">
        <ele>283</ele>
        <time>2021-03-17T14:02:05.000Z</time>
      </trkpt>
      <trkpt lat="43.14957" lon="-1.27622">
        <ele>283</ele>
        <time>2021-03-17T14:02:06.000Z</time>
      </trkpt>
      <trkpt lat="43.1497" lon="-1.27591">
        <ele>283</ele>
        <time>2021-03-17T14:02:07.000Z</time>
      </trkpt>
      <trkpt lat="43.14976" lon="-1.2758">
        <ele>283</ele>
        <time>2021-03-17T14:02:08.000Z</time>
      </trkpt>
      <trkpt lat="43.14986" lon="-1.27566">
        <ele>283</ele>
        <time>2021-03-17T14:02:09.000Z</time>
      </trkpt>
      <trkpt lat="43.14992" lon="-1.27555">
        <ele>268</ele>
        <time>2021-03-17T14:02:10.000Z</time>
      </trkpt>
      <trkpt lat="43.15011" lon="-1.27516">
        <ele>271</ele>
        <time>2021-03-17T14:02:11.000Z</time>
      </trkpt>
      <trkpt lat="43.15021" lon="-1.2749">
        <ele>271</ele>
        <time>2021-03-17T14:02:12.000Z</time>
      </trkpt>
      <trkpt lat="43.15025" lon="-1.27474">
        <ele>263</ele>
        <time>2021-03-17T14:02:13.000Z</time>
      </trkpt>
      <trkpt lat="43.15028" lon="-1.27464">
        <ele>263</ele>
        <time>2021-03-17T14:02:14.000Z</time>
      </trkpt>
      <trkpt lat="43.15032" lon="-1.27425">
        <ele>263</ele>
        <time>2021-03-17T14:02:15.000Z</time>
      </trkpt>
      <trkpt lat="43.15034" lon="-1.27414">
        <ele>263</ele>
        <time>2021-03-17T14:02:16.000Z</time>
      </trkpt>
      <trkpt lat="43.15037" lon="-1.27407">
        <ele>263</ele>
        <time>2021-03-17T14:02:17.000Z</time>
      </trkpt>
      <trkpt lat="43.15041" lon="-1.27402">
        <ele>263</ele>
        <time>2021-03-17T14:02:18.000Z</time>
      </trkpt>
      <trkpt lat="43.15054" lon="-1.27394">
        <ele>260</ele>
        <time>2021-03-17T14:02:19.000Z</time>
      </trkpt>
      <trkpt lat="43.15058" lon="-1.27387">
        <ele>260</ele>
        <time>2021-03-17T14:02:20.000Z</time>
      </trkpt>
      <trkpt lat="43.15061" lon="-1.27381">
        <ele>260</ele>
        <time>2021-03-17T14:02:21.000Z</time>
      </trkpt>
      <trkpt lat="43.15063" lon="-1.27368">
        <ele>260</ele>
        <time>2021-03-17T14:02:22.000Z</time>
      </trkpt>
      <trkpt lat="43.15066" lon="-1.27332">
        <ele>260</ele>
        <time>2021-03-17T14:02:23.000Z</time>
      </trkpt>
      <trkpt lat="43.15065" lon="-1.27319">
        <ele>260</ele>
        <time>2021-03-17T14:02:24.000Z</time>
      </trkpt>
      <trkpt lat="43.15063" lon="-1.27306">
        <ele>252</ele>
        <time>2021-03-17T14:02:25.000Z</time>
      </trkpt>
      <trkpt lat="43.15052" lon="-1.27282">
        <ele>252</ele>
        <time>2021-03-17T14:02:26.000Z</time>
      </trkpt>
      <trkpt lat="43.15047" lon="-1.27266">
        <ele>252</ele>
        <time>2021-03-17T14:02:27.000Z</time>
      </trkpt>
      <trkpt lat="43.15044" lon="-1.27247">
        <ele>252</ele>
        <time>2021-03-17T14:02:28.000Z</time>
      </trkpt>
      <trkpt lat="43.15049" lon="-1.27251">
        <ele>252</ele>
        <time>2021-03-17T14:02:29.000Z</time>
      </trkpt>
      <trkpt lat="43.15053" lon="-1.27252">
        <ele>252</ele>
        <time>2021-03-17T14:02:30.000Z</time>
      </trkpt>
      <trkpt lat="43.15064" lon="-1.27258">
        <ele>252</ele>
        <time>2021-03-17T14:02:31.000Z</time>
      </trkpt>
      <trkpt lat="43.15075" lon="-1.27261">
        <ele>252</ele>
        <time>2021-03-17T14:02:32.000Z</time>
      </trkpt>
      <trkpt lat="43.15088" lon="-1.27264">
        <ele>252</ele>
        <time>2021-03-17T14:02:33.000Z</time>
      </trkpt>
      <trkpt lat="43.15101" lon="-1.27264">
        <ele>250</ele>
        <time>2021-03-17T14:02:34.000Z</time>
      </trkpt>
      <trkpt lat="43.15108" lon="-1.2726">
        <ele>250</ele>
        <time>2021-03-17T14:02:35.000Z</time>
      </trkpt>
      <trkpt lat="43.15111" lon="-1.27255">
        <ele>250</ele>
        <time>2021-03-17T14:02:36.000Z</time>
      </trkpt>
      <trkpt lat="43.15112" lon="-1.27246">
        <ele>250</ele>
        <time>2021-03-17T14:02:37.000Z</time>
      </trkpt>
      <trkpt lat="43.15111" lon="-1.27232">
        <ele>250</ele>
        <time>2021-03-17T14:02:38.000Z</time>
      </trkpt>
      <trkpt lat="43.15108" lon="-1.27207">
        <ele>238</ele>
        <time>2021-03-17T14:02:39.000Z</time>
      </trkpt>
      <trkpt lat="43.15108" lon="-1.27196">
        <ele>238</ele>
        <time>2021-03-17T14:02:40.000Z</time>
      </trkpt>
      <trkpt lat="43.15111" lon="-1.27177">
        <ele>238</ele>
        <time>2021-03-17T14:02:41.000Z</time>
      </trkpt>
      <trkpt lat="43.15126" lon="-1.27132">
        <ele>233</ele>
        <time>2021-03-17T14:02:42.000Z</time>
      </trkpt>
      <trkpt lat="43.1514" lon="-1.27089">
        <ele>233</ele>
        <time>2021-03-17T14:02:43.000Z</time>
      </trkpt>
      <trkpt lat="43.15143" lon="-1.27077">
        <ele>233</ele>
        <time>2021-03-17T14:02:44.000Z</time>
      </trkpt>
      <trkpt lat="43.15147" lon="-1.27047">
        <ele>232</ele>
        <time>2021-03-17T14:02:45.000Z</time>
      </trkpt>
      <trkpt lat="43.15152" lon="-1.2701">
        <ele>232</ele>
        <time>2021-03-17T14:02:46.000Z</time>
      </trkpt>
      <trkpt lat="43.15154" lon="-1.26993">
        <ele>232</ele>
        <time>2021-03-17T14:02:47.000Z</time>
      </trkpt>
      <trkpt lat="43.1516" lon="-1.26966">
        <ele>225</ele>
        <time>2021-03-17T14:02:48.000Z</time>
      </trkpt>
      <trkpt lat="43.15159" lon="-1.26956">
        <ele>225</ele>
        <time>2021-03-17T14:02:49.000Z</time>
      </trkpt>
      <trkpt lat="43.15167" lon="-1.26906">
        <ele>225</ele>
        <time>2021-03-17T14:02:50.000Z</time>
      </trkpt>
      <trkpt lat="43.15169" lon="-1.26895">
        <ele>222</ele>
        <time>2021-03-17T14:02:51.000Z</time>
      </trkpt>
      <trkpt lat="43.15172" lon="-1.26884">
        <ele>222</ele>
        <time>2021-03-17T14:02:52.000Z</time>
      </trkpt>
      <trkpt lat="43.15176" lon="-1.26875">
        <ele>222</ele>
        <time>2021-03-17T14:02:53.000Z</time>
      </trkpt>
      <trkpt lat="43.15181" lon="-1.26866">
        <ele>242</ele>
        <time>2021-03-17T14:02:54.000Z</time>
      </trkpt>
      <trkpt lat="43.15193" lon="-1.26848">
        <ele>242</ele>
        <time>2021-03-17T14:02:55.000Z</time>
      </trkpt>
      <trkpt lat="43.15198" lon="-1.26832">
        <ele>242</ele>
        <time>2021-03-17T14:02:56.000Z</time>
      </trkpt>
      <trkpt lat="43.15202" lon="-1.26821">
        <ele>242</ele>
        <time>2021-03-17T14:02:57.000Z</time>
      </trkpt>
      <trkpt lat="43.15207" lon="-1.26813">
        <ele>242</ele>
        <time>2021-03-17T14:02:58.000Z</time>
      </trkpt>
      <trkpt lat="43.15215" lon="-1.26802">
        <ele>230</ele>
        <time>2021-03-17T14:02:59.000Z</time>
      </trkpt>
      <trkpt lat="43.15227" lon="-1.26792">
        <ele>230</ele>
        <time>2021-03-17T14:03:00.000Z</time>
      </trkpt>
      <trkpt lat="43.15238" lon="-1.26784">
        <ele>230</ele>
        <time>2021-03-17T14:03:01.000Z</time>
      </trkpt>
      <trkpt lat="43.15242" lon="-1.26779">
        <ele>230</ele>
        <time>2021-03-17T14:03:02.000Z</time>
      </trkpt>
      <trkpt lat="43.15249" lon="-1.2677">
        <ele>230</ele>
        <time>2021-03-17T14:03:03.000Z</time>
      </trkpt>
      <trkpt lat="43.15264" lon="-1.26749">
        <ele>244</ele>
        <time>2021-03-17T14:03:04.000Z</time>
      </trkpt>
      <trkpt lat="43.15282" lon="-1.26711">
        <ele>229</ele>
        <time>2021-03-17T14:03:05.000Z</time>
      </trkpt>
      <trkpt lat="43.15299" lon="-1.26685">
        <ele>229</ele>
        <time>2021-03-17T14:03:06.000Z</time>
      </trkpt>
      <trkpt lat="43.15306" lon="-1.26674">
        <ele>229</ele>
        <time>2021-03-17T14:03:07.000Z</time>
      </trkpt>
      <trkpt lat="43.15318" lon="-1.26647">
        <ele>229</ele>
        <time>2021-03-17T14:03:08.000Z</time>
      </trkpt>
      <trkpt lat="43.15322" lon="-1.26639">
        <ele>218</ele>
        <time>2021-03-17T14:03:09.000Z</time>
      </trkpt>
      <trkpt lat="43.15328" lon="-1.26632">
        <ele>218</ele>
        <time>2021-03-17T14:03:10.000Z</time>
      </trkpt>
      <trkpt lat="43.15338" lon="-1.26618">
        <ele>218</ele>
        <time>2021-03-17T14:03:11.000Z</time>
      </trkpt>
      <trkpt lat="43.15342" lon="-1.2661">
        <ele>218</ele>
        <time>2021-03-17T14:03:12.000Z</time>
      </trkpt>
      <trkpt lat="43.15344" lon="-1.26603">
        <ele>218</ele>
        <time>2021-03-17T14:03:13.000Z</time>
      </trkpt>
      <trkpt lat="43.15344" lon="-1.26595">
        <ele>228</ele>
        <time>2021-03-17T14:03:14.000Z</time>
      </trkpt>
      <trkpt lat="43.15344" lon="-1.26587">
        <ele>218</ele>
        <time>2021-03-17T14:03:15.000Z</time>
      </trkpt>
      <trkpt lat="43.15341" lon="-1.26566">
        <ele>218</ele>
        <time>2021-03-17T14:03:16.000Z</time>
      </trkpt>
      <trkpt lat="43.1534" lon="-1.26553">
        <ele>218</ele>
        <time>2021-03-17T14:03:17.000Z</time>
      </trkpt>
      <trkpt lat="43.15343" lon="-1.26547">
        <ele>218</ele>
        <time>2021-03-17T14:03:18.000Z</time>
      </trkpt>
      <trkpt lat="43.15349" lon="-1.26541">
        <ele>213</ele>
        <time>2021-03-17T14:03:19.000Z</time>
      </trkpt>
      <trkpt lat="43.1536" lon="-1.26537">
        <ele>213</ele>
        <time>2021-03-17T14:03:20.000Z</time>
      </trkpt>
      <trkpt lat="43.15366" lon="-1.26532">
        <ele>213</ele>
        <time>2021-03-17T14:03:21.000Z</time>
      </trkpt>
      <trkpt lat="43.15369" lon="-1.26527">
        <ele>213</ele>
        <time>2021-03-17T14:03:22.000Z</time>
      </trkpt>
      <trkpt lat="43.15373" lon="-1.26519">
        <ele>213</ele>
        <time>2021-03-17T14:03:23.000Z</time>
      </trkpt>
      <trkpt lat="43.15379" lon="-1.26497">
        <ele>213</ele>
        <time>2021-03-17T14:03:24.000Z</time>
      </trkpt>
      <trkpt lat="43.15383" lon="-1.26488">
        <ele>213</ele>
        <time>2021-03-17T14:03:25.000Z</time>
      </trkpt>
      <trkpt lat="43.15387" lon="-1.2648">
        <ele>213</ele>
        <time>2021-03-17T14:03:26.000Z</time>
      </trkpt>
      <trkpt lat="43.15395" lon="-1.26468">
        <ele>207</ele>
        <time>2021-03-17T14:03:27.000Z</time>
      </trkpt>
      <trkpt lat="43.15399" lon="-1.26461">
        <ele>207</ele>
        <time>2021-03-17T14:03:28.000Z</time>
      </trkpt>
      <trkpt lat="43.15408" lon="-1.26434">
        <ele>207</ele>
        <time>2021-03-17T14:03:29.000Z</time>
      </trkpt>
      <trkpt lat="43.15413" lon="-1.26426">
        <ele>207</ele>
        <time>2021-03-17T14:03:30.000Z</time>
      </trkpt>
      <trkpt lat="43.15424" lon="-1.2641">
        <ele>207</ele>
        <time>2021-03-17T14:03:31.000Z</time>
      </trkpt>
      <trkpt lat="43.15451" lon="-1.26371">
        <ele>209</ele>
        <time>2021-03-17T14:03:32.000Z</time>
      </trkpt>
      <trkpt lat="43.15467" lon="-1.26352">
        <ele>209</ele>
        <time>2021-03-17T14:03:33.000Z</time>
      </trkpt>
      <trkpt lat="43.15485" lon="-1.26322">
        <ele>209</ele>
        <time>2021-03-17T14:03:34.000Z</time>
      </trkpt>
      <trkpt lat="43.15496" lon="-1.26307">
        <ele>200</ele>
        <time>2021-03-17T14:03:35.000Z</time>
      </trkpt>
      <trkpt lat="43.15506" lon="-1.26292">
        <ele>200</ele>
        <time>2021-03-17T14:03:36.000Z</time>
      </trkpt>
      <trkpt lat="43.15512" lon="-1.26275">
        <ele>206</ele>
        <time>2021-03-17T14:03:37.000Z</time>
      </trkpt>
      <trkpt lat="43.15519" lon="-1.26253">
        <ele>206</ele>
        <time>2021-03-17T14:03:38.000Z</time>
      </trkpt>
      <trkpt lat="43.15539" lon="-1.262">
        <ele>200</ele>
        <time>2021-03-17T14:03:39.000Z</time>
      </trkpt>
      <trkpt lat="43.15587" lon="-1.26114">
        <ele>197</ele>
        <time>2021-03-17T14:03:40.000Z</time>
      </trkpt>
      <trkpt lat="43.15597" lon="-1.26088">
        <ele>205</ele>
        <time>2021-03-17T14:03:41.000Z</time>
      </trkpt>
      <trkpt lat="43.15607" lon="-1.26074">
        <ele>205</ele>
        <time>2021-03-17T14:03:42.000Z</time>
      </trkpt>
      <trkpt lat="43.15629" lon="-1.26069">
        <ele>205</ele>
        <time>2021-03-17T14:03:43.000Z</time>
      </trkpt>
      <trkpt lat="43.15649" lon="-1.26056">
        <ele>195</ele>
        <time>2021-03-17T14:03:44.000Z</time>
      </trkpt>
      <trkpt lat="43.15672" lon="-1.2604">
        <ele>195</ele>
        <time>2021-03-17T14:03:45.000Z</time>
      </trkpt>
      <trkpt lat="43.15711" lon="-1.26028">
        <ele>204</ele>
        <time>2021-03-17T14:03:46.000Z</time>
      </trkpt>
      <trkpt lat="43.15719" lon="-1.26023">
        <ele>204</ele>
        <time>2021-03-17T14:03:47.000Z</time>
      </trkpt>
      <trkpt lat="43.15716" lon="-1.26013">
        <ele>204</ele>
        <time>2021-03-17T14:03:48.000Z</time>
      </trkpt>
      <trkpt lat="43.15712" lon="-1.25992">
        <ele>204</ele>
        <time>2021-03-17T14:03:49.000Z</time>
      </trkpt>
      <trkpt lat="43.15711" lon="-1.25977">
        <ele>197</ele>
        <time>2021-03-17T14:03:50.000Z</time>
      </trkpt>
      <trkpt lat="43.15714" lon="-1.25948">
        <ele>197</ele>
        <time>2021-03-17T14:03:51.000Z</time>
      </trkpt>
      <trkpt lat="43.15716" lon="-1.25941">
        <ele>197</ele>
        <time>2021-03-17T14:03:52.000Z</time>
      </trkpt>
      <trkpt lat="43.1572" lon="-1.25932">
        <ele>197</ele>
        <time>2021-03-17T14:03:53.000Z</time>
      </trkpt>
      <trkpt lat="43.15736" lon="-1.25902">
        <ele>197</ele>
        <time>2021-03-17T14:03:54.000Z</time>
      </trkpt>
      <trkpt lat="43.1574" lon="-1.25893">
        <ele>194</ele>
        <time>2021-03-17T14:03:55.000Z</time>
      </trkpt>
      <trkpt lat="43.15741" lon="-1.25883">
        <ele>194</ele>
        <time>2021-03-17T14:03:56.000Z</time>
      </trkpt>
      <trkpt lat="43.15741" lon="-1.25872">
        <ele>194</ele>
        <time>2021-03-17T14:03:57.000Z</time>
      </trkpt>
      <trkpt lat="43.1574" lon="-1.25861">
        <ele>194</ele>
        <time>2021-03-17T14:03:58.000Z</time>
      </trkpt>
      <trkpt lat="43.15726" lon="-1.25788">
        <ele>188</ele>
        <time>2021-03-17T14:03:59.000Z</time>
      </trkpt>
      <trkpt lat="43.15724" lon="-1.25777">
        <ele>188</ele>
        <time>2021-03-17T14:04:00.000Z</time>
      </trkpt>
      <trkpt lat="43.15714" lon="-1.25726">
        <ele>186</ele>
        <time>2021-03-17T14:04:01.000Z</time>
      </trkpt>
      <trkpt lat="43.15712" lon="-1.25704">
        <ele>186</ele>
        <time>2021-03-17T14:04:02.000Z</time>
      </trkpt>
      <trkpt lat="43.1571" lon="-1.25656">
        <ele>186</ele>
        <time>2021-03-17T14:04:03.000Z</time>
      </trkpt>
      <trkpt lat="43.15704" lon="-1.25613">
        <ele>184</ele>
        <time>2021-03-17T14:04:04.000Z</time>
      </trkpt>
      <trkpt lat="43.15702" lon="-1.25594">
        <ele>184</ele>
        <time>2021-03-17T14:04:05.000Z</time>
      </trkpt>
      <trkpt lat="43.15703" lon="-1.25581">
        <ele>184</ele>
        <time>2021-03-17T14:04:06.000Z</time>
      </trkpt>
      <trkpt lat="43.15706" lon="-1.25569">
        <ele>184</ele>
        <time>2021-03-17T14:04:07.000Z</time>
      </trkpt>
      <trkpt lat="43.15709" lon="-1.25557">
        <ele>184</ele>
        <time>2021-03-17T14:04:08.000Z</time>
      </trkpt>
      <trkpt lat="43.15714" lon="-1.25546">
        <ele>184</ele>
        <time>2021-03-17T14:04:09.000Z</time>
      </trkpt>
      <trkpt lat="43.15722" lon="-1.2553">
        <ele>184</ele>
        <time>2021-03-17T14:04:10.000Z</time>
      </trkpt>
      <trkpt lat="43.15745" lon="-1.25489">
        <ele>184</ele>
        <time>2021-03-17T14:04:11.000Z</time>
      </trkpt>
      <trkpt lat="43.15752" lon="-1.25474">
        <ele>178</ele>
        <time>2021-03-17T14:04:12.000Z</time>
      </trkpt>
      <trkpt lat="43.15757" lon="-1.25461">
        <ele>178</ele>
        <time>2021-03-17T14:04:13.000Z</time>
      </trkpt>
      <trkpt lat="43.15761" lon="-1.2544">
        <ele>185</ele>
        <time>2021-03-17T14:04:14.000Z</time>
      </trkpt>
      <trkpt lat="43.15767" lon="-1.25398">
        <ele>185</ele>
        <time>2021-03-17T14:04:15.000Z</time>
      </trkpt>
      <trkpt lat="43.15777" lon="-1.25331">
        <ele>180</ele>
        <time>2021-03-17T14:04:16.000Z</time>
      </trkpt>
      <trkpt lat="43.15781" lon="-1.25313">
        <ele>180</ele>
        <time>2021-03-17T14:04:17.000Z</time>
      </trkpt>
      <trkpt lat="43.15785" lon="-1.25301">
        <ele>176</ele>
        <time>2021-03-17T14:04:18.000Z</time>
      </trkpt>
      <trkpt lat="43.15796" lon="-1.25283">
        <ele>176</ele>
        <time>2021-03-17T14:04:19.000Z</time>
      </trkpt>
      <trkpt lat="43.15826" lon="-1.25249">
        <ele>176</ele>
        <time>2021-03-17T14:04:20.000Z</time>
      </trkpt>
      <trkpt lat="43.15854" lon="-1.25226">
        <ele>181</ele>
        <time>2021-03-17T14:04:21.000Z</time>
      </trkpt>
      <trkpt lat="43.15894" lon="-1.25197">
        <ele>181</ele>
        <time>2021-03-17T14:04:22.000Z</time>
      </trkpt>
      <trkpt lat="43.15901" lon="-1.25188">
        <ele>181</ele>
        <time>2021-03-17T14:04:23.000Z</time>
      </trkpt>
      <trkpt lat="43.15914" lon="-1.25173">
        <ele>181</ele>
        <time>2021-03-17T14:04:24.000Z</time>
      </trkpt>
      <trkpt lat="43.15948" lon="-1.25099">
        <ele>179</ele>
        <time>2021-03-17T14:04:25.000Z</time>
      </trkpt>
      <trkpt lat="43.15954" lon="-1.25087">
        <ele>179</ele>
        <time>2021-03-17T14:04:26.000Z</time>
      </trkpt>
      <trkpt lat="43.15963" lon="-1.25063">
        <ele>179</ele>
        <time>2021-03-17T14:04:27.000Z</time>
      </trkpt>
      <trkpt lat="43.15997" lon="-1.24971">
        <ele>167</ele>
        <time>2021-03-17T14:04:28.000Z</time>
      </trkpt>
      <trkpt lat="43.16003" lon="-1.24957">
        <ele>167</ele>
        <time>2021-03-17T14:04:29.000Z</time>
      </trkpt>
      <trkpt lat="43.1601" lon="-1.24947">
        <ele>167</ele>
        <time>2021-03-17T14:04:30.000Z</time>
      </trkpt>
      <trkpt lat="43.16021" lon="-1.24935">
        <ele>167</ele>
        <time>2021-03-17T14:04:31.000Z</time>
      </trkpt>
      <trkpt lat="43.16021" lon="-1.24935">
        <ele>167</ele>
        <time>2021-03-17T14:04:32.000Z</time>
      </trkpt>
      <trkpt lat="43.16038" lon="-1.24917">
        <ele>167</ele>
        <time>2021-03-17T14:04:33.000Z</time>
      </trkpt>
      <trkpt lat="43.16046" lon="-1.24904">
        <ele>167</ele>
        <time>2021-03-17T14:04:34.000Z</time>
      </trkpt>
      <trkpt lat="43.16056" lon="-1.24886">
        <ele>166</ele>
        <time>2021-03-17T14:04:35.000Z</time>
      </trkpt>
      <trkpt lat="43.16062" lon="-1.24881">
        <ele>166</ele>
        <time>2021-03-17T14:04:36.000Z</time>
      </trkpt>
      <trkpt lat="43.16052" lon="-1.24872">
        <ele>166</ele>
        <time>2021-03-17T14:04:37.000Z</time>
      </trkpt>
      <trkpt lat="43.16032" lon="-1.24853">
        <ele>166</ele>
        <time>2021-03-17T14:04:38.000Z</time>
      </trkpt>
      <trkpt lat="43.16021" lon="-1.24845">
        <ele>166</ele>
        <time>2021-03-17T14:04:39.000Z</time>
      </trkpt>
      <trkpt lat="43.1601" lon="-1.24839">
        <ele>168</ele>
        <time>2021-03-17T14:04:40.000Z</time>
      </trkpt>
      <trkpt lat="43.16001" lon="-1.24835">
        <ele>168</ele>
        <time>2021-03-17T14:04:41.000Z</time>
      </trkpt>
      <trkpt lat="43.1598" lon="-1.24823">
        <ele>168</ele>
        <time>2021-03-17T14:04:42.000Z</time>
      </trkpt>
      <trkpt lat="43.15964" lon="-1.24819">
        <ele>168</ele>
        <time>2021-03-17T14:04:43.000Z</time>
      </trkpt>
      <trkpt lat="43.15935" lon="-1.24808">
        <ele>172</ele>
        <time>2021-03-17T14:04:44.000Z</time>
      </trkpt>
      <trkpt lat="43.15926" lon="-1.24801">
        <ele>183</ele>
        <time>2021-03-17T14:04:45.000Z</time>
      </trkpt>
      <trkpt lat="43.15911" lon="-1.24782">
        <ele>183</ele>
        <time>2021-03-17T14:04:46.000Z</time>
      </trkpt>
      <trkpt lat="43.15892" lon="-1.24753">
        <ele>183</ele>
        <time>2021-03-17T14:04:47.000Z</time>
      </trkpt>
      <trkpt lat="43.15886" lon="-1.24748">
        <ele>183</ele>
        <time>2021-03-17T14:04:48.000Z</time>
      </trkpt>
      <trkpt lat="43.1588" lon="-1.24747">
        <ele>183</ele>
        <time>2021-03-17T14:04:49.000Z</time>
      </trkpt>
      <trkpt lat="43.15874" lon="-1.24749">
        <ele>183</ele>
        <time>2021-03-17T14:04:50.000Z</time>
      </trkpt>
      <trkpt lat="43.1587" lon="-1.24751">
        <ele>183</ele>
        <time>2021-03-17T14:04:51.000Z</time>
      </trkpt>
      <trkpt lat="43.15858" lon="-1.24758">
        <ele>183</ele>
        <time>2021-03-17T14:04:52.000Z</time>
      </trkpt>
      <trkpt lat="43.15836" lon="-1.24761">
        <ele>188</ele>
        <time>2021-03-17T14:04:53.000Z</time>
      </trkpt>
      <trkpt lat="43.15827" lon="-1.2476">
        <ele>188</ele>
        <time>2021-03-17T14:04:54.000Z</time>
      </trkpt>
      <trkpt lat="43.15832" lon="-1.2475">
        <ele>188</ele>
        <time>2021-03-17T14:04:55.000Z</time>
      </trkpt>
      <trkpt lat="43.15839" lon="-1.24731">
        <ele>188</ele>
        <time>2021-03-17T14:04:56.000Z</time>
      </trkpt>
      <trkpt lat="43.15855" lon="-1.24688">
        <ele>188</ele>
        <time>2021-03-17T14:04:57.000Z</time>
      </trkpt>
      <trkpt lat="43.1588" lon="-1.24624">
        <ele>189</ele>
        <time>2021-03-17T14:04:58.000Z</time>
      </trkpt>
      <trkpt lat="43.15905" lon="-1.24564">
        <ele>189</ele>
        <time>2021-03-17T14:04:59.000Z</time>
      </trkpt>
      <trkpt lat="43.15919" lon="-1.24535">
        <ele>193</ele>
        <time>2021-03-17T14:05:00.000Z</time>
      </trkpt>
      <trkpt lat="43.15927" lon="-1.24521">
        <ele>193</ele>
        <time>2021-03-17T14:05:01.000Z</time>
      </trkpt>
      <trkpt lat="43.15937" lon="-1.24508">
        <ele>190</ele>
        <time>2021-03-17T14:05:02.000Z</time>
      </trkpt>
      <trkpt lat="43.15947" lon="-1.24496">
        <ele>190</ele>
        <time>2021-03-17T14:05:03.000Z</time>
      </trkpt>
      <trkpt lat="43.15949" lon="-1.24486">
        <ele>190</ele>
        <time>2021-03-17T14:05:04.000Z</time>
      </trkpt>
      <trkpt lat="43.15954" lon="-1.24477">
        <ele>196</ele>
        <time>2021-03-17T14:05:05.000Z</time>
      </trkpt>
      <trkpt lat="43.15987" lon="-1.24426">
        <ele>196</ele>
        <time>2021-03-17T14:05:06.000Z</time>
      </trkpt>
      <trkpt lat="43.15998" lon="-1.24406">
        <ele>196</ele>
        <time>2021-03-17T14:05:07.000Z</time>
      </trkpt>
      <trkpt lat="43.16001" lon="-1.24399">
        <ele>196</ele>
        <time>2021-03-17T14:05:08.000Z</time>
      </trkpt>
      <trkpt lat="43.16004" lon="-1.2438">
        <ele>199</ele>
        <time>2021-03-17T14:05:09.000Z</time>
      </trkpt>
      <trkpt lat="43.16013" lon="-1.24338">
        <ele>194</ele>
        <time>2021-03-17T14:05:10.000Z</time>
      </trkpt>
      <trkpt lat="43.16014" lon="-1.24326">
        <ele>194</ele>
        <time>2021-03-17T14:05:11.000Z</time>
      </trkpt>
      <trkpt lat="43.16015" lon="-1.24297">
        <ele>204</ele>
        <time>2021-03-17T14:05:12.000Z</time>
      </trkpt>
      <trkpt lat="43.16024" lon="-1.24256">
        <ele>204</ele>
        <time>2021-03-17T14:05:13.000Z</time>
      </trkpt>
      <trkpt lat="43.16029" lon="-1.2424">
        <ele>204</ele>
        <time>2021-03-17T14:05:14.000Z</time>
      </trkpt>
      <trkpt lat="43.16036" lon="-1.24221">
        <ele>205</ele>
        <time>2021-03-17T14:05:15.000Z</time>
      </trkpt>
      <trkpt lat="43.16042" lon="-1.24208">
        <ele>205</ele>
        <time>2021-03-17T14:05:16.000Z</time>
      </trkpt>
      <trkpt lat="43.16047" lon="-1.24187">
        <ele>205</ele>
        <time>2021-03-17T14:05:17.000Z</time>
      </trkpt>
      <trkpt lat="43.1605" lon="-1.24171">
        <ele>205</ele>
        <time>2021-03-17T14:05:18.000Z</time>
      </trkpt>
      <trkpt lat="43.16051" lon="-1.24159">
        <ele>205</ele>
        <time>2021-03-17T14:05:19.000Z</time>
      </trkpt>
      <trkpt lat="43.16051" lon="-1.24148">
        <ele>205</ele>
        <time>2021-03-17T14:05:20.000Z</time>
      </trkpt>
      <trkpt lat="43.16048" lon="-1.24135">
        <ele>206</ele>
        <time>2021-03-17T14:05:21.000Z</time>
      </trkpt>
      <trkpt lat="43.1604" lon="-1.24106">
        <ele>206</ele>
        <time>2021-03-17T14:05:22.000Z</time>
      </trkpt>
      <trkpt lat="43.16035" lon="-1.24093">
        <ele>206</ele>
        <time>2021-03-17T14:05:23.000Z</time>
      </trkpt>
      <trkpt lat="43.16029" lon="-1.24079">
        <ele>206</ele>
        <time>2021-03-17T14:05:24.000Z</time>
      </trkpt>
      <trkpt lat="43.16022" lon="-1.24063">
        <ele>206</ele>
        <time>2021-03-17T14:05:25.000Z</time>
      </trkpt>
      <trkpt lat="43.15992" lon="-1.2401">
        <ele>214</ele>
        <time>2021-03-17T14:05:26.000Z</time>
      </trkpt>
      <trkpt lat="43.15986" lon="-1.23997">
        <ele>214</ele>
        <time>2021-03-17T14:05:27.000Z</time>
      </trkpt>
      <trkpt lat="43.15986" lon="-1.23997">
        <ele>214</ele>
        <time>2021-03-17T14:05:28.000Z</time>
      </trkpt>
      <trkpt lat="43.1598" lon="-1.23984">
        <ele>214</ele>
        <time>2021-03-17T14:05:29.000Z</time>
      </trkpt>
      <trkpt lat="43.15974" lon="-1.23963">
        <ele>203</ele>
        <time>2021-03-17T14:05:30.000Z</time>
      </trkpt>
      <trkpt lat="43.15972" lon="-1.23958">
        <ele>203</ele>
        <time>2021-03-17T14:05:31.000Z</time>
      </trkpt>
      <trkpt lat="43.15969" lon="-1.23945">
        <ele>203</ele>
        <time>2021-03-17T14:05:32.000Z</time>
      </trkpt>
      <trkpt lat="43.15963" lon="-1.23905">
        <ele>203</ele>
        <time>2021-03-17T14:05:33.000Z</time>
      </trkpt>
      <trkpt lat="43.1596" lon="-1.23892">
        <ele>189</ele>
        <time>2021-03-17T14:05:34.000Z</time>
      </trkpt>
      <trkpt lat="43.15959" lon="-1.23886">
        <ele>189</ele>
        <time>2021-03-17T14:05:35.000Z</time>
      </trkpt>
      <trkpt lat="43.15965" lon="-1.23882">
        <ele>189</ele>
        <time>2021-03-17T14:05:36.000Z</time>
      </trkpt>
      <trkpt lat="43.16027" lon="-1.2384">
        <ele>182</ele>
        <time>2021-03-17T14:05:37.000Z</time>
      </trkpt>
      <trkpt lat="43.16031" lon="-1.23839">
        <ele>182</ele>
        <time>2021-03-17T14:05:38.000Z</time>
      </trkpt>
      <trkpt lat="43.16038" lon="-1.2384">
        <ele>182</ele>
        <time>2021-03-17T14:05:39.000Z</time>
      </trkpt>
      <trkpt lat="43.1605" lon="-1.2383">
        <ele>182</ele>
        <time>2021-03-17T14:05:40.000Z</time>
      </trkpt>
      <trkpt lat="43.16054" lon="-1.23827">
        <ele>182</ele>
        <time>2021-03-17T14:05:41.000Z</time>
      </trkpt>
      <trkpt lat="43.16111" lon="-1.23794">
        <ele>176</ele>
        <time>2021-03-17T14:05:42.000Z</time>
      </trkpt>
      <trkpt lat="43.16145" lon="-1.23774">
        <ele>176</ele>
        <time>2021-03-17T14:05:43.000Z</time>
      </trkpt>
      <trkpt lat="43.16202" lon="-1.2374">
        <ele>171</ele>
        <time>2021-03-17T14:05:44.000Z</time>
      </trkpt>
      <trkpt lat="43.16217" lon="-1.23732">
        <ele>171</ele>
        <time>2021-03-17T14:05:45.000Z</time>
      </trkpt>
      <trkpt lat="43.16233" lon="-1.23724">
        <ele>171</ele>
        <time>2021-03-17T14:05:46.000Z</time>
      </trkpt>
      <trkpt lat="43.16234" lon="-1.23723">
        <ele>171</ele>
        <time>2021-03-17T14:05:47.000Z</time>
      </trkpt>
      <trkpt lat="43.16239" lon="-1.23721">
        <ele>171</ele>
        <time>2021-03-17T14:05:48.000Z</time>
      </trkpt>
      <trkpt lat="43.16244" lon="-1.2372">
        <ele>171</ele>
        <time>2021-03-17T14:05:49.000Z</time>
      </trkpt>
      <trkpt lat="43.16259" lon="-1.23712">
        <ele>171</ele>
        <time>2021-03-17T14:05:50.000Z</time>
      </trkpt>
      <trkpt lat="43.16269" lon="-1.23706">
        <ele>169</ele>
        <time>2021-03-17T14:05:51.000Z</time>
      </trkpt>
      <trkpt lat="43.16278" lon="-1.23699">
        <ele>169</ele>
        <time>2021-03-17T14:05:52.000Z</time>
      </trkpt>
      <trkpt lat="43.16281" lon="-1.23697">
        <ele>169</ele>
        <time>2021-03-17T14:05:53.000Z</time>
      </trkpt>
      <trkpt lat="43.16309" lon="-1.23644">
        <ele>176</ele>
        <time>2021-03-17T14:05:54.000Z</time>
      </trkpt>
      <trkpt lat="43.16315" lon="-1.23631">
        <ele>176</ele>
        <time>2021-03-17T14:05:55.000Z</time>
      </trkpt>
      <trkpt lat="43.1635" lon="-1.23561">
        <ele>191</ele>
        <time>2021-03-17T14:05:56.000Z</time>
      </trkpt>
      <trkpt lat="43.16354" lon="-1.2355">
        <ele>191</ele>
        <time>2021-03-17T14:05:57.000Z</time>
      </trkpt>
      <trkpt lat="43.16359" lon="-1.23532">
        <ele>191</ele>
        <time>2021-03-17T14:05:58.000Z</time>
      </trkpt>
      <trkpt lat="43.16364" lon="-1.23514">
        <ele>191</ele>
        <time>2021-03-17T14:05:59.000Z</time>
      </trkpt>
      <trkpt lat="43.16368" lon="-1.23486">
        <ele>191</ele>
        <time>2021-03-17T14:06:00.000Z</time>
      </trkpt>
      <trkpt lat="43.16368" lon="-1.23447">
        <ele>202</ele>
        <time>2021-03-17T14:06:01.000Z</time>
      </trkpt>
      <trkpt lat="43.16367" lon="-1.23441">
        <ele>202</ele>
        <time>2021-03-17T14:06:02.000Z</time>
      </trkpt>
      <trkpt lat="43.16367" lon="-1.2344">
        <ele>202</ele>
        <time>2021-03-17T14:06:03.000Z</time>
      </trkpt>
      <trkpt lat="43.16367" lon="-1.23436">
        <ele>202</ele>
        <time>2021-03-17T14:06:04.000Z</time>
      </trkpt>
      <trkpt lat="43.16366" lon="-1.23432">
        <ele>202</ele>
        <time>2021-03-17T14:06:05.000Z</time>
      </trkpt>
      <trkpt lat="43.16348" lon="-1.23378">
        <ele>208</ele>
        <time>2021-03-17T14:06:06.000Z</time>
      </trkpt>
      <trkpt lat="43.1631" lon="-1.233">
        <ele>230</ele>
        <time>2021-03-17T14:06:07.000Z</time>
      </trkpt>
      <trkpt lat="43.16305" lon="-1.23291">
        <ele>230</ele>
        <time>2021-03-17T14:06:08.000Z</time>
      </trkpt>
      <trkpt lat="43.16273" lon="-1.23226">
        <ele>220</ele>
        <time>2021-03-17T14:06:09.000Z</time>
      </trkpt>
      <trkpt lat="43.16268" lon="-1.23215">
        <ele>220</ele>
        <time>2021-03-17T14:06:10.000Z</time>
      </trkpt>
      <trkpt lat="43.16253" lon="-1.23175">
        <ele>229</ele>
        <time>2021-03-17T14:06:11.000Z</time>
      </trkpt>
      <trkpt lat="43.16242" lon="-1.23146">
        <ele>229</ele>
        <time>2021-03-17T14:06:12.000Z</time>
      </trkpt>
      <trkpt lat="43.16235" lon="-1.2312">
        <ele>221</ele>
        <time>2021-03-17T14:06:13.000Z</time>
      </trkpt>
      <trkpt lat="43.16234" lon="-1.23105">
        <ele>221</ele>
        <time>2021-03-17T14:06:14.000Z</time>
      </trkpt>
      <trkpt lat="43.16234" lon="-1.2309">
        <ele>221</ele>
        <time>2021-03-17T14:06:15.000Z</time>
      </trkpt>
      <trkpt lat="43.16236" lon="-1.23081">
        <ele>221</ele>
        <time>2021-03-17T14:06:16.000Z</time>
      </trkpt>
      <trkpt lat="43.16263" lon="-1.23136">
        <ele>205</ele>
        <time>2021-03-17T14:06:17.000Z</time>
      </trkpt>
      <trkpt lat="43.16271" lon="-1.23147">
        <ele>220</ele>
        <time>2021-03-17T14:06:18.000Z</time>
      </trkpt>
      <trkpt lat="43.16278" lon="-1.23155">
        <ele>220</ele>
        <time>2021-03-17T14:06:19.000Z</time>
      </trkpt>
      <trkpt lat="43.16287" lon="-1.23165">
        <ele>220</ele>
        <time>2021-03-17T14:06:20.000Z</time>
      </trkpt>
      <trkpt lat="43.16299" lon="-1.2318">
        <ele>220</ele>
        <time>2021-03-17T14:06:21.000Z</time>
      </trkpt>
      <trkpt lat="43.16334" lon="-1.23225">
        <ele>220</ele>
        <time>2021-03-17T14:06:22.000Z</time>
      </trkpt>
      <trkpt lat="43.16343" lon="-1.2324">
        <ele>230</ele>
        <time>2021-03-17T14:06:23.000Z</time>
      </trkpt>
      <trkpt lat="43.16358" lon="-1.23278">
        <ele>199</ele>
        <time>2021-03-17T14:06:24.000Z</time>
      </trkpt>
      <trkpt lat="43.16381" lon="-1.23336">
        <ele>208</ele>
        <time>2021-03-17T14:06:25.000Z</time>
      </trkpt>
      <trkpt lat="43.16392" lon="-1.23386">
        <ele>208</ele>
        <time>2021-03-17T14:06:26.000Z</time>
      </trkpt>
      <trkpt lat="43.16395" lon="-1.23404">
        <ele>202</ele>
        <time>2021-03-17T14:06:27.000Z</time>
      </trkpt>
      <trkpt lat="43.16399" lon="-1.23422">
        <ele>202</ele>
        <time>2021-03-17T14:06:28.000Z</time>
      </trkpt>
      <trkpt lat="43.16402" lon="-1.23436">
        <ele>202</ele>
        <time>2021-03-17T14:06:29.000Z</time>
      </trkpt>
      <trkpt lat="43.16409" lon="-1.23479">
        <ele>191</ele>
        <time>2021-03-17T14:06:30.000Z</time>
      </trkpt>
      <trkpt lat="43.16412" lon="-1.23504">
        <ele>191</ele>
        <time>2021-03-17T14:06:31.000Z</time>
      </trkpt>
      <trkpt lat="43.1641" lon="-1.23552">
        <ele>191</ele>
        <time>2021-03-17T14:06:32.000Z</time>
      </trkpt>
      <trkpt lat="43.16408" lon="-1.23573">
        <ele>181</ele>
        <time>2021-03-17T14:06:33.000Z</time>
      </trkpt>
      <trkpt lat="43.16404" lon="-1.23595">
        <ele>181</ele>
        <time>2021-03-17T14:06:34.000Z</time>
      </trkpt>
      <trkpt lat="43.16404" lon="-1.23606">
        <ele>181</ele>
        <time>2021-03-17T14:06:35.000Z</time>
      </trkpt>
      <trkpt lat="43.16406" lon="-1.2362">
        <ele>181</ele>
        <time>2021-03-17T14:06:36.000Z</time>
      </trkpt>
      <trkpt lat="43.16393" lon="-1.23654">
        <ele>170</ele>
        <time>2021-03-17T14:06:37.000Z</time>
      </trkpt>
      <trkpt lat="43.16391" lon="-1.23658">
        <ele>170</ele>
        <time>2021-03-17T14:06:38.000Z</time>
      </trkpt>
      <trkpt lat="43.16384" lon="-1.23671">
        <ele>170</ele>
        <time>2021-03-17T14:06:39.000Z</time>
      </trkpt>
      <trkpt lat="43.16371" lon="-1.23693">
        <ele>170</ele>
        <time>2021-03-17T14:06:40.000Z</time>
      </trkpt>
      <trkpt lat="43.16363" lon="-1.23704">
        <ele>170</ele>
        <time>2021-03-17T14:06:41.000Z</time>
      </trkpt>
      <trkpt lat="43.16341" lon="-1.23735">
        <ele>164</ele>
        <time>2021-03-17T14:06:42.000Z</time>
      </trkpt>
      <trkpt lat="43.16333" lon="-1.23746">
        <ele>164</ele>
        <time>2021-03-17T14:06:43.000Z</time>
      </trkpt>
      <trkpt lat="43.16326" lon="-1.23756">
        <ele>164</ele>
        <time>2021-03-17T14:06:44.000Z</time>
      </trkpt>
      <trkpt lat="43.16323" lon="-1.2376">
        <ele>164</ele>
        <time>2021-03-17T14:06:45.000Z</time>
      </trkpt>
      <trkpt lat="43.1632" lon="-1.23764">
        <ele>164</ele>
        <time>2021-03-17T14:06:46.000Z</time>
      </trkpt>
      <trkpt lat="43.16296" lon="-1.23792">
        <ele>164</ele>
        <time>2021-03-17T14:06:47.000Z</time>
      </trkpt>
      <trkpt lat="43.1629" lon="-1.238">
        <ele>164</ele>
        <time>2021-03-17T14:06:48.000Z</time>
      </trkpt>
      <trkpt lat="43.16285" lon="-1.23806">
        <ele>164</ele>
        <time>2021-03-17T14:06:49.000Z</time>
      </trkpt>
      <trkpt lat="43.16268" lon="-1.23819">
        <ele>164</ele>
        <time>2021-03-17T14:06:50.000Z</time>
      </trkpt>
      <trkpt lat="43.16233" lon="-1.23848">
        <ele>170</ele>
        <time>2021-03-17T14:06:51.000Z</time>
      </trkpt>
      <trkpt lat="43.16213" lon="-1.23864">
        <ele>170</ele>
        <time>2021-03-17T14:06:52.000Z</time>
      </trkpt>
      <trkpt lat="43.16203" lon="-1.23873">
        <ele>170</ele>
        <time>2021-03-17T14:06:53.000Z</time>
      </trkpt>
      <trkpt lat="43.16196" lon="-1.23883">
        <ele>170</ele>
        <time>2021-03-17T14:06:54.000Z</time>
      </trkpt>
      <trkpt lat="43.16196" lon="-1.2389">
        <ele>170</ele>
        <time>2021-03-17T14:06:55.000Z</time>
      </trkpt>
      <trkpt lat="43.16198" lon="-1.23896">
        <ele>172</ele>
        <time>2021-03-17T14:06:56.000Z</time>
      </trkpt>
      <trkpt lat="43.16202" lon="-1.239">
        <ele>172</ele>
        <time>2021-03-17T14:06:57.000Z</time>
      </trkpt>
      <trkpt lat="43.16246" lon="-1.23943">
        <ele>172</ele>
        <time>2021-03-17T14:06:58.000Z</time>
      </trkpt>
      <trkpt lat="43.16251" lon="-1.2395">
        <ele>172</ele>
        <time>2021-03-17T14:06:59.000Z</time>
      </trkpt>
      <trkpt lat="43.16253" lon="-1.23954">
        <ele>172</ele>
        <time>2021-03-17T14:07:00.000Z</time>
      </trkpt>
      <trkpt lat="43.16261" lon="-1.23964">
        <ele>167</ele>
        <time>2021-03-17T14:07:01.000Z</time>
      </trkpt>
      <trkpt lat="43.16276" lon="-1.23985">
        <ele>171</ele>
        <time>2021-03-17T14:07:02.000Z</time>
      </trkpt>
      <trkpt lat="43.16285" lon="-1.23994">
        <ele>171</ele>
        <time>2021-03-17T14:07:03.000Z</time>
      </trkpt>
      <trkpt lat="43.16294" lon="-1.24008">
        <ele>171</ele>
        <time>2021-03-17T14:07:04.000Z</time>
      </trkpt>
      <trkpt lat="43.16302" lon="-1.24021">
        <ele>171</ele>
        <time>2021-03-17T14:07:05.000Z</time>
      </trkpt>
      <trkpt lat="43.16308" lon="-1.24029">
        <ele>171</ele>
        <time>2021-03-17T14:07:06.000Z</time>
      </trkpt>
      <trkpt lat="43.16334" lon="-1.24066">
        <ele>175</ele>
        <time>2021-03-17T14:07:07.000Z</time>
      </trkpt>
      <trkpt lat="43.16364" lon="-1.24108">
        <ele>168</ele>
        <time>2021-03-17T14:07:08.000Z</time>
      </trkpt>
      <trkpt lat="43.16375" lon="-1.24125">
        <ele>168</ele>
        <time>2021-03-17T14:07:09.000Z</time>
      </trkpt>
      <trkpt lat="43.16386" lon="-1.24146">
        <ele>175</ele>
        <time>2021-03-17T14:07:10.000Z</time>
      </trkpt>
      <trkpt lat="43.16397" lon="-1.24194">
        <ele>175</ele>
        <time>2021-03-17T14:07:11.000Z</time>
      </trkpt>
      <trkpt lat="43.16402" lon="-1.24217">
        <ele>175</ele>
        <time>2021-03-17T14:07:12.000Z</time>
      </trkpt>
      <trkpt lat="43.16407" lon="-1.24232">
        <ele>179</ele>
        <time>2021-03-17T14:07:13.000Z</time>
      </trkpt>
      <trkpt lat="43.16413" lon="-1.24247">
        <ele>179</ele>
        <time>2021-03-17T14:07:14.000Z</time>
      </trkpt>
      <trkpt lat="43.16422" lon="-1.24262">
        <ele>179</ele>
        <time>2021-03-17T14:07:15.000Z</time>
      </trkpt>
      <trkpt lat="43.1643" lon="-1.24273">
        <ele>170</ele>
        <time>2021-03-17T14:07:16.000Z</time>
      </trkpt>
      <trkpt lat="43.16442" lon="-1.24289">
        <ele>170</ele>
        <time>2021-03-17T14:07:17.000Z</time>
      </trkpt>
      <trkpt lat="43.16453" lon="-1.24304">
        <ele>170</ele>
        <time>2021-03-17T14:07:18.000Z</time>
      </trkpt>
      <trkpt lat="43.16464" lon="-1.2432">
        <ele>174</ele>
        <time>2021-03-17T14:07:19.000Z</time>
      </trkpt>
      <trkpt lat="43.16466" lon="-1.24323">
        <ele>174</ele>
        <time>2021-03-17T14:07:20.000Z</time>
      </trkpt>
      <trkpt lat="43.16471" lon="-1.24329">
        <ele>174</ele>
        <time>2021-03-17T14:07:21.000Z</time>
      </trkpt>
      <trkpt lat="43.165" lon="-1.2437">
        <ele>174</ele>
        <time>2021-03-17T14:07:22.000Z</time>
      </trkpt>
      <trkpt lat="43.16523" lon="-1.24403">
        <ele>163</ele>
        <time>2021-03-17T14:07:23.000Z</time>
      </trkpt>
      <trkpt lat="43.1658" lon="-1.24481">
        <ele>159</ele>
        <time>2021-03-17T14:07:24.000Z</time>
      </trkpt>
      <trkpt lat="43.16566" lon="-1.24496">
        <ele>159</ele>
        <time>2021-03-17T14:07:25.000Z</time>
      </trkpt>
      <trkpt lat="43.16572" lon="-1.24507">
        <ele>159</ele>
        <time>2021-03-17T14:07:26.000Z</time>
      </trkpt>
      <trkpt lat="43.16589" lon="-1.24541">
        <ele>159</ele>
        <time>2021-03-17T14:07:27.000Z</time>
      </trkpt>
      <trkpt lat="43.16598" lon="-1.2457">
        <ele>157</ele>
        <time>2021-03-17T14:07:28.000Z</time>
      </trkpt>
      <trkpt lat="43.1661" lon="-1.24635">
        <ele>157</ele>
        <time>2021-03-17T14:07:29.000Z</time>
      </trkpt>
      <trkpt lat="43.16616" lon="-1.24666">
        <ele>158</ele>
        <time>2021-03-17T14:07:30.000Z</time>
      </trkpt>
      <trkpt lat="43.16621" lon="-1.24683">
        <ele>158</ele>
        <time>2021-03-17T14:07:31.000Z</time>
      </trkpt>
      <trkpt lat="43.16634" lon="-1.24707">
        <ele>158</ele>
        <time>2021-03-17T14:07:32.000Z</time>
      </trkpt>
      <trkpt lat="43.16661" lon="-1.24747">
        <ele>158</ele>
        <time>2021-03-17T14:07:33.000Z</time>
      </trkpt>
      <trkpt lat="43.16651" lon="-1.24774">
        <ele>158</ele>
        <time>2021-03-17T14:07:34.000Z</time>
      </trkpt>
      <trkpt lat="43.16648" lon="-1.24781">
        <ele>158</ele>
        <time>2021-03-17T14:07:35.000Z</time>
      </trkpt>
      <trkpt lat="43.16644" lon="-1.24792">
        <ele>158</ele>
        <time>2021-03-17T14:07:36.000Z</time>
      </trkpt>
      <trkpt lat="43.16634" lon="-1.24817">
        <ele>158</ele>
        <time>2021-03-17T14:07:37.000Z</time>
      </trkpt>
      <trkpt lat="43.16579" lon="-1.24952">
        <ele>163</ele>
        <time>2021-03-17T14:07:38.000Z</time>
      </trkpt>
      <trkpt lat="43.16575" lon="-1.24962">
        <ele>163</ele>
        <time>2021-03-17T14:07:39.000Z</time>
      </trkpt>
      <trkpt lat="43.16554" lon="-1.24987">
        <ele>165</ele>
        <time>2021-03-17T14:07:40.000Z</time>
      </trkpt>
      <trkpt lat="43.16537" lon="-1.24994">
        <ele>165</ele>
        <time>2021-03-17T14:07:41.000Z</time>
      </trkpt>
      <trkpt lat="43.16513" lon="-1.25001">
        <ele>165</ele>
        <time>2021-03-17T14:07:42.000Z</time>
      </trkpt>
      <trkpt lat="43.16494" lon="-1.25015">
        <ele>165</ele>
        <time>2021-03-17T14:07:43.000Z</time>
      </trkpt>
      <trkpt lat="43.16487" lon="-1.25028">
        <ele>165</ele>
        <time>2021-03-17T14:07:44.000Z</time>
      </trkpt>
      <trkpt lat="43.16484" lon="-1.25042">
        <ele>165</ele>
        <time>2021-03-17T14:07:45.000Z</time>
      </trkpt>
      <trkpt lat="43.16488" lon="-1.25068">
        <ele>174</ele>
        <time>2021-03-17T14:07:46.000Z</time>
      </trkpt>
      <trkpt lat="43.16502" lon="-1.2509">
        <ele>174</ele>
        <time>2021-03-17T14:07:47.000Z</time>
      </trkpt>
      <trkpt lat="43.16559" lon="-1.2511">
        <ele>174</ele>
        <time>2021-03-17T14:07:48.000Z</time>
      </trkpt>
      <trkpt lat="43.16582" lon="-1.25119">
        <ele>174</ele>
        <time>2021-03-17T14:07:49.000Z</time>
      </trkpt>
      <trkpt lat="43.16594" lon="-1.25124">
        <ele>174</ele>
        <time>2021-03-17T14:07:50.000Z</time>
      </trkpt>
      <trkpt lat="43.16626" lon="-1.25138">
        <ele>178</ele>
        <time>2021-03-17T14:07:51.000Z</time>
      </trkpt>
      <trkpt lat="43.16666" lon="-1.25161">
        <ele>193</ele>
        <time>2021-03-17T14:07:52.000Z</time>
      </trkpt>
      <trkpt lat="43.16705" lon="-1.25181">
        <ele>196</ele>
        <time>2021-03-17T14:07:53.000Z</time>
      </trkpt>
      <trkpt lat="43.16723" lon="-1.25191">
        <ele>196</ele>
        <time>2021-03-17T14:07:54.000Z</time>
      </trkpt>
      <trkpt lat="43.16745" lon="-1.25207">
        <ele>196</ele>
        <time>2021-03-17T14:07:55.000Z</time>
      </trkpt>
      <trkpt lat="43.16763" lon="-1.25229">
        <ele>191</ele>
        <time>2021-03-17T14:07:56.000Z</time>
      </trkpt>
      <trkpt lat="43.16766" lon="-1.25235">
        <ele>191</ele>
        <time>2021-03-17T14:07:57.000Z</time>
      </trkpt>
      <trkpt lat="43.16778" lon="-1.25258">
        <ele>191</ele>
        <time>2021-03-17T14:07:58.000Z</time>
      </trkpt>
      <trkpt lat="43.16781" lon="-1.25275">
        <ele>191</ele>
        <time>2021-03-17T14:07:59.000Z</time>
      </trkpt>
      <trkpt lat="43.16783" lon="-1.25283">
        <ele>191</ele>
        <time>2021-03-17T14:08:00.000Z</time>
      </trkpt>
      <trkpt lat="43.16804" lon="-1.25383">
        <ele>185</ele>
        <time>2021-03-17T14:08:01.000Z</time>
      </trkpt>
      <trkpt lat="43.16808" lon="-1.25417">
        <ele>178</ele>
        <time>2021-03-17T14:08:02.000Z</time>
      </trkpt>
      <trkpt lat="43.16811" lon="-1.25458">
        <ele>178</ele>
        <time>2021-03-17T14:08:03.000Z</time>
      </trkpt>
      <trkpt lat="43.16812" lon="-1.25645">
        <ele>174</ele>
        <time>2021-03-17T14:08:04.000Z</time>
      </trkpt>
      <trkpt lat="43.16809" lon="-1.25835">
        <ele>181</ele>
        <time>2021-03-17T14:08:05.000Z</time>
      </trkpt>
      <trkpt lat="43.168" lon="-1.2596">
        <ele>185</ele>
        <time>2021-03-17T14:08:06.000Z</time>
      </trkpt>
      <trkpt lat="43.16799" lon="-1.25987">
        <ele>190</ele>
        <time>2021-03-17T14:08:07.000Z</time>
      </trkpt>
      <trkpt lat="43.16806" lon="-1.26034">
        <ele>190</ele>
        <time>2021-03-17T14:08:08.000Z</time>
      </trkpt>
      <trkpt lat="43.16838" lon="-1.26182">
        <ele>194</ele>
        <time>2021-03-17T14:08:09.000Z</time>
      </trkpt>
      <trkpt lat="43.16834" lon="-1.26185">
        <ele>194</ele>
        <time>2021-03-17T14:08:10.000Z</time>
      </trkpt>
      <trkpt lat="43.16791" lon="-1.26219">
        <ele>194</ele>
        <time>2021-03-17T14:08:11.000Z</time>
      </trkpt>
      <trkpt lat="43.16758" lon="-1.26237">
        <ele>202</ele>
        <time>2021-03-17T14:08:12.000Z</time>
      </trkpt>
      <trkpt lat="43.1656" lon="-1.26352">
        <ele>211</ele>
        <time>2021-03-17T14:08:13.000Z</time>
      </trkpt>
      <trkpt lat="43.16538" lon="-1.26365">
        <ele>211</ele>
        <time>2021-03-17T14:08:14.000Z</time>
      </trkpt>
      <trkpt lat="43.16461" lon="-1.26529">
        <ele>214</ele>
        <time>2021-03-17T14:08:15.000Z</time>
      </trkpt>
      <trkpt lat="43.16449" lon="-1.26585">
        <ele>215</ele>
        <time>2021-03-17T14:08:16.000Z</time>
      </trkpt>
      <trkpt lat="43.16428" lon="-1.2663">
        <ele>215</ele>
        <time>2021-03-17T14:08:17.000Z</time>
      </trkpt>
      <trkpt lat="43.16386" lon="-1.26741">
        <ele>219</ele>
        <time>2021-03-17T14:08:18.000Z</time>
      </trkpt>
      <trkpt lat="43.16373" lon="-1.26766">
        <ele>219</ele>
        <time>2021-03-17T14:08:19.000Z</time>
      </trkpt>
      <trkpt lat="43.16351" lon="-1.268">
        <ele>219</ele>
        <time>2021-03-17T14:08:20.000Z</time>
      </trkpt>
      <trkpt lat="43.16357" lon="-1.26904">
        <ele>229</ele>
        <time>2021-03-17T14:08:21.000Z</time>
      </trkpt>
      <trkpt lat="43.16365" lon="-1.26949">
        <ele>229</ele>
        <time>2021-03-17T14:08:22.000Z</time>
      </trkpt>
      <trkpt lat="43.16382" lon="-1.26998">
        <ele>232</ele>
        <time>2021-03-17T14:08:23.000Z</time>
      </trkpt>
      <trkpt lat="43.16385" lon="-1.27009">
        <ele>232</ele>
        <time>2021-03-17T14:08:24.000Z</time>
      </trkpt>
      <trkpt lat="43.16405" lon="-1.27058">
        <ele>232</ele>
        <time>2021-03-17T14:08:25.000Z</time>
      </trkpt>
      <trkpt lat="43.16423" lon="-1.2709">
        <ele>241</ele>
        <time>2021-03-17T14:08:26.000Z</time>
      </trkpt>
      <trkpt lat="43.16421" lon="-1.2709">
        <ele>241</ele>
        <time>2021-03-17T14:08:27.000Z</time>
      </trkpt>
      <trkpt lat="43.16418" lon="-1.27091">
        <ele>241</ele>
        <time>2021-03-17T14:08:28.000Z</time>
      </trkpt>
      <trkpt lat="43.16357" lon="-1.27134">
        <ele>241</ele>
        <time>2021-03-17T14:08:29.000Z</time>
      </trkpt>
      <trkpt lat="43.16353" lon="-1.27137">
        <ele>241</ele>
        <time>2021-03-17T14:08:30.000Z</time>
      </trkpt>
      <trkpt lat="43.1635" lon="-1.27141">
        <ele>241</ele>
        <time>2021-03-17T14:08:31.000Z</time>
      </trkpt>
      <trkpt lat="43.16343" lon="-1.27162">
        <ele>254</ele>
        <time>2021-03-17T14:08:32.000Z</time>
      </trkpt>
      <trkpt lat="43.16333" lon="-1.27191">
        <ele>254</ele>
        <time>2021-03-17T14:08:33.000Z</time>
      </trkpt>
      <trkpt lat="43.1633" lon="-1.27201">
        <ele>254</ele>
        <time>2021-03-17T14:08:34.000Z</time>
      </trkpt>
      <trkpt lat="43.16325" lon="-1.27211">
        <ele>254</ele>
        <time>2021-03-17T14:08:35.000Z</time>
      </trkpt>
      <trkpt lat="43.16311" lon="-1.27235">
        <ele>264</ele>
        <time>2021-03-17T14:08:36.000Z</time>
      </trkpt>
      <trkpt lat="43.16259" lon="-1.27338">
        <ele>278</ele>
        <time>2021-03-17T14:08:37.000Z</time>
      </trkpt>
      <trkpt lat="43.16233" lon="-1.2738">
        <ele>278</ele>
        <time>2021-03-17T14:08:38.000Z</time>
      </trkpt>
      <trkpt lat="43.16177" lon="-1.27444">
        <ele>290</ele>
        <time>2021-03-17T14:08:39.000Z</time>
      </trkpt>
      <trkpt lat="43.16169" lon="-1.27449">
        <ele>290</ele>
        <time>2021-03-17T14:08:40.000Z</time>
      </trkpt>
      <trkpt lat="43.16139" lon="-1.27465">
        <ele>290</ele>
        <time>2021-03-17T14:08:41.000Z</time>
      </trkpt>
      <trkpt lat="43.16139" lon="-1.27465">
        <ele>290</ele>
        <time>2021-03-17T14:08:42.000Z</time>
      </trkpt>
      <trkpt lat="43.16134" lon="-1.27467">
        <ele>290</ele>
        <time>2021-03-17T14:08:43.000Z</time>
      </trkpt>
      <trkpt lat="43.16121" lon="-1.27479">
        <ele>290</ele>
        <time>2021-03-17T14:08:44.000Z</time>
      </trkpt>
      <trkpt lat="43.16096" lon="-1.27508">
        <ele>282</ele>
        <time>2021-03-17T14:08:45.000Z</time>
      </trkpt>
      <trkpt lat="43.16066" lon="-1.27528">
        <ele>298</ele>
        <time>2021-03-17T14:08:46.000Z</time>
      </trkpt>
      <trkpt lat="43.16051" lon="-1.27541">
        <ele>298</ele>
        <time>2021-03-17T14:08:47.000Z</time>
      </trkpt>
      <trkpt lat="43.16038" lon="-1.27555">
        <ele>298</ele>
        <time>2021-03-17T14:08:48.000Z</time>
      </trkpt>
      <trkpt lat="43.16014" lon="-1.27576">
        <ele>284</ele>
        <time>2021-03-17T14:08:49.000Z</time>
      </trkpt>
      <trkpt lat="43.16012" lon="-1.27575">
        <ele>284</ele>
        <time>2021-03-17T14:08:50.000Z</time>
      </trkpt>
      <trkpt lat="43.15991" lon="-1.27594">
        <ele>299</ele>
        <time>2021-03-17T14:08:51.000Z</time>
      </trkpt>
      <trkpt lat="43.15972" lon="-1.27607">
        <ele>299</ele>
        <time>2021-03-17T14:08:52.000Z</time>
      </trkpt>
      <trkpt lat="43.15955" lon="-1.27621">
        <ele>299</ele>
        <time>2021-03-17T14:08:53.000Z</time>
      </trkpt>
      <trkpt lat="43.1594" lon="-1.27637">
        <ele>299</ele>
        <time>2021-03-17T14:08:54.000Z</time>
      </trkpt>
      <trkpt lat="43.1592" lon="-1.27653">
        <ele>296</ele>
        <time>2021-03-17T14:08:55.000Z</time>
      </trkpt>
      <trkpt lat="43.15892" lon="-1.27675">
        <ele>296</ele>
        <time>2021-03-17T14:08:56.000Z</time>
      </trkpt>
      <trkpt lat="43.15858" lon="-1.27698">
        <ele>296</ele>
        <time>2021-03-17T14:08:57.000Z</time>
      </trkpt>
      <trkpt lat="43.15847" lon="-1.27705">
        <ele>296</ele>
        <time>2021-03-17T14:08:58.000Z</time>
      </trkpt>
      <trkpt lat="43.15826" lon="-1.27729">
        <ele>321</ele>
        <time>2021-03-17T14:08:59.000Z</time>
      </trkpt>
      <trkpt lat="43.1581" lon="-1.27755">
        <ele>312</ele>
        <time>2021-03-17T14:09:00.000Z</time>
      </trkpt>
      <trkpt lat="43.15798" lon="-1.27779">
        <ele>312</ele>
        <time>2021-03-17T14:09:01.000Z</time>
      </trkpt>
      <trkpt lat="43.15786" lon="-1.27801">
        <ele>312</ele>
        <time>2021-03-17T14:09:02.000Z</time>
      </trkpt>
      <trkpt lat="43.15774" lon="-1.27817">
        <ele>305</ele>
        <time>2021-03-17T14:09:03.000Z</time>
      </trkpt>
      <trkpt lat="43.1576" lon="-1.27843">
        <ele>323</ele>
        <time>2021-03-17T14:09:04.000Z</time>
      </trkpt>
      <trkpt lat="43.15748" lon="-1.27871">
        <ele>323</ele>
        <time>2021-03-17T14:09:05.000Z</time>
      </trkpt>
      <trkpt lat="43.15737" lon="-1.27893">
        <ele>323</ele>
        <time>2021-03-17T14:09:06.000Z</time>
      </trkpt>
      <trkpt lat="43.15722" lon="-1.2791">
        <ele>312</ele>
        <time>2021-03-17T14:09:07.000Z</time>
      </trkpt>
      <trkpt lat="43.15707" lon="-1.27926">
        <ele>312</ele>
        <time>2021-03-17T14:09:08.000Z</time>
      </trkpt>
      <trkpt lat="43.15694" lon="-1.27953">
        <ele>312</ele>
        <time>2021-03-17T14:09:09.000Z</time>
      </trkpt>
      <trkpt lat="43.15668" lon="-1.28006">
        <ele>313</ele>
        <time>2021-03-17T14:09:10.000Z</time>
      </trkpt>
      <trkpt lat="43.15658" lon="-1.28042">
        <ele>313</ele>
        <time>2021-03-17T14:09:11.000Z</time>
      </trkpt>
      <trkpt lat="43.15649" lon="-1.28077">
        <ele>317</ele>
        <time>2021-03-17T14:09:12.000Z</time>
      </trkpt>
      <trkpt lat="43.15638" lon="-1.28116">
        <ele>317</ele>
        <time>2021-03-17T14:09:13.000Z</time>
      </trkpt>
      <trkpt lat="43.15632" lon="-1.28137">
        <ele>317</ele>
        <time>2021-03-17T14:09:14.000Z</time>
      </trkpt>
      <trkpt lat="43.15627" lon="-1.28136">
        <ele>317</ele>
        <time>2021-03-17T14:09:15.000Z</time>
      </trkpt>
      <trkpt lat="43.15571" lon="-1.28123">
        <ele>309</ele>
        <time>2021-03-17T14:09:16.000Z</time>
      </trkpt>
      <trkpt lat="43.1554" lon="-1.28114">
        <ele>309</ele>
        <time>2021-03-17T14:09:17.000Z</time>
      </trkpt>
      <trkpt lat="43.1553" lon="-1.28113">
        <ele>309</ele>
        <time>2021-03-17T14:09:18.000Z</time>
      </trkpt>
      <trkpt lat="43.15526" lon="-1.28121">
        <ele>309</ele>
        <time>2021-03-17T14:09:19.000Z</time>
      </trkpt>
      <trkpt lat="43.15516" lon="-1.28136">
        <ele>309</ele>
        <time>2021-03-17T14:09:20.000Z</time>
      </trkpt>
      <trkpt lat="43.15509" lon="-1.28161">
        <ele>303</ele>
        <time>2021-03-17T14:09:21.000Z</time>
      </trkpt>
      <trkpt lat="43.15503" lon="-1.28181">
        <ele>303</ele>
        <time>2021-03-17T14:09:22.000Z</time>
      </trkpt>
      <trkpt lat="43.15496" lon="-1.28211">
        <ele>303</ele>
        <time>2021-03-17T14:09:23.000Z</time>
      </trkpt>
      <trkpt lat="43.1549" lon="-1.28244">
        <ele>306</ele>
        <time>2021-03-17T14:09:24.000Z</time>
      </trkpt>
      <trkpt lat="43.15488" lon="-1.28252">
        <ele>306</ele>
        <time>2021-03-17T14:09:25.000Z</time>
      </trkpt>
      <trkpt lat="43.15489" lon="-1.28276">
        <ele>306</ele>
        <time>2021-03-17T14:09:26.000Z</time>
      </trkpt>
      <trkpt lat="43.15495" lon="-1.28306">
        <ele>306</ele>
        <time>2021-03-17T14:09:27.000Z</time>
      </trkpt>
      <trkpt lat="43.15509" lon="-1.28348">
        <ele>314</ele>
        <time>2021-03-17T14:09:28.000Z</time>
      </trkpt>
      <trkpt lat="43.15516" lon="-1.28368">
        <ele>322</ele>
        <time>2021-03-17T14:09:29.000Z</time>
      </trkpt>
      <trkpt lat="43.15521" lon="-1.28374">
        <ele>322</ele>
        <time>2021-03-17T14:09:30.000Z</time>
      </trkpt>
      <trkpt lat="43.15527" lon="-1.28369">
        <ele>322</ele>
        <time>2021-03-17T14:09:31.000Z</time>
      </trkpt>
      <trkpt lat="43.15533" lon="-1.28364">
        <ele>322</ele>
        <time>2021-03-17T14:09:32.000Z</time>
      </trkpt>
      <trkpt lat="43.15546" lon="-1.28364">
        <ele>322</ele>
        <time>2021-03-17T14:09:33.000Z</time>
      </trkpt>
      <trkpt lat="43.15567" lon="-1.28362">
        <ele>322</ele>
        <time>2021-03-17T14:09:34.000Z</time>
      </trkpt>
      <trkpt lat="43.15577" lon="-1.28364">
        <ele>322</ele>
        <time>2021-03-17T14:09:35.000Z</time>
      </trkpt>
      <trkpt lat="43.15586" lon="-1.28368">
        <ele>322</ele>
        <time>2021-03-17T14:09:36.000Z</time>
      </trkpt>
      <trkpt lat="43.15602" lon="-1.28392">
        <ele>324</ele>
        <time>2021-03-17T14:09:37.000Z</time>
      </trkpt>
      <trkpt lat="43.15593" lon="-1.28403">
        <ele>334</ele>
        <time>2021-03-17T14:09:38.000Z</time>
      </trkpt>
      <trkpt lat="43.15601" lon="-1.28431">
        <ele>325</ele>
        <time>2021-03-17T14:09:39.000Z</time>
      </trkpt>
      <trkpt lat="43.15604" lon="-1.2846">
        <ele>325</ele>
        <time>2021-03-17T14:09:40.000Z</time>
      </trkpt>
      <trkpt lat="43.15605" lon="-1.2848">
        <ele>325</ele>
        <time>2021-03-17T14:09:41.000Z</time>
      </trkpt>
      <trkpt lat="43.15605" lon="-1.28491">
        <ele>325</ele>
        <time>2021-03-17T14:09:42.000Z</time>
      </trkpt>
      <trkpt lat="43.1561" lon="-1.28538">
        <ele>325</ele>
        <time>2021-03-17T14:09:43.000Z</time>
      </trkpt>
      <trkpt lat="43.15614" lon="-1.2856">
        <ele>325</ele>
        <time>2021-03-17T14:09:44.000Z</time>
      </trkpt>
      <trkpt lat="43.15629" lon="-1.28619">
        <ele>327</ele>
        <time>2021-03-17T14:09:45.000Z</time>
      </trkpt>
      <trkpt lat="43.15639" lon="-1.28645">
        <ele>327</ele>
        <time>2021-03-17T14:09:46.000Z</time>
      </trkpt>
      <trkpt lat="43.15646" lon="-1.28666">
        <ele>325</ele>
        <time>2021-03-17T14:09:47.000Z</time>
      </trkpt>
      <trkpt lat="43.1565" lon="-1.28688">
        <ele>325</ele>
        <time>2021-03-17T14:09:48.000Z</time>
      </trkpt>
      <trkpt lat="43.1565" lon="-1.28703">
        <ele>325</ele>
        <time>2021-03-17T14:09:49.000Z</time>
      </trkpt>
      <trkpt lat="43.15649" lon="-1.28717">
        <ele>325</ele>
        <time>2021-03-17T14:09:50.000Z</time>
      </trkpt>
      <trkpt lat="43.15646" lon="-1.28728">
        <ele>325</ele>
        <time>2021-03-17T14:09:51.000Z</time>
      </trkpt>
      <trkpt lat="43.15635" lon="-1.28751">
        <ele>313</ele>
        <time>2021-03-17T14:09:52.000Z</time>
      </trkpt>
      <trkpt lat="43.15617" lon="-1.28779">
        <ele>313</ele>
        <time>2021-03-17T14:09:53.000Z</time>
      </trkpt>
      <trkpt lat="43.15609" lon="-1.28795">
        <ele>313</ele>
        <time>2021-03-17T14:09:54.000Z</time>
      </trkpt>
      <trkpt lat="43.15594" lon="-1.28827">
        <ele>315</ele>
        <time>2021-03-17T14:09:55.000Z</time>
      </trkpt>
      <trkpt lat="43.15582" lon="-1.28849">
        <ele>315</ele>
        <time>2021-03-17T14:09:56.000Z</time>
      </trkpt>
      <trkpt lat="43.15569" lon="-1.2887">
        <ele>315</ele>
        <time>2021-03-17T14:09:57.000Z</time>
      </trkpt>
      <trkpt lat="43.15558" lon="-1.28878">
        <ele>315</ele>
        <time>2021-03-17T14:09:58.000Z</time>
      </trkpt>
      <trkpt lat="43.15543" lon="-1.28883">
        <ele>315</ele>
        <time>2021-03-17T14:09:59.000Z</time>
      </trkpt>
      <trkpt lat="43.15541" lon="-1.28887">
        <ele>315</ele>
        <time>2021-03-17T14:10:00.000Z</time>
      </trkpt>
      <trkpt lat="43.15539" lon="-1.28892">
        <ele>315</ele>
        <time>2021-03-17T14:10:01.000Z</time>
      </trkpt>
      <trkpt lat="43.15541" lon="-1.28913">
        <ele>306</ele>
        <time>2021-03-17T14:10:02.000Z</time>
      </trkpt>
      <trkpt lat="43.15548" lon="-1.28939">
        <ele>306</ele>
        <time>2021-03-17T14:10:03.000Z</time>
      </trkpt>
      <trkpt lat="43.15553" lon="-1.2896">
        <ele>306</ele>
        <time>2021-03-17T14:10:04.000Z</time>
      </trkpt>
      <trkpt lat="43.15552" lon="-1.28973">
        <ele>306</ele>
        <time>2021-03-17T14:10:05.000Z</time>
      </trkpt>
      <trkpt lat="43.15544" lon="-1.28996">
        <ele>309</ele>
        <time>2021-03-17T14:10:06.000Z</time>
      </trkpt>
      <trkpt lat="43.15537" lon="-1.29011">
        <ele>309</ele>
        <time>2021-03-17T14:10:07.000Z</time>
      </trkpt>
      <trkpt lat="43.15535" lon="-1.29017">
        <ele>309</ele>
        <time>2021-03-17T14:10:08.000Z</time>
      </trkpt>
      <trkpt lat="43.15536" lon="-1.29023">
        <ele>309</ele>
        <time>2021-03-17T14:10:09.000Z</time>
      </trkpt>
      <trkpt lat="43.15545" lon="-1.29031">
        <ele>309</ele>
        <time>2021-03-17T14:10:10.000Z</time>
      </trkpt>
      <trkpt lat="43.15557" lon="-1.29036">
        <ele>309</ele>
        <time>2021-03-17T14:10:11.000Z</time>
      </trkpt>
      <trkpt lat="43.15569" lon="-1.29039">
        <ele>309</ele>
        <time>2021-03-17T14:10:12.000Z</time>
      </trkpt>
      <trkpt lat="43.15593" lon="-1.29038">
        <ele>309</ele>
        <time>2021-03-17T14:10:13.000Z</time>
      </trkpt>
      <trkpt lat="43.15598" lon="-1.2904">
        <ele>302</ele>
        <time>2021-03-17T14:10:14.000Z</time>
      </trkpt>
      <trkpt lat="43.15605" lon="-1.29047">
        <ele>302</ele>
        <time>2021-03-17T14:10:15.000Z</time>
      </trkpt>
      <trkpt lat="43.15614" lon="-1.29057">
        <ele>302</ele>
        <time>2021-03-17T14:10:16.000Z</time>
      </trkpt>
      <trkpt lat="43.15626" lon="-1.2906">
        <ele>302</ele>
        <time>2021-03-17T14:10:17.000Z</time>
      </trkpt>
      <trkpt lat="43.1564" lon="-1.29058">
        <ele>302</ele>
        <time>2021-03-17T14:10:18.000Z</time>
      </trkpt>
      <trkpt lat="43.15665" lon="-1.29046">
        <ele>302</ele>
        <time>2021-03-17T14:10:19.000Z</time>
      </trkpt>
      <trkpt lat="43.15684" lon="-1.29036">
        <ele>301</ele>
        <time>2021-03-17T14:10:20.000Z</time>
      </trkpt>
      <trkpt lat="43.15704" lon="-1.29028">
        <ele>301</ele>
        <time>2021-03-17T14:10:21.000Z</time>
      </trkpt>
      <trkpt lat="43.15728" lon="-1.29034">
        <ele>301</ele>
        <time>2021-03-17T14:10:22.000Z</time>
      </trkpt>
      <trkpt lat="43.15746" lon="-1.2904">
        <ele>301</ele>
        <time>2021-03-17T14:10:23.000Z</time>
      </trkpt>
      <trkpt lat="43.15766" lon="-1.2905">
        <ele>297</ele>
        <time>2021-03-17T14:10:24.000Z</time>
      </trkpt>
      <trkpt lat="43.15801" lon="-1.29064">
        <ele>307</ele>
        <time>2021-03-17T14:10:25.000Z</time>
      </trkpt>
      <trkpt lat="43.15818" lon="-1.29069">
        <ele>307</ele>
        <time>2021-03-17T14:10:26.000Z</time>
      </trkpt>
      <trkpt lat="43.1584" lon="-1.29076">
        <ele>307</ele>
        <time>2021-03-17T14:10:27.000Z</time>
      </trkpt>
      <trkpt lat="43.1586" lon="-1.29086">
        <ele>296</ele>
        <time>2021-03-17T14:10:28.000Z</time>
      </trkpt>
      <trkpt lat="43.15877" lon="-1.29088">
        <ele>296</ele>
        <time>2021-03-17T14:10:29.000Z</time>
      </trkpt>
      <trkpt lat="43.15889" lon="-1.29091">
        <ele>296</ele>
        <time>2021-03-17T14:10:30.000Z</time>
      </trkpt>
      <trkpt lat="43.15891" lon="-1.29098">
        <ele>296</ele>
        <time>2021-03-17T14:10:31.000Z</time>
      </trkpt>
      <trkpt lat="43.1589" lon="-1.29102">
        <ele>296</ele>
        <time>2021-03-17T14:10:32.000Z</time>
      </trkpt>
      <trkpt lat="43.15877" lon="-1.2912">
        <ele>296</ele>
        <time>2021-03-17T14:10:33.000Z</time>
      </trkpt>
      <trkpt lat="43.15874" lon="-1.29128">
        <ele>296</ele>
        <time>2021-03-17T14:10:34.000Z</time>
      </trkpt>
      <trkpt lat="43.15877" lon="-1.29138">
        <ele>296</ele>
        <time>2021-03-17T14:10:35.000Z</time>
      </trkpt>
      <trkpt lat="43.15882" lon="-1.29147">
        <ele>304</ele>
        <time>2021-03-17T14:10:36.000Z</time>
      </trkpt>
      <trkpt lat="43.15982" lon="-1.29262">
        <ele>290</ele>
        <time>2021-03-17T14:10:37.000Z</time>
      </trkpt>
      <trkpt lat="43.16025" lon="-1.29347">
        <ele>282</ele>
        <time>2021-03-17T14:10:38.000Z</time>
      </trkpt>
      <trkpt lat="43.16031" lon="-1.29358">
        <ele>282</ele>
        <time>2021-03-17T14:10:39.000Z</time>
      </trkpt>
      <trkpt lat="43.16061" lon="-1.29397">
        <ele>282</ele>
        <time>2021-03-17T14:10:40.000Z</time>
      </trkpt>
      <trkpt lat="43.16079" lon="-1.29423">
        <ele>299</ele>
        <time>2021-03-17T14:10:41.000Z</time>
      </trkpt>
      <trkpt lat="43.16089" lon="-1.29436">
        <ele>299</ele>
        <time>2021-03-17T14:10:42.000Z</time>
      </trkpt>
      <trkpt lat="43.16104" lon="-1.29448">
        <ele>276</ele>
        <time>2021-03-17T14:10:43.000Z</time>
      </trkpt>
      <trkpt lat="43.16119" lon="-1.29457">
        <ele>276</ele>
        <time>2021-03-17T14:10:44.000Z</time>
      </trkpt>
      <trkpt lat="43.16132" lon="-1.29462">
        <ele>276</ele>
        <time>2021-03-17T14:10:45.000Z</time>
      </trkpt>
      <trkpt lat="43.16135" lon="-1.29461">
        <ele>276</ele>
        <time>2021-03-17T14:10:46.000Z</time>
      </trkpt>
      <trkpt lat="43.16145" lon="-1.29458">
        <ele>276</ele>
        <time>2021-03-17T14:10:47.000Z</time>
      </trkpt>
      <trkpt lat="43.16163" lon="-1.29449">
        <ele>276</ele>
        <time>2021-03-17T14:10:48.000Z</time>
      </trkpt>
      <trkpt lat="43.1618" lon="-1.29435">
        <ele>267</ele>
        <time>2021-03-17T14:10:49.000Z</time>
      </trkpt>
      <trkpt lat="43.16194" lon="-1.29422">
        <ele>267</ele>
        <time>2021-03-17T14:10:50.000Z</time>
      </trkpt>
      <trkpt lat="43.1622" lon="-1.29394">
        <ele>260</ele>
        <time>2021-03-17T14:10:51.000Z</time>
      </trkpt>
      <trkpt lat="43.16232" lon="-1.29385">
        <ele>260</ele>
        <time>2021-03-17T14:10:52.000Z</time>
      </trkpt>
      <trkpt lat="43.16241" lon="-1.29382">
        <ele>260</ele>
        <time>2021-03-17T14:10:53.000Z</time>
      </trkpt>
      <trkpt lat="43.16261" lon="-1.2938">
        <ele>247</ele>
        <time>2021-03-17T14:10:54.000Z</time>
      </trkpt>
      <trkpt lat="43.16288" lon="-1.29382">
        <ele>247</ele>
        <time>2021-03-17T14:10:55.000Z</time>
      </trkpt>
      <trkpt lat="43.16297" lon="-1.29385">
        <ele>247</ele>
        <time>2021-03-17T14:10:56.000Z</time>
      </trkpt>
      <trkpt lat="43.16306" lon="-1.29383">
        <ele>247</ele>
        <time>2021-03-17T14:10:57.000Z</time>
      </trkpt>
      <trkpt lat="43.16327" lon="-1.29376">
        <ele>247</ele>
        <time>2021-03-17T14:10:58.000Z</time>
      </trkpt>
      <trkpt lat="43.16339" lon="-1.29369">
        <ele>247</ele>
        <time>2021-03-17T14:10:59.000Z</time>
      </trkpt>
      <trkpt lat="43.16348" lon="-1.2936">
        <ele>239</ele>
        <time>2021-03-17T14:11:00.000Z</time>
      </trkpt>
      <trkpt lat="43.16369" lon="-1.29333">
        <ele>239</ele>
        <time>2021-03-17T14:11:01.000Z</time>
      </trkpt>
      <trkpt lat="43.16382" lon="-1.29322">
        <ele>239</ele>
        <time>2021-03-17T14:11:02.000Z</time>
      </trkpt>
      <trkpt lat="43.16393" lon="-1.29316">
        <ele>239</ele>
        <time>2021-03-17T14:11:03.000Z</time>
      </trkpt>
      <trkpt lat="43.16415" lon="-1.29311">
        <ele>241</ele>
        <time>2021-03-17T14:11:04.000Z</time>
      </trkpt>
      <trkpt lat="43.16438" lon="-1.29306">
        <ele>233</ele>
        <time>2021-03-17T14:11:05.000Z</time>
      </trkpt>
      <trkpt lat="43.16459" lon="-1.29302">
        <ele>233</ele>
        <time>2021-03-17T14:11:06.000Z</time>
      </trkpt>
      <trkpt lat="43.1647" lon="-1.29302">
        <ele>233</ele>
        <time>2021-03-17T14:11:07.000Z</time>
      </trkpt>
      <trkpt lat="43.16496" lon="-1.29305">
        <ele>233</ele>
        <time>2021-03-17T14:11:08.000Z</time>
      </trkpt>
      <trkpt lat="43.16509" lon="-1.29303">
        <ele>233</ele>
        <time>2021-03-17T14:11:09.000Z</time>
      </trkpt>
      <trkpt lat="43.16524" lon="-1.29299">
        <ele>230</ele>
        <time>2021-03-17T14:11:10.000Z</time>
      </trkpt>
      <trkpt lat="43.16545" lon="-1.29289">
        <ele>230</ele>
        <time>2021-03-17T14:11:11.000Z</time>
      </trkpt>
      <trkpt lat="43.16558" lon="-1.29283">
        <ele>230</ele>
        <time>2021-03-17T14:11:12.000Z</time>
      </trkpt>
      <trkpt lat="43.16571" lon="-1.29271">
        <ele>230</ele>
        <time>2021-03-17T14:11:13.000Z</time>
      </trkpt>
      <trkpt lat="43.16583" lon="-1.29259">
        <ele>230</ele>
        <time>2021-03-17T14:11:14.000Z</time>
      </trkpt>
      <trkpt lat="43.16603" lon="-1.29243">
        <ele>230</ele>
        <time>2021-03-17T14:11:15.000Z</time>
      </trkpt>
      <trkpt lat="43.16629" lon="-1.29227">
        <ele>223</ele>
        <time>2021-03-17T14:11:16.000Z</time>
      </trkpt>
      <trkpt lat="43.1665" lon="-1.29215">
        <ele>223</ele>
        <time>2021-03-17T14:11:17.000Z</time>
      </trkpt>
      <trkpt lat="43.16698" lon="-1.29193">
        <ele>221</ele>
        <time>2021-03-17T14:11:18.000Z</time>
      </trkpt>
      <trkpt lat="43.16712" lon="-1.29188">
        <ele>221</ele>
        <time>2021-03-17T14:11:19.000Z</time>
      </trkpt>
      <trkpt lat="43.16726" lon="-1.29186">
        <ele>221</ele>
        <time>2021-03-17T14:11:20.000Z</time>
      </trkpt>
      <trkpt lat="43.16736" lon="-1.29185">
        <ele>221</ele>
        <time>2021-03-17T14:11:21.000Z</time>
      </trkpt>
      <trkpt lat="43.1676" lon="-1.29185">
        <ele>221</ele>
        <time>2021-03-17T14:11:22.000Z</time>
      </trkpt>
      <trkpt lat="43.16796" lon="-1.29183">
        <ele>217</ele>
        <time>2021-03-17T14:11:23.000Z</time>
      </trkpt>
      <trkpt lat="43.16807" lon="-1.29183">
        <ele>217</ele>
        <time>2021-03-17T14:11:24.000Z</time>
      </trkpt>
      <trkpt lat="43.16815" lon="-1.2918">
        <ele>217</ele>
        <time>2021-03-17T14:11:25.000Z</time>
      </trkpt>
      <trkpt lat="43.16827" lon="-1.29174">
        <ele>217</ele>
        <time>2021-03-17T14:11:26.000Z</time>
      </trkpt>
      <trkpt lat="43.16837" lon="-1.29164">
        <ele>217</ele>
        <time>2021-03-17T14:11:27.000Z</time>
      </trkpt>
      <trkpt lat="43.1687" lon="-1.2913">
        <ele>212</ele>
        <time>2021-03-17T14:11:28.000Z</time>
      </trkpt>
      <trkpt lat="43.16889" lon="-1.29115">
        <ele>212</ele>
        <time>2021-03-17T14:11:29.000Z</time>
      </trkpt>
      <trkpt lat="43.16894" lon="-1.2911">
        <ele>212</ele>
        <time>2021-03-17T14:11:30.000Z</time>
      </trkpt>
      <trkpt lat="43.16911" lon="-1.29134">
        <ele>212</ele>
        <time>2021-03-17T14:11:31.000Z</time>
      </trkpt>
      <trkpt lat="43.16913" lon="-1.29148">
        <ele>214</ele>
        <time>2021-03-17T14:11:32.000Z</time>
      </trkpt>
      <trkpt lat="43.16911" lon="-1.29184">
        <ele>214</ele>
        <time>2021-03-17T14:11:33.000Z</time>
      </trkpt>
      <trkpt lat="43.16909" lon="-1.29197">
        <ele>214</ele>
        <time>2021-03-17T14:11:34.000Z</time>
      </trkpt>
      <trkpt lat="43.16913" lon="-1.29219">
        <ele>214</ele>
        <time>2021-03-17T14:11:35.000Z</time>
      </trkpt>
      <trkpt lat="43.16924" lon="-1.29268">
        <ele>218</ele>
        <time>2021-03-17T14:11:36.000Z</time>
      </trkpt>
      <trkpt lat="43.16925" lon="-1.29285">
        <ele>218</ele>
        <time>2021-03-17T14:11:37.000Z</time>
      </trkpt>
      <trkpt lat="43.16925" lon="-1.29316">
        <ele>224</ele>
        <time>2021-03-17T14:11:38.000Z</time>
      </trkpt>
      <trkpt lat="43.16934" lon="-1.29415">
        <ele>241</ele>
        <time>2021-03-17T14:11:39.000Z</time>
      </trkpt>
      <trkpt lat="43.16937" lon="-1.29464">
        <ele>241</ele>
        <time>2021-03-17T14:11:40.000Z</time>
      </trkpt>
      <trkpt lat="43.16941" lon="-1.2948">
        <ele>251</ele>
        <time>2021-03-17T14:11:41.000Z</time>
      </trkpt>
      <trkpt lat="43.16944" lon="-1.29513">
        <ele>251</ele>
        <time>2021-03-17T14:11:42.000Z</time>
      </trkpt>
      <trkpt lat="43.16945" lon="-1.29529">
        <ele>251</ele>
        <time>2021-03-17T14:11:43.000Z</time>
      </trkpt>
      <trkpt lat="43.1695" lon="-1.29546">
        <ele>251</ele>
        <time>2021-03-17T14:11:44.000Z</time>
      </trkpt>
      <trkpt lat="43.16956" lon="-1.29562">
        <ele>251</ele>
        <time>2021-03-17T14:11:45.000Z</time>
      </trkpt>
      <trkpt lat="43.16968" lon="-1.29584">
        <ele>261</ele>
        <time>2021-03-17T14:11:46.000Z</time>
      </trkpt>
      <trkpt lat="43.16978" lon="-1.29612">
        <ele>261</ele>
        <time>2021-03-17T14:11:47.000Z</time>
      </trkpt>
      <trkpt lat="43.16984" lon="-1.29627">
        <ele>261</ele>
        <time>2021-03-17T14:11:48.000Z</time>
      </trkpt>
      <trkpt lat="43.17" lon="-1.29654">
        <ele>269</ele>
        <time>2021-03-17T14:11:49.000Z</time>
      </trkpt>
      <trkpt lat="43.17012" lon="-1.29694">
        <ele>271</ele>
        <time>2021-03-17T14:11:50.000Z</time>
      </trkpt>
      <trkpt lat="43.17016" lon="-1.29744">
        <ele>277</ele>
        <time>2021-03-17T14:11:51.000Z</time>
      </trkpt>
      <trkpt lat="43.17018" lon="-1.29771">
        <ele>277</ele>
        <time>2021-03-17T14:11:52.000Z</time>
      </trkpt>
      <trkpt lat="43.17024" lon="-1.29793">
        <ele>277</ele>
        <time>2021-03-17T14:11:53.000Z</time>
      </trkpt>
      <trkpt lat="43.17037" lon="-1.29835">
        <ele>287</ele>
        <time>2021-03-17T14:11:54.000Z</time>
      </trkpt>
      <trkpt lat="43.17038" lon="-1.29855">
        <ele>287</ele>
        <time>2021-03-17T14:11:55.000Z</time>
      </trkpt>
      <trkpt lat="43.1703" lon="-1.29921">
        <ele>293</ele>
        <time>2021-03-17T14:11:56.000Z</time>
      </trkpt>
      <trkpt lat="43.17031" lon="-1.29939">
        <ele>293</ele>
        <time>2021-03-17T14:11:57.000Z</time>
      </trkpt>
      <trkpt lat="43.17039" lon="-1.29955">
        <ele>293</ele>
        <time>2021-03-17T14:11:58.000Z</time>
      </trkpt>
      <trkpt lat="43.17053" lon="-1.2997">
        <ele>293</ele>
        <time>2021-03-17T14:11:59.000Z</time>
      </trkpt>
      <trkpt lat="43.17061" lon="-1.29975">
        <ele>293</ele>
        <time>2021-03-17T14:12:00.000Z</time>
      </trkpt>
      <trkpt lat="43.17115" lon="-1.30012">
        <ele>286</ele>
        <time>2021-03-17T14:12:01.000Z</time>
      </trkpt>
      <trkpt lat="43.17127" lon="-1.30024">
        <ele>286</ele>
        <time>2021-03-17T14:12:02.000Z</time>
      </trkpt>
      <trkpt lat="43.17142" lon="-1.30045">
        <ele>286</ele>
        <time>2021-03-17T14:12:03.000Z</time>
      </trkpt>
      <trkpt lat="43.17165" lon="-1.30104">
        <ele>278</ele>
        <time>2021-03-17T14:12:04.000Z</time>
      </trkpt>
      <trkpt lat="43.172" lon="-1.30185">
        <ele>266</ele>
        <time>2021-03-17T14:12:05.000Z</time>
      </trkpt>
      <trkpt lat="43.17206" lon="-1.30203">
        <ele>266</ele>
        <time>2021-03-17T14:12:06.000Z</time>
      </trkpt>
      <trkpt lat="43.17183" lon="-1.30201">
        <ele>266</ele>
        <time>2021-03-17T14:12:07.000Z</time>
      </trkpt>
      <trkpt lat="43.17155" lon="-1.30204">
        <ele>267</ele>
        <time>2021-03-17T14:12:08.000Z</time>
      </trkpt>
      <trkpt lat="43.17137" lon="-1.30208">
        <ele>267</ele>
        <time>2021-03-17T14:12:09.000Z</time>
      </trkpt>
      <trkpt lat="43.17111" lon="-1.30219">
        <ele>267</ele>
        <time>2021-03-17T14:12:10.000Z</time>
      </trkpt>
      <trkpt lat="43.1709" lon="-1.3023">
        <ele>268</ele>
        <time>2021-03-17T14:12:11.000Z</time>
      </trkpt>
      <trkpt lat="43.17063" lon="-1.30249">
        <ele>259</ele>
        <time>2021-03-17T14:12:12.000Z</time>
      </trkpt>
      <trkpt lat="43.1705" lon="-1.30253">
        <ele>259</ele>
        <time>2021-03-17T14:12:13.000Z</time>
      </trkpt>
      <trkpt lat="43.17016" lon="-1.30258">
        <ele>259</ele>
        <time>2021-03-17T14:12:14.000Z</time>
      </trkpt>
      <trkpt lat="43.16963" lon="-1.30265">
        <ele>262</ele>
        <time>2021-03-17T14:12:15.000Z</time>
      </trkpt>
      <trkpt lat="43.1695" lon="-1.30267">
        <ele>262</ele>
        <time>2021-03-17T14:12:16.000Z</time>
      </trkpt>
      <trkpt lat="43.16938" lon="-1.30271">
        <ele>262</ele>
        <time>2021-03-17T14:12:17.000Z</time>
      </trkpt>
      <trkpt lat="43.16925" lon="-1.30279">
        <ele>265</ele>
        <time>2021-03-17T14:12:18.000Z</time>
      </trkpt>
      <trkpt lat="43.16901" lon="-1.30294">
        <ele>265</ele>
        <time>2021-03-17T14:12:19.000Z</time>
      </trkpt>
      <trkpt lat="43.16857" lon="-1.30315">
        <ele>253</ele>
        <time>2021-03-17T14:12:20.000Z</time>
      </trkpt>
      <trkpt lat="43.16825" lon="-1.30329">
        <ele>258</ele>
        <time>2021-03-17T14:12:21.000Z</time>
      </trkpt>
      <trkpt lat="43.1679" lon="-1.30339">
        <ele>258</ele>
        <time>2021-03-17T14:12:22.000Z</time>
      </trkpt>
      <trkpt lat="43.1677" lon="-1.30346">
        <ele>258</ele>
        <time>2021-03-17T14:12:23.000Z</time>
      </trkpt>
      <trkpt lat="43.16756" lon="-1.30355">
        <ele>264</ele>
        <time>2021-03-17T14:12:24.000Z</time>
      </trkpt>
      <trkpt lat="43.16726" lon="-1.3038">
        <ele>264</ele>
        <time>2021-03-17T14:12:25.000Z</time>
      </trkpt>
      <trkpt lat="43.1671" lon="-1.30389">
        <ele>264</ele>
        <time>2021-03-17T14:12:26.000Z</time>
      </trkpt>
      <trkpt lat="43.16678" lon="-1.30406">
        <ele>258</ele>
        <time>2021-03-17T14:12:27.000Z</time>
      </trkpt>
      <trkpt lat="43.1666" lon="-1.30419">
        <ele>258</ele>
        <time>2021-03-17T14:12:28.000Z</time>
      </trkpt>
      <trkpt lat="43.16648" lon="-1.30437">
        <ele>258</ele>
        <time>2021-03-17T14:12:29.000Z</time>
      </trkpt>
      <trkpt lat="43.16633" lon="-1.30465">
        <ele>258</ele>
        <time>2021-03-17T14:12:30.000Z</time>
      </trkpt>
      <trkpt lat="43.16632" lon="-1.30478">
        <ele>258</ele>
        <time>2021-03-17T14:12:31.000Z</time>
      </trkpt>
      <trkpt lat="43.16635" lon="-1.30526">
        <ele>250</ele>
        <time>2021-03-17T14:12:32.000Z</time>
      </trkpt>
      <trkpt lat="43.16636" lon="-1.3056">
        <ele>250</ele>
        <time>2021-03-17T14:12:33.000Z</time>
      </trkpt>
      <trkpt lat="43.16637" lon="-1.30593">
        <ele>236</ele>
        <time>2021-03-17T14:12:34.000Z</time>
      </trkpt>
      <trkpt lat="43.16636" lon="-1.30606">
        <ele>236</ele>
        <time>2021-03-17T14:12:35.000Z</time>
      </trkpt>
      <trkpt lat="43.16634" lon="-1.30616">
        <ele>236</ele>
        <time>2021-03-17T14:12:36.000Z</time>
      </trkpt>
      <trkpt lat="43.1663" lon="-1.30627">
        <ele>236</ele>
        <time>2021-03-17T14:12:37.000Z</time>
      </trkpt>
      <trkpt lat="43.16613" lon="-1.30645">
        <ele>236</ele>
        <time>2021-03-17T14:12:38.000Z</time>
      </trkpt>
      <trkpt lat="43.16599" lon="-1.30657">
        <ele>238</ele>
        <time>2021-03-17T14:12:39.000Z</time>
      </trkpt>
      <trkpt lat="43.16586" lon="-1.30673">
        <ele>240</ele>
        <time>2021-03-17T14:12:40.000Z</time>
      </trkpt>
      <trkpt lat="43.16577" lon="-1.30676">
        <ele>240</ele>
        <time>2021-03-17T14:12:41.000Z</time>
      </trkpt>
      <trkpt lat="43.16573" lon="-1.30686">
        <ele>240</ele>
        <time>2021-03-17T14:12:42.000Z</time>
      </trkpt>
      <trkpt lat="43.16575" lon="-1.30693">
        <ele>240</ele>
        <time>2021-03-17T14:12:43.000Z</time>
      </trkpt>
      <trkpt lat="43.16593" lon="-1.30715">
        <ele>240</ele>
        <time>2021-03-17T14:12:44.000Z</time>
      </trkpt>
      <trkpt lat="43.1661" lon="-1.30735">
        <ele>256</ele>
        <time>2021-03-17T14:12:45.000Z</time>
      </trkpt>
      <trkpt lat="43.16627" lon="-1.30756">
        <ele>256</ele>
        <time>2021-03-17T14:12:46.000Z</time>
      </trkpt>
      <trkpt lat="43.16648" lon="-1.3078">
        <ele>256</ele>
        <time>2021-03-17T14:12:47.000Z</time>
      </trkpt>
      <trkpt lat="43.16656" lon="-1.30787">
        <ele>256</ele>
        <time>2021-03-17T14:12:48.000Z</time>
      </trkpt>
      <trkpt lat="43.16674" lon="-1.30797">
        <ele>256</ele>
        <time>2021-03-17T14:12:49.000Z</time>
      </trkpt>
      <trkpt lat="43.16685" lon="-1.30808">
        <ele>233</ele>
        <time>2021-03-17T14:12:50.000Z</time>
      </trkpt>
      <trkpt lat="43.1669" lon="-1.3082">
        <ele>241</ele>
        <time>2021-03-17T14:12:51.000Z</time>
      </trkpt>
      <trkpt lat="43.16695" lon="-1.30827">
        <ele>241</ele>
        <time>2021-03-17T14:12:52.000Z</time>
      </trkpt>
      <trkpt lat="43.16702" lon="-1.30833">
        <ele>241</ele>
        <time>2021-03-17T14:12:53.000Z</time>
      </trkpt>
      <trkpt lat="43.16717" lon="-1.30839">
        <ele>241</ele>
        <time>2021-03-17T14:12:54.000Z</time>
      </trkpt>
      <trkpt lat="43.16724" lon="-1.30848">
        <ele>241</ele>
        <time>2021-03-17T14:12:55.000Z</time>
      </trkpt>
      <trkpt lat="43.1673" lon="-1.30858">
        <ele>241</ele>
        <time>2021-03-17T14:12:56.000Z</time>
      </trkpt>
      <trkpt lat="43.16736" lon="-1.30874">
        <ele>241</ele>
        <time>2021-03-17T14:12:57.000Z</time>
      </trkpt>
      <trkpt lat="43.16745" lon="-1.30889">
        <ele>241</ele>
        <time>2021-03-17T14:12:58.000Z</time>
      </trkpt>
      <trkpt lat="43.16763" lon="-1.30904">
        <ele>227</ele>
        <time>2021-03-17T14:12:59.000Z</time>
      </trkpt>
      <trkpt lat="43.16781" lon="-1.30929">
        <ele>227</ele>
        <time>2021-03-17T14:13:00.000Z</time>
      </trkpt>
      <trkpt lat="43.16789" lon="-1.30937">
        <ele>227</ele>
        <time>2021-03-17T14:13:01.000Z</time>
      </trkpt>
      <trkpt lat="43.168" lon="-1.30947">
        <ele>227</ele>
        <time>2021-03-17T14:13:02.000Z</time>
      </trkpt>
      <trkpt lat="43.1681" lon="-1.3096">
        <ele>227</ele>
        <time>2021-03-17T14:13:03.000Z</time>
      </trkpt>
      <trkpt lat="43.16814" lon="-1.30968">
        <ele>227</ele>
        <time>2021-03-17T14:13:04.000Z</time>
      </trkpt>
      <trkpt lat="43.16818" lon="-1.30981">
        <ele>228</ele>
        <time>2021-03-17T14:13:05.000Z</time>
      </trkpt>
      <trkpt lat="43.16824" lon="-1.30994">
        <ele>228</ele>
        <time>2021-03-17T14:13:06.000Z</time>
      </trkpt>
      <trkpt lat="43.16846" lon="-1.31012">
        <ele>217</ele>
        <time>2021-03-17T14:13:07.000Z</time>
      </trkpt>
      <trkpt lat="43.16849" lon="-1.3102">
        <ele>217</ele>
        <time>2021-03-17T14:13:08.000Z</time>
      </trkpt>
      <trkpt lat="43.16847" lon="-1.31034">
        <ele>217</ele>
        <time>2021-03-17T14:13:09.000Z</time>
      </trkpt>
      <trkpt lat="43.16854" lon="-1.31053">
        <ele>217</ele>
        <time>2021-03-17T14:13:10.000Z</time>
      </trkpt>
      <trkpt lat="43.16862" lon="-1.31073">
        <ele>221</ele>
        <time>2021-03-17T14:13:11.000Z</time>
      </trkpt>
      <trkpt lat="43.16874" lon="-1.31115">
        <ele>221</ele>
        <time>2021-03-17T14:13:12.000Z</time>
      </trkpt>
      <trkpt lat="43.16886" lon="-1.31137">
        <ele>221</ele>
        <time>2021-03-17T14:13:13.000Z</time>
      </trkpt>
      <trkpt lat="43.169" lon="-1.31162">
        <ele>222</ele>
        <time>2021-03-17T14:13:14.000Z</time>
      </trkpt>
      <trkpt lat="43.16917" lon="-1.31188">
        <ele>222</ele>
        <time>2021-03-17T14:13:15.000Z</time>
      </trkpt>
      <trkpt lat="43.16921" lon="-1.31195">
        <ele>222</ele>
        <time>2021-03-17T14:13:16.000Z</time>
      </trkpt>
      <trkpt lat="43.16925" lon="-1.31209">
        <ele>222</ele>
        <time>2021-03-17T14:13:17.000Z</time>
      </trkpt>
      <trkpt lat="43.16928" lon="-1.31223">
        <ele>213</ele>
        <time>2021-03-17T14:13:18.000Z</time>
      </trkpt>
      <trkpt lat="43.16932" lon="-1.31249">
        <ele>219</ele>
        <time>2021-03-17T14:13:19.000Z</time>
      </trkpt>
      <trkpt lat="43.16937" lon="-1.31261">
        <ele>219</ele>
        <time>2021-03-17T14:13:20.000Z</time>
      </trkpt>
      <trkpt lat="43.16968" lon="-1.31297">
        <ele>219</ele>
        <time>2021-03-17T14:13:21.000Z</time>
      </trkpt>
      <trkpt lat="43.16972" lon="-1.31312">
        <ele>219</ele>
        <time>2021-03-17T14:13:22.000Z</time>
      </trkpt>
      <trkpt lat="43.17003" lon="-1.31349">
        <ele>233</ele>
        <time>2021-03-17T14:13:23.000Z</time>
      </trkpt>
      <trkpt lat="43.17008" lon="-1.31363">
        <ele>233</ele>
        <time>2021-03-17T14:13:24.000Z</time>
      </trkpt>
      <trkpt lat="43.17024" lon="-1.31429">
        <ele>226</ele>
        <time>2021-03-17T14:13:25.000Z</time>
      </trkpt>
      <trkpt lat="43.17035" lon="-1.3144">
        <ele>226</ele>
        <time>2021-03-17T14:13:26.000Z</time>
      </trkpt>
      <trkpt lat="43.17071" lon="-1.3146">
        <ele>226</ele>
        <time>2021-03-17T14:13:27.000Z</time>
      </trkpt>
      <trkpt lat="43.17088" lon="-1.3147">
        <ele>226</ele>
        <time>2021-03-17T14:13:28.000Z</time>
      </trkpt>
      <trkpt lat="43.17098" lon="-1.31481">
        <ele>230</ele>
        <time>2021-03-17T14:13:29.000Z</time>
      </trkpt>
      <trkpt lat="43.17101" lon="-1.31493">
        <ele>230</ele>
        <time>2021-03-17T14:13:30.000Z</time>
      </trkpt>
      <trkpt lat="43.17104" lon="-1.31497">
        <ele>230</ele>
        <time>2021-03-17T14:13:31.000Z</time>
      </trkpt>
      <trkpt lat="43.17115" lon="-1.31503">
        <ele>230</ele>
        <time>2021-03-17T14:13:32.000Z</time>
      </trkpt>
      <trkpt lat="43.1713" lon="-1.31511">
        <ele>230</ele>
        <time>2021-03-17T14:13:33.000Z</time>
      </trkpt>
      <trkpt lat="43.17139" lon="-1.31519">
        <ele>230</ele>
        <time>2021-03-17T14:13:34.000Z</time>
      </trkpt>
      <trkpt lat="43.17144" lon="-1.3153">
        <ele>230</ele>
        <time>2021-03-17T14:13:35.000Z</time>
      </trkpt>
      <trkpt lat="43.1716" lon="-1.31544">
        <ele>230</ele>
        <time>2021-03-17T14:13:36.000Z</time>
      </trkpt>
      <trkpt lat="43.17169" lon="-1.31554">
        <ele>230</ele>
        <time>2021-03-17T14:13:37.000Z</time>
      </trkpt>
      <trkpt lat="43.17198" lon="-1.31586">
        <ele>233</ele>
        <time>2021-03-17T14:13:38.000Z</time>
      </trkpt>
      <trkpt lat="43.17211" lon="-1.31597">
        <ele>233</ele>
        <time>2021-03-17T14:13:39.000Z</time>
      </trkpt>
      <trkpt lat="43.17238" lon="-1.31631">
        <ele>233</ele>
        <time>2021-03-17T14:13:40.000Z</time>
      </trkpt>
      <trkpt lat="43.17253" lon="-1.31647">
        <ele>233</ele>
        <time>2021-03-17T14:13:41.000Z</time>
      </trkpt>
      <trkpt lat="43.17271" lon="-1.31659">
        <ele>226</ele>
        <time>2021-03-17T14:13:42.000Z</time>
      </trkpt>
      <trkpt lat="43.17287" lon="-1.31672">
        <ele>226</ele>
        <time>2021-03-17T14:13:43.000Z</time>
      </trkpt>
      <trkpt lat="43.173" lon="-1.31683">
        <ele>226</ele>
        <time>2021-03-17T14:13:44.000Z</time>
      </trkpt>
      <trkpt lat="43.17316" lon="-1.31697">
        <ele>226</ele>
        <time>2021-03-17T14:13:45.000Z</time>
      </trkpt>
      <trkpt lat="43.17339" lon="-1.31723">
        <ele>226</ele>
        <time>2021-03-17T14:13:46.000Z</time>
      </trkpt>
      <trkpt lat="43.17378" lon="-1.31755">
        <ele>245</ele>
        <time>2021-03-17T14:13:47.000Z</time>
      </trkpt>
      <trkpt lat="43.1741" lon="-1.31773">
        <ele>245</ele>
        <time>2021-03-17T14:13:48.000Z</time>
      </trkpt>
      <trkpt lat="43.17431" lon="-1.31789">
        <ele>229</ele>
        <time>2021-03-17T14:13:49.000Z</time>
      </trkpt>
      <trkpt lat="43.17453" lon="-1.31808">
        <ele>229</ele>
        <time>2021-03-17T14:13:50.000Z</time>
      </trkpt>
      <trkpt lat="43.17506" lon="-1.3186">
        <ele>243</ele>
        <time>2021-03-17T14:13:51.000Z</time>
      </trkpt>
      <trkpt lat="43.17529" lon="-1.3189">
        <ele>220</ele>
        <time>2021-03-17T14:13:52.000Z</time>
      </trkpt>
      <trkpt lat="43.17546" lon="-1.31907">
        <ele>233</ele>
        <time>2021-03-17T14:13:53.000Z</time>
      </trkpt>
      <trkpt lat="43.17563" lon="-1.31918">
        <ele>233</ele>
        <time>2021-03-17T14:13:54.000Z</time>
      </trkpt>
      <trkpt lat="43.17579" lon="-1.31923">
        <ele>233</ele>
        <time>2021-03-17T14:13:55.000Z</time>
      </trkpt>
      <trkpt lat="43.17592" lon="-1.3193">
        <ele>233</ele>
        <time>2021-03-17T14:13:56.000Z</time>
      </trkpt>
      <trkpt lat="43.17606" lon="-1.31941">
        <ele>219</ele>
        <time>2021-03-17T14:13:57.000Z</time>
      </trkpt>
      <trkpt lat="43.17619" lon="-1.31952">
        <ele>219</ele>
        <time>2021-03-17T14:13:58.000Z</time>
      </trkpt>
      <trkpt lat="43.17642" lon="-1.31968">
        <ele>219</ele>
        <time>2021-03-17T14:13:59.000Z</time>
      </trkpt>
      <trkpt lat="43.17657" lon="-1.31978">
        <ele>219</ele>
        <time>2021-03-17T14:14:00.000Z</time>
      </trkpt>
      <trkpt lat="43.1767" lon="-1.3199">
        <ele>219</ele>
        <time>2021-03-17T14:14:01.000Z</time>
      </trkpt>
      <trkpt lat="43.17693" lon="-1.32018">
        <ele>207</ele>
        <time>2021-03-17T14:14:02.000Z</time>
      </trkpt>
      <trkpt lat="43.17705" lon="-1.32035">
        <ele>207</ele>
        <time>2021-03-17T14:14:03.000Z</time>
      </trkpt>
      <trkpt lat="43.17715" lon="-1.32051">
        <ele>207</ele>
        <time>2021-03-17T14:14:04.000Z</time>
      </trkpt>
      <trkpt lat="43.17721" lon="-1.32065">
        <ele>202</ele>
        <time>2021-03-17T14:14:05.000Z</time>
      </trkpt>
      <trkpt lat="43.17737" lon="-1.32095">
        <ele>202</ele>
        <time>2021-03-17T14:14:06.000Z</time>
      </trkpt>
      <trkpt lat="43.17745" lon="-1.32109">
        <ele>202</ele>
        <time>2021-03-17T14:14:07.000Z</time>
      </trkpt>
      <trkpt lat="43.1775" lon="-1.32119">
        <ele>202</ele>
        <time>2021-03-17T14:14:08.000Z</time>
      </trkpt>
      <trkpt lat="43.17756" lon="-1.32135">
        <ele>202</ele>
        <time>2021-03-17T14:14:09.000Z</time>
      </trkpt>
      <trkpt lat="43.17761" lon="-1.32149">
        <ele>200</ele>
        <time>2021-03-17T14:14:10.000Z</time>
      </trkpt>
      <trkpt lat="43.17767" lon="-1.32156">
        <ele>195</ele>
        <time>2021-03-17T14:14:11.000Z</time>
      </trkpt>
      <trkpt lat="43.17779" lon="-1.32164">
        <ele>195</ele>
        <time>2021-03-17T14:14:12.000Z</time>
      </trkpt>
      <trkpt lat="43.17808" lon="-1.32182">
        <ele>195</ele>
        <time>2021-03-17T14:14:13.000Z</time>
      </trkpt>
      <trkpt lat="43.17849" lon="-1.32217">
        <ele>189</ele>
        <time>2021-03-17T14:14:14.000Z</time>
      </trkpt>
      <trkpt lat="43.17857" lon="-1.32224">
        <ele>189</ele>
        <time>2021-03-17T14:14:15.000Z</time>
      </trkpt>
      <trkpt lat="43.17867" lon="-1.32236">
        <ele>193</ele>
        <time>2021-03-17T14:14:16.000Z</time>
      </trkpt>
      <trkpt lat="43.17895" lon="-1.32289">
        <ele>193</ele>
        <time>2021-03-17T14:14:17.000Z</time>
      </trkpt>
      <trkpt lat="43.17902" lon="-1.32309">
        <ele>193</ele>
        <time>2021-03-17T14:14:18.000Z</time>
      </trkpt>
      <trkpt lat="43.1791" lon="-1.32349">
        <ele>194</ele>
        <time>2021-03-17T14:14:19.000Z</time>
      </trkpt>
      <trkpt lat="43.17932" lon="-1.32406">
        <ele>191</ele>
        <time>2021-03-17T14:14:20.000Z</time>
      </trkpt>
      <trkpt lat="43.17938" lon="-1.32423">
        <ele>191</ele>
        <time>2021-03-17T14:14:21.000Z</time>
      </trkpt>
      <trkpt lat="43.17942" lon="-1.32428">
        <ele>191</ele>
        <time>2021-03-17T14:14:22.000Z</time>
      </trkpt>
      <trkpt lat="43.17941" lon="-1.32444">
        <ele>191</ele>
        <time>2021-03-17T14:14:23.000Z</time>
      </trkpt>
      <trkpt lat="43.1794" lon="-1.32456">
        <ele>191</ele>
        <time>2021-03-17T14:14:24.000Z</time>
      </trkpt>
      <trkpt lat="43.17949" lon="-1.3246">
        <ele>191</ele>
        <time>2021-03-17T14:14:25.000Z</time>
      </trkpt>
      <trkpt lat="43.1794" lon="-1.32456">
        <ele>191</ele>
        <time>2021-03-17T14:14:26.000Z</time>
      </trkpt>
      <trkpt lat="43.17937" lon="-1.32467">
        <ele>191</ele>
        <time>2021-03-17T14:14:27.000Z</time>
      </trkpt>
      <trkpt lat="43.17931" lon="-1.32478">
        <ele>191</ele>
        <time>2021-03-17T14:14:28.000Z</time>
      </trkpt>
      <trkpt lat="43.17925" lon="-1.3251">
        <ele>195</ele>
        <time>2021-03-17T14:14:29.000Z</time>
      </trkpt>
      <trkpt lat="43.1792" lon="-1.32532">
        <ele>195</ele>
        <time>2021-03-17T14:14:30.000Z</time>
      </trkpt>
      <trkpt lat="43.17914" lon="-1.3255">
        <ele>195</ele>
        <time>2021-03-17T14:14:31.000Z</time>
      </trkpt>
      <trkpt lat="43.17895" lon="-1.32589">
        <ele>198</ele>
        <time>2021-03-17T14:14:32.000Z</time>
      </trkpt>
      <trkpt lat="43.17869" lon="-1.3265">
        <ele>203</ele>
        <time>2021-03-17T14:14:33.000Z</time>
      </trkpt>
      <trkpt lat="43.17859" lon="-1.32672">
        <ele>203</ele>
        <time>2021-03-17T14:14:34.000Z</time>
      </trkpt>
      <trkpt lat="43.17854" lon="-1.3268">
        <ele>203</ele>
        <time>2021-03-17T14:14:35.000Z</time>
      </trkpt>
      <trkpt lat="43.17831" lon="-1.32718">
        <ele>199</ele>
        <time>2021-03-17T14:14:36.000Z</time>
      </trkpt>
      <trkpt lat="43.17827" lon="-1.32728">
        <ele>199</ele>
        <time>2021-03-17T14:14:37.000Z</time>
      </trkpt>
      <trkpt lat="43.17821" lon="-1.32743">
        <ele>192</ele>
        <time>2021-03-17T14:14:38.000Z</time>
      </trkpt>
      <trkpt lat="43.17816" lon="-1.32752">
        <ele>192</ele>
        <time>2021-03-17T14:14:39.000Z</time>
      </trkpt>
      <trkpt lat="43.1781" lon="-1.32757">
        <ele>192</ele>
        <time>2021-03-17T14:14:40.000Z</time>
      </trkpt>
      <trkpt lat="43.17788" lon="-1.3277">
        <ele>192</ele>
        <time>2021-03-17T14:14:41.000Z</time>
      </trkpt>
      <trkpt lat="43.17775" lon="-1.32777">
        <ele>192</ele>
        <time>2021-03-17T14:14:42.000Z</time>
      </trkpt>
      <trkpt lat="43.17765" lon="-1.32783">
        <ele>192</ele>
        <time>2021-03-17T14:14:43.000Z</time>
      </trkpt>
      <trkpt lat="43.17751" lon="-1.32787">
        <ele>197</ele>
        <time>2021-03-17T14:14:44.000Z</time>
      </trkpt>
      <trkpt lat="43.17744" lon="-1.32791">
        <ele>197</ele>
        <time>2021-03-17T14:14:45.000Z</time>
      </trkpt>
      <trkpt lat="43.17715" lon="-1.32822">
        <ele>207</ele>
        <time>2021-03-17T14:14:46.000Z</time>
      </trkpt>
      <trkpt lat="43.17703" lon="-1.32836">
        <ele>207</ele>
        <time>2021-03-17T14:14:47.000Z</time>
      </trkpt>
      <trkpt lat="43.177" lon="-1.3285">
        <ele>207</ele>
        <time>2021-03-17T14:14:48.000Z</time>
      </trkpt>
      <trkpt lat="43.17698" lon="-1.32865">
        <ele>207</ele>
        <time>2021-03-17T14:14:49.000Z</time>
      </trkpt>
      <trkpt lat="43.17699" lon="-1.32876">
        <ele>207</ele>
        <time>2021-03-17T14:14:50.000Z</time>
      </trkpt>
      <trkpt lat="43.17704" lon="-1.32891">
        <ele>207</ele>
        <time>2021-03-17T14:14:51.000Z</time>
      </trkpt>
      <trkpt lat="43.17717" lon="-1.32922">
        <ele>214</ele>
        <time>2021-03-17T14:14:52.000Z</time>
      </trkpt>
      <trkpt lat="43.17731" lon="-1.32963">
        <ele>214</ele>
        <time>2021-03-17T14:14:53.000Z</time>
      </trkpt>
      <trkpt lat="43.17738" lon="-1.32977">
        <ele>214</ele>
        <time>2021-03-17T14:14:54.000Z</time>
      </trkpt>
      <trkpt lat="43.17744" lon="-1.32984">
        <ele>215</ele>
        <time>2021-03-17T14:14:55.000Z</time>
      </trkpt>
      <trkpt lat="43.17746" lon="-1.32994">
        <ele>215</ele>
        <time>2021-03-17T14:14:56.000Z</time>
      </trkpt>
      <trkpt lat="43.17745" lon="-1.33001">
        <ele>215</ele>
        <time>2021-03-17T14:14:57.000Z</time>
      </trkpt>
      <trkpt lat="43.17742" lon="-1.33005">
        <ele>215</ele>
        <time>2021-03-17T14:14:58.000Z</time>
      </trkpt>
      <trkpt lat="43.17728" lon="-1.33013">
        <ele>215</ele>
        <time>2021-03-17T14:14:59.000Z</time>
      </trkpt>
      <trkpt lat="43.17721" lon="-1.33019">
        <ele>215</ele>
        <time>2021-03-17T14:15:00.000Z</time>
      </trkpt>
      <trkpt lat="43.17712" lon="-1.33033">
        <ele>215</ele>
        <time>2021-03-17T14:15:01.000Z</time>
      </trkpt>
      <trkpt lat="43.17703" lon="-1.33061">
        <ele>215</ele>
        <time>2021-03-17T14:15:02.000Z</time>
      </trkpt>
      <trkpt lat="43.17699" lon="-1.33075">
        <ele>210</ele>
        <time>2021-03-17T14:15:03.000Z</time>
      </trkpt>
      <trkpt lat="43.17684" lon="-1.33075">
        <ele>210</ele>
        <time>2021-03-17T14:15:04.000Z</time>
      </trkpt>
      <trkpt lat="43.17661" lon="-1.33077">
        <ele>215</ele>
        <time>2021-03-17T14:15:05.000Z</time>
      </trkpt>
      <trkpt lat="43.17645" lon="-1.33075">
        <ele>215</ele>
        <time>2021-03-17T14:15:06.000Z</time>
      </trkpt>
      <trkpt lat="43.17625" lon="-1.33067">
        <ele>215</ele>
        <time>2021-03-17T14:15:07.000Z</time>
      </trkpt>
      <trkpt lat="43.17593" lon="-1.3305">
        <ele>224</ele>
        <time>2021-03-17T14:15:08.000Z</time>
      </trkpt>
      <trkpt lat="43.17576" lon="-1.33038">
        <ele>224</ele>
        <time>2021-03-17T14:15:09.000Z</time>
      </trkpt>
      <trkpt lat="43.17574" lon="-1.33036">
        <ele>224</ele>
        <time>2021-03-17T14:15:10.000Z</time>
      </trkpt>
      <trkpt lat="43.17568" lon="-1.33029">
        <ele>224</ele>
        <time>2021-03-17T14:15:11.000Z</time>
      </trkpt>
      <trkpt lat="43.17562" lon="-1.33022">
        <ele>224</ele>
        <time>2021-03-17T14:15:12.000Z</time>
      </trkpt>
      <trkpt lat="43.17552" lon="-1.33012">
        <ele>224</ele>
        <time>2021-03-17T14:15:13.000Z</time>
      </trkpt>
      <trkpt lat="43.17541" lon="-1.33007">
        <ele>224</ele>
        <time>2021-03-17T14:15:14.000Z</time>
      </trkpt>
      <trkpt lat="43.17531" lon="-1.33003">
        <ele>224</ele>
        <time>2021-03-17T14:15:15.000Z</time>
      </trkpt>
      <trkpt lat="43.17517" lon="-1.32999">
        <ele>224</ele>
        <time>2021-03-17T14:15:16.000Z</time>
      </trkpt>
    </trkseg>
  </trk>
</gpx>